
Distance (Route):
Temperature : 0°C
Humidity : 0%
Pressure : 0hPa| Receiver | Frames | First received | Last received |
|---|---|---|---|
| 9A1FER-3 | 255 | 2026-08-31 11:55:52 | 2026-08-31 13:16:00 |
| 9A1FER-10 | 228 | 2026-08-31 12:02:38 | 2026-08-31 13:16:56 |
| OM5KV | 206 | 2026-08-31 12:29:35 | 2026-08-31 13:17:22 |
| PETON7-10 | 105 | 2026-08-31 12:25:55 | 2026-08-31 12:58:12 |
| 9A1FER-15 | 50 | 2026-08-31 12:52:02 | 2026-08-31 13:06:20 |
| DO3MHA-12 | 31 | 2026-08-31 12:45:53 | 2026-08-31 12:56:59 |
| DG1MFX-10 | 29 | 2026-08-31 12:43:28 | 2026-08-31 12:57:41 |
| OE3JTB-15 | 11 | 2026-08-31 12:08:47 | 2026-08-31 12:19:19 |
| Receiver | Date | Latitude | Longitude | Direction | Speed | Altitude | Climb | Temperature | Humidity | Pressure | Voltage | Killtimer | Uptime | BKT | XDATA |
|---|---|---|---|---|---|---|---|---|---|---|---|---|---|---|---|
| OM5KV | 2026-08-31 13:17:22 | 46.33249 | 15.71867 | 78° | 57km/h | 5087m | -13.3m/s | 0°C | 0% | 0hPa | 0V | 00:00:00 | 00:00:00 | 00:00:00 | |
| OM5KV | 2026-08-31 13:17:17 | 46.33236 | 15.71768 | 77° | 53km/h | 5148m | -13.1m/s | -42.2°C | 2.9% | 0hPa | 0V | 00:00:00 | 00:00:00 | 00:00:00 | |
| OM5KV | 2026-08-31 13:17:16 | 46.33232 | 15.71749 | 74° | 55km/h | 5160m | -12.7m/s | 0°C | 0% | 0hPa | 0V | 00:00:00 | 00:00:00 | 00:00:00 | |
| OM5KV | 2026-08-31 13:17:12 | 46.33216 | 15.71670 | 81° | 55km/h | 5211m | -13.0m/s | -42.2°C | 2.9% | 0hPa | 0V | 00:00:00 | 00:00:00 | 00:00:00 | |
| OM5KV | 2026-08-31 13:17:11 | 46.33212 | 15.71650 | 75° | 57km/h | 5223m | -12.7m/s | 0°C | 0% | 0hPa | 0V | 00:00:00 | 00:00:00 | 00:00:00 | |
| OM5KV | 2026-08-31 13:17:07 | 46.33197 | 15.71572 | 74° | 57km/h | 5274m | -14.1m/s | -42.2°C | 2.9% | 0hPa | 0V | 00:00:00 | 00:00:00 | 00:00:00 | |
| OM5KV | 2026-08-31 13:17:06 | 46.33193 | 15.71552 | 77° | 58km/h | 5288m | -12.9m/s | 0°C | 0% | 0hPa | 0V | 00:00:00 | 00:00:00 | 00:00:00 | |
| OM5KV | 2026-08-31 13:17:00 | 46.33168 | 15.71433 | 73° | 58km/h | 5367m | -11.4m/s | 0°C | 0% | 0hPa | 0V | 00:00:00 | 00:00:00 | 00:00:00 | |
| 9A1FER-10 | 2026-08-31 13:16:56 | 46.33150 | 15.71353 | 74° | 55km/h | 5415m | -12.2m/s | 0°C | 0% | 0hPa | 0V | 00:00:00 | 00:00:00 | 00:00:00 | |
| OM5KV | 2026-08-31 13:16:54 | 46.33140 | 15.71315 | 71° | 57km/h | 5438m | -10.6m/s | 0°C | 0% | 0hPa | 0V | 00:00:00 | 00:00:00 | 00:00:00 | |
| OM5KV | 2026-08-31 13:16:49 | 46.33118 | 15.71218 | 72° | 57km/h | 5497m | -12.2m/s | -42.2°C | 2.9% | 0hPa | 0V | 00:00:00 | 00:00:00 | 00:00:00 | |
| OM5KV | 2026-08-31 13:16:43 | 46.33094 | 15.71101 | 74° | 57km/h | 5572m | -12.3m/s | 0°C | 0% | 0hPa | 0V | 00:00:00 | 00:00:00 | 00:00:00 | |
| OM5KV | 2026-08-31 13:16:41 | 46.33086 | 15.71062 | 77° | 53km/h | 5597m | -13.2m/s | -42.2°C | 2.9% | 0hPa | 0V | 00:00:00 | 00:00:00 | 00:00:00 | |
| 9A1FER-10 | 2026-08-31 13:16:40 | 46.33083 | 15.71044 | 77° | 60km/h | 5610m | -12.4m/s | 0°C | 0% | 0hPa | 0V | 00:00:00 | 00:00:00 | 00:00:00 | |
| OM5KV | 2026-08-31 13:16:35 | 46.33065 | 15.70956 | 74° | 51km/h | 5670m | -13.2m/s | -42.2°C | 2.9% | 0hPa | 0V | 00:00:00 | 00:00:00 | 00:00:00 | |
| OM5KV | 2026-08-31 13:16:32 | 46.33055 | 15.70904 | 75° | 51km/h | 5708m | -12.2m/s | 0°C | 0% | 0hPa | 0V | 00:00:00 | 00:00:00 | 00:00:00 | |
| OM5KV | 2026-08-31 13:16:07 | 46.32975 | 15.70397 | 76° | 58km/h | 6028m | -12.9m/s | 0°C | 0% | 0hPa | 0V | 00:00:00 | 00:00:00 | 00:00:00 | |
| OM5KV | 2026-08-31 13:16:06 | 46.32971 | 15.70377 | 79° | 60km/h | 6040m | -13.6m/s | -42.2°C | 2.9% | 0hPa | 0V | 00:00:00 | 00:00:00 | 00:00:00 | |
| 9A1FER-3 | 2026-08-31 13:16:00 | 46.32954 | 15.70249 | 80° | 62km/h | 6119m | -13.2m/s | 0°C | 0% | 0hPa | 0V | 00:00:00 | 00:00:00 | 00:00:00 | |
| OM5KV | 2026-08-31 13:15:55 | 46.32939 | 15.70137 | 83° | 64km/h | 6181m | -13.3m/s | -42.2°C | 2.9% | 0hPa | 0V | 00:00:00 | 00:00:00 | 00:00:00 | |
| OM5KV | 2026-08-31 13:15:45 | 46.32910 | 15.69893 | 78° | 68km/h | 6307m | -12.2m/s | 0°C | 0% | 0hPa | 0V | 00:00:00 | 00:00:00 | 00:00:00 | |
| 9A1FER-3 | 2026-08-31 13:15:42 | 46.32899 | 15.69820 | 77° | 68km/h | 6345m | -12.5m/s | 0°C | 0% | 0hPa | 0V | 00:00:00 | 00:00:00 | 00:00:00 | |
| OM5KV | 2026-08-31 13:15:39 | 46.32887 | 15.69747 | 77° | 71km/h | 6382m | -12.7m/s | 0°C | 0% | 0hPa | 0V | 00:00:00 | 00:00:00 | 00:00:00 | |
| OM5KV | 2026-08-31 13:15:37 | 46.32878 | 15.69696 | 78° | 71km/h | 6407m | -11.5m/s | -42.2°C | 2.9% | 0hPa | 0V | 00:00:00 | 00:00:00 | 00:00:00 | |
| OM5KV | 2026-08-31 13:15:33 | 46.32862 | 15.69598 | 73° | 69km/h | 6455m | -11.6m/s | 0°C | 0% | 0hPa | 0V | 00:00:00 | 00:00:00 | 00:00:00 | |
| OM5KV | 2026-08-31 13:15:32 | 46.32856 | 15.69574 | 73° | 68km/h | 6469m | -11.0m/s | -42.2°C | 2.9% | 0hPa | 0V | 00:00:00 | 00:00:00 | 00:00:00 | |
| OM5KV | 2026-08-31 13:15:27 | 46.32829 | 15.69455 | 72° | 71km/h | 6523m | -12.2m/s | 0°C | 0% | 0hPa | 0V | 00:00:00 | 00:00:00 | 00:00:00 | |
| OM5KV | 2026-08-31 13:15:26 | 46.32823 | 15.69431 | 74° | 69km/h | 6534m | -10.4m/s | -42.2°C | 2.9% | 0hPa | 0V | 00:00:00 | 00:00:00 | 00:00:00 | |
| 9A1FER-10 | 2026-08-31 13:15:22 | 46.32799 | 15.69338 | 70° | 66km/h | 6581m | -11.8m/s | 0°C | 0% | 0hPa | 0V | 00:00:00 | 00:00:00 | 00:00:00 | |
| OM5KV | 2026-08-31 13:15:21 | 46.32792 | 15.69314 | 71° | 69km/h | 6593m | -12.2m/s | -42.2°C | 2.9% | 0hPa | 0V | 00:00:00 | 00:00:00 | 00:00:00 | |
| 9A1FER-3 | 2026-08-31 13:15:17 | 46.32770 | 15.69219 | 70° | 69km/h | 6639m | -12.7m/s | 0°C | 0% | 0hPa | 0V | 00:00:00 | 00:00:00 | 00:00:00 | |
| OM5KV | 2026-08-31 13:15:16 | 46.32764 | 15.69196 | 72° | 69km/h | 6652m | -15.7m/s | 0°C | 0% | 0hPa | 0V | 00:00:00 | 00:00:00 | 00:00:00 | |
| OM5KV | 2026-08-31 13:15:15 | 46.32759 | 15.69172 | 72° | 69km/h | 6666m | -13.5m/s | -42.2°C | 2.9% | 0hPa | 0V | 00:00:00 | 00:00:00 | 00:00:00 | |
| OM5KV | 2026-08-31 13:15:10 | 46.32735 | 15.69056 | 73° | 64km/h | 6734m | -12.4m/s | 0°C | 0% | 0hPa | 0V | 00:00:00 | 00:00:00 | 00:00:00 | |
| 9A1FER-10 | 2026-08-31 13:15:07 | 46.32720 | 15.68989 | 70° | 71km/h | 6768m | -9.7m/s | 0°C | 0% | 0hPa | 0V | 00:00:00 | 00:00:00 | 00:00:00 | |
| OM5KV | 2026-08-31 13:15:04 | 46.32703 | 15.68920 | 72° | 68km/h | 6801m | -11.9m/s | 0°C | 0% | 0hPa | 0V | 00:00:00 | 00:00:00 | 00:00:00 | |
| OM5KV | 2026-08-31 13:14:59 | 46.32675 | 15.68801 | 72° | 71km/h | 6860m | -12.7m/s | 0°C | 0% | 0hPa | 0V | 00:00:00 | 00:00:00 | 00:00:00 | |
| OM5KV | 2026-08-31 13:14:53 | 46.32639 | 15.68655 | 73° | 69km/h | 6937m | -11.8m/s | 0°C | 0% | 0hPa | 0V | 00:00:00 | 00:00:00 | 00:00:00 | |
| 9A1FER-3 | 2026-08-31 13:14:51 | 46.32628 | 15.68607 | 70° | 71km/h | 6960m | -12.3m/s | 0°C | 0% | 0hPa | 0V | 00:00:00 | 00:00:00 | 00:00:00 | |
| 9A1FER-10 | 2026-08-31 13:14:49 | 46.32617 | 15.68557 | 74° | 73km/h | 6986m | -13.4m/s | 0°C | 0% | 0hPa | 0V | 00:00:00 | 00:00:00 | 00:00:00 | |
| OM5KV | 2026-08-31 13:14:47 | 46.32606 | 15.68508 | 71° | 71km/h | 7011m | -13.8m/s | 0°C | 0% | 0hPa | 0V | 00:00:00 | 00:00:00 | 00:00:00 | |
| OM5KV | 2026-08-31 13:14:41 | 46.32572 | 15.68360 | 69° | 71km/h | 7084m | -13.4m/s | -42.2°C | 2.9% | 0hPa | 0V | 00:00:00 | 00:00:00 | 00:00:00 | |
| OM5KV | 2026-08-31 13:14:40 | 46.32565 | 15.68335 | 70° | 77km/h | 7097m | -13.2m/s | 0°C | 0% | 0hPa | 0V | 00:00:00 | 00:00:00 | 00:00:00 | |
| OM5KV | 2026-08-31 13:14:36 | 46.32540 | 15.68232 | 71° | 71km/h | 7145m | -14.5m/s | -42.2°C | 2.9% | 0hPa | 0V | 00:00:00 | 00:00:00 | 00:00:00 | |
| 9A1FER-10 | 2026-08-31 13:14:34 | 46.32527 | 15.68182 | 69° | 77km/h | 7171m | -14.0m/s | 0°C | 0% | 0hPa | 0V | 00:00:00 | 00:00:00 | 00:00:00 | |
| 9A1FER-3 | 2026-08-31 13:14:33 | 46.32521 | 15.68156 | 75° | 78km/h | 7184m | -11.0m/s | 0°C | 0% | 0hPa | 0V | 00:00:00 | 00:00:00 | 00:00:00 | |
| OM5KV | 2026-08-31 13:14:31 | 46.32509 | 15.68105 | 72° | 75km/h | 7210m | -14.1m/s | -42.2°C | 2.9% | 0hPa | 0V | 00:00:00 | 00:00:00 | 00:00:00 | |
| OM5KV | 2026-08-31 13:14:27 | 46.32480 | 15.68000 | 69° | 80km/h | 7259m | -12.5m/s | 0°C | 0% | 0hPa | 0V | 00:00:00 | 00:00:00 | 00:00:00 | |
| OM5KV | 2026-08-31 13:14:25 | 46.32466 | 15.67945 | 71° | 80km/h | 7283m | -12.6m/s | -42.2°C | 2.9% | 0hPa | 0V | 00:00:00 | 00:00:00 | 00:00:00 | |
| OM5KV | 2026-08-31 13:14:19 | 46.32424 | 15.67783 | 71° | 80km/h | 7358m | -11.4m/s | -42.2°C | 2.9% | 0hPa | 0V | 00:00:00 | 00:00:00 | 00:00:00 | |
| 9A1FER-3 | 2026-08-31 13:14:18 | 46.32417 | 15.67756 | 68° | 82km/h | 7369m | -10.7m/s | 0°C | 0% | 0hPa | 0V | 00:00:00 | 00:00:00 | 00:00:00 | |
| OM5KV | 2026-08-31 13:14:13 | 46.32382 | 15.67618 | 72° | 78km/h | 7429m | -13.3m/s | -42.2°C | 2.9% | 0hPa | 0V | 00:00:00 | 00:00:00 | 00:00:00 | |
| OM5KV | 2026-08-31 13:14:10 | 46.32359 | 15.67535 | 69° | 84km/h | 7470m | -13.1m/s | 0°C | 0% | 0hPa | 0V | 00:00:00 | 00:00:00 | 00:00:00 | |
| OM5KV | 2026-08-31 13:14:08 | 46.32346 | 15.67477 | 75° | 82km/h | 7496m | -12.6m/s | -42.2°C | 2.9% | 0hPa | 0V | 00:00:00 | 00:00:00 | 00:00:00 | |
| OM5KV | 2026-08-31 13:14:05 | 46.32326 | 15.67391 | 73° | 86km/h | 7534m | -14.0m/s | 0°C | 0% | 0hPa | 0V | 00:00:00 | 00:00:00 | 00:00:00 | |
| OM5KV | 2026-08-31 13:14:03 | 46.32314 | 15.67333 | 72° | 80km/h | 7562m | -13.4m/s | -42.2°C | 2.9% | 0hPa | 0V | 00:00:00 | 00:00:00 | 00:00:00 | |
| OM5KV | 2026-08-31 13:13:56 | 46.32264 | 15.67136 | 70° | 82km/h | 7654m | -12.5m/s | -42.2°C | 2.9% | 0hPa | 0V | 00:00:00 | 00:00:00 | 00:00:00 | |
| 9A1FER-10 | 2026-08-31 13:13:54 | 46.32248 | 15.67079 | 70° | 80km/h | 7678m | -11.8m/s | 0°C | 0% | 0hPa | 0V | 00:00:00 | 00:00:00 | 00:00:00 | |
| 9A1FER-3 | 2026-08-31 13:13:51 | 46.32226 | 15.66996 | 70° | 80km/h | 7713m | -12.0m/s | 0°C | 0% | 0hPa | 0V | 00:00:00 | 00:00:00 | 00:00:00 | |
| OM5KV | 2026-08-31 13:13:48 | 46.32205 | 15.66913 | 71° | 80km/h | 7749m | -12.5m/s | 0°C | 0% | 0hPa | 0V | 00:00:00 | 00:00:00 | 00:00:00 | |
| OM5KV | 2026-08-31 13:13:43 | 46.32167 | 15.66775 | 68° | 82km/h | 7811m | -13.1m/s | 0°C | 0% | 0hPa | 0V | 00:00:00 | 00:00:00 | 00:00:00 | |
| OM5KV | 2026-08-31 13:13:39 | 46.32138 | 15.66666 | 69° | 78km/h | 7864m | -12.9m/s | -42.2°C | 2.9% | 0hPa | 0V | 00:00:00 | 00:00:00 | 00:00:00 | |
| OM5KV | 2026-08-31 13:13:37 | 46.32123 | 15.66613 | 67° | 80km/h | 7890m | -13.6m/s | 0°C | 0% | 0hPa | 0V | 00:00:00 | 00:00:00 | 00:00:00 | |
| 9A1FER-3 | 2026-08-31 13:13:35 | 46.32107 | 15.66558 | 70° | 80km/h | 7916m | -12.9m/s | 0°C | 0% | 0hPa | 0V | 00:00:00 | 00:00:00 | 00:00:00 | |
| OM5KV | 2026-08-31 13:13:31 | 46.32078 | 15.66447 | 70° | 78km/h | 7968m | -11.7m/s | 0°C | 0% | 0hPa | 0V | 00:00:00 | 00:00:00 | 00:00:00 | |
| OM5KV | 2026-08-31 13:13:27 | 46.32049 | 15.66335 | 72° | 80km/h | 8020m | -13.1m/s | -42.2°C | 2.9% | 0hPa | 0V | 00:00:00 | 00:00:00 | 00:00:00 | |
| 9A1FER-10 | 2026-08-31 13:13:24 | 46.32028 | 15.66254 | 71° | 86km/h | 8060m | -13.4m/s | 0°C | 0% | 0hPa | 0V | 00:00:00 | 00:00:00 | 00:00:00 | |
| 9A1FER-3 | 2026-08-31 13:13:20 | 46.32002 | 15.66143 | 71° | 80km/h | 8115m | -13.7m/s | 0°C | 0% | 0hPa | 0V | 00:00:00 | 00:00:00 | 00:00:00 | |
| OM5KV | 2026-08-31 13:13:13 | 46.31955 | 15.65949 | 71° | 80km/h | 8206m | -12.9m/s | 0°C | 0% | 0hPa | 0V | 00:00:00 | 00:00:00 | 00:00:00 | |
| OM5KV | 2026-08-31 13:13:09 | 46.31930 | 15.65835 | 78° | 78km/h | 8256m | -14.3m/s | -42.2°C | 2.9% | 0hPa | 0V | 00:00:00 | 00:00:00 | 00:00:00 | |
| OM5KV | 2026-08-31 13:13:07 | 46.31919 | 15.65780 | 73° | 80km/h | 8284m | -13.3m/s | 0°C | 0% | 0hPa | 0V | 00:00:00 | 00:00:00 | 00:00:00 | |
| OM5KV | 2026-08-31 13:13:03 | 46.31896 | 15.65664 | 76° | 80km/h | 8334m | -11.7m/s | -42.2°C | 2.9% | 0hPa | 0V | 00:00:00 | 00:00:00 | 00:00:00 | |
| 9A1FER-3 | 2026-08-31 13:13:01 | 46.31885 | 15.65606 | 76° | 88km/h | 8360m | -12.8m/s | 0°C | 0% | 0hPa | 0V | 00:00:00 | 00:00:00 | 00:00:00 | |
| OM5KV | 2026-08-31 13:12:57 | 46.31863 | 15.65488 | 76° | 86km/h | 8413m | -14.5m/s | -42.2°C | 2.9% | 0hPa | 0V | 00:00:00 | 00:00:00 | 00:00:00 | |
| OM5KV | 2026-08-31 13:12:55 | 46.31852 | 15.65428 | 77° | 86km/h | 8441m | -13.6m/s | 0°C | 0% | 0hPa | 0V | 00:00:00 | 00:00:00 | 00:00:00 | |
| OM5KV | 2026-08-31 13:12:51 | 46.31830 | 15.65308 | 76° | 88km/h | 8499m | -12.7m/s | -42.2°C | 2.9% | 0hPa | 0V | 00:00:00 | 00:00:00 | 00:00:00 | |
| OM5KV | 2026-08-31 13:12:45 | 46.31794 | 15.65119 | 77° | 89km/h | 8578m | -13.9m/s | -42.2°C | 2.9% | 0hPa | 0V | 00:00:00 | 00:00:00 | 00:00:00 | |
| 9A1FER-3 | 2026-08-31 13:12:43 | 46.31782 | 15.65056 | 74° | 102km/h | 8604m | -14.7m/s | 0°C | 0% | 0hPa | 0V | 00:00:00 | 00:00:00 | 00:00:00 | |
| 9A1FER-10 | 2026-08-31 13:12:41 | 46.31769 | 15.64990 | 74° | 95km/h | 8630m | -12.5m/s | 0°C | 0% | 0hPa | 0V | 00:00:00 | 00:00:00 | 00:00:00 | |
| OM5KV | 2026-08-31 13:12:40 | 46.31762 | 15.64958 | 73° | 91km/h | 8643m | -12.7m/s | -42.2°C | 2.9% | 0hPa | 0V | 00:00:00 | 00:00:00 | 00:00:00 | |
| OM5KV | 2026-08-31 13:12:38 | 46.31749 | 15.64893 | 73° | 89km/h | 8668m | -11.8m/s | 0°C | 0% | 0hPa | 0V | 00:00:00 | 00:00:00 | 00:00:00 | |
| OM5KV | 2026-08-31 13:12:34 | 46.31721 | 15.64766 | 73° | 93km/h | 8715m | -14.4m/s | -42.2°C | 2.9% | 0hPa | 0V | 00:00:00 | 00:00:00 | 00:00:00 | |
| OM5KV | 2026-08-31 13:12:32 | 46.31707 | 15.64700 | 74° | 95km/h | 8742m | -13.9m/s | 0°C | 0% | 0hPa | 0V | 00:00:00 | 00:00:00 | 00:00:00 | |
| OM5KV | 2026-08-31 13:12:27 | 46.31671 | 15.64539 | 73° | 91km/h | 8810m | -12.3m/s | 0°C | 0% | 0hPa | 0V | 00:00:00 | 00:00:00 | 00:00:00 | |
| OM5KV | 2026-08-31 13:12:23 | 46.31637 | 15.64410 | 72° | 95km/h | 8864m | -14.7m/s | -42.2°C | 2.9% | 0hPa | 0V | 00:00:00 | 00:00:00 | 00:00:00 | |
| OM5KV | 2026-08-31 13:12:21 | 46.31621 | 15.64346 | 72° | 93km/h | 8892m | -14.1m/s | 0°C | 0% | 0hPa | 0V | 00:00:00 | 00:00:00 | 00:00:00 | |
| OM5KV | 2026-08-31 13:12:17 | 46.31588 | 15.64213 | 72° | 97km/h | 8950m | -13.4m/s | -42.2°C | 2.9% | 0hPa | 0V | 00:00:00 | 00:00:00 | 00:00:00 | |
| OM5KV | 2026-08-31 13:12:11 | 46.31544 | 15.64012 | 73° | 99km/h | 9030m | -13.0m/s | -42.2°C | 2.9% | 0hPa | 0V | 00:00:00 | 00:00:00 | 00:00:00 | |
| OM5KV | 2026-08-31 13:12:10 | 46.31536 | 15.63977 | 75° | 99km/h | 9043m | -12.9m/s | 0°C | 0% | 0hPa | 0V | 00:00:00 | 00:00:00 | 00:00:00 | |
| OM5KV | 2026-08-31 13:12:05 | 46.31502 | 15.63804 | 73° | 100km/h | 9111m | -13.9m/s | -42.2°C | 2.9% | 0hPa | 0V | 00:00:00 | 00:00:00 | 00:00:00 | |
| 9A1FER-10 | 2026-08-31 13:12:02 | 46.31480 | 15.63700 | 72° | 108km/h | 9149m | -15.1m/s | 0°C | 0% | 0hPa | 0V | 00:00:00 | 00:00:00 | 00:00:00 | |
| OM5KV | 2026-08-31 13:11:59 | 46.31458 | 15.63593 | 74° | 104km/h | 9195m | -14.4m/s | -42.2°C | 2.9% | 0hPa | 0V | 00:00:00 | 00:00:00 | 00:00:00 | |
| OM5KV | 2026-08-31 13:11:54 | 46.31420 | 15.63413 | 74° | 102km/h | 9260m | -13.3m/s | -42.2°C | 2.9% | 0hPa | 0V | 00:00:00 | 00:00:00 | 00:00:00 | |
| OM5KV | 2026-08-31 13:11:52 | 46.31403 | 15.63341 | 72° | 106km/h | 9290m | -13.9m/s | 0°C | 0% | 0hPa | 0V | 00:00:00 | 00:00:00 | 00:00:00 | |
| OM5KV | 2026-08-31 13:11:48 | 46.31370 | 15.63189 | 73° | 111km/h | 9349m | -14.6m/s | -42.2°C | 2.9% | 0hPa | 0V | 00:00:00 | 00:00:00 | 00:00:00 | |
| 9A1FER-10 | 2026-08-31 13:11:46 | 46.31352 | 15.63110 | 74° | 119km/h | 9377m | -14.0m/s | 0°C | 0% | 0hPa | 0V | 00:00:00 | 00:00:00 | 00:00:00 | |
| OM5KV | 2026-08-31 13:11:35 | 46.31245 | 15.62662 | 73° | 117km/h | 9523m | -12.7m/s | 0°C | 0% | 0hPa | 0V | 00:00:00 | 00:00:00 | 00:00:00 | |
| OM5KV | 2026-08-31 13:11:33 | 46.31225 | 15.62579 | 73° | 120km/h | 9548m | -12.5m/s | -42.2°C | 2.9% | 0hPa | 0V | 00:00:00 | 00:00:00 | 00:00:00 | |
| 9A1FER-10 | 2026-08-31 13:11:31 | 46.31205 | 15.62496 | 73° | 130km/h | 9573m | -12.7m/s | 0°C | 0% | 0hPa | 0V | 00:00:00 | 00:00:00 | 00:00:00 | |
| OM5KV | 2026-08-31 13:11:29 | 46.31186 | 15.62411 | 74° | 120km/h | 9599m | -13.0m/s | 0°C | 0% | 0hPa | 0V | 00:00:00 | 00:00:00 | 00:00:00 | |
| OM5KV | 2026-08-31 13:11:28 | 46.31177 | 15.62369 | 72° | 122km/h | 9613m | -13.7m/s | -42.2°C | 2.9% | 0hPa | 0V | 00:00:00 | 00:00:00 | 00:00:00 | |
| OM5KV | 2026-08-31 13:11:22 | 46.31121 | 15.62109 | 75° | 126km/h | 9690m | -14.2m/s | -42.2°C | 2.9% | 0hPa | 0V | 00:00:00 | 00:00:00 | 00:00:00 | |
| OM5KV | 2026-08-31 13:11:17 | 46.31078 | 15.61885 | 75° | 130km/h | 9759m | -15.1m/s | -42.2°C | 2.9% | 0hPa | 0V | 00:00:00 | 00:00:00 | 00:00:00 | |
| OM5KV | 2026-08-31 13:11:16 | 46.31069 | 15.61839 | 76° | 131km/h | 9774m | -13.0m/s | 0°C | 0% | 0hPa | 0V | 00:00:00 | 00:00:00 | 00:00:00 | |
| OM5KV | 2026-08-31 13:11:11 | 46.31025 | 15.61608 | 75° | 135km/h | 9838m | -11.7m/s | -42.2°C | 2.9% | 0hPa | 0V | 00:00:00 | 00:00:00 | 00:00:00 | |
| OM5KV | 2026-08-31 13:11:05 | 46.30972 | 15.61330 | 74° | 131km/h | 9916m | -13.1m/s | 0°C | 0% | 0hPa | 0V | 00:00:00 | 00:00:00 | 00:00:00 | |
| OM5KV | 2026-08-31 13:10:59 | 46.30916 | 15.61049 | 76° | 133km/h | 9998m | -13.2m/s | -42.2°C | 2.9% | 0hPa | 0V | 00:00:00 | 00:00:00 | 00:00:00 | |
| OM5KV | 2026-08-31 13:10:53 | 46.30862 | 15.60768 | 76° | 133km/h | 10075m | -10.8m/s | -42.2°C | 2.9% | 0hPa | 0V | 00:00:00 | 00:00:00 | 00:00:00 | |
| OM5KV | 2026-08-31 13:10:47 | 46.30809 | 15.60488 | 76° | 130km/h | 10153m | -12.6m/s | -42.2°C | 2.9% | 0hPa | 0V | 00:00:00 | 00:00:00 | 00:00:00 | |
| OM5KV | 2026-08-31 13:10:37 | 46.30725 | 15.60020 | 77° | 133km/h | 10291m | -13.0m/s | -42.2°C | 2.9% | 0hPa | 0V | 00:00:00 | 00:00:00 | 00:00:00 | |
| OM5KV | 2026-08-31 13:10:36 | 46.30717 | 15.59973 | 75° | 133km/h | 10306m | -17.8m/s | 0°C | 0% | 0hPa | 0V | 00:00:00 | 00:00:00 | 00:00:00 | |
| OM5KV | 2026-08-31 13:10:31 | 46.30673 | 15.59743 | 77° | 131km/h | 10380m | -15.2m/s | -42.2°C | 2.9% | 0hPa | 0V | 00:00:00 | 00:00:00 | 00:00:00 | |
| OM5KV | 2026-08-31 13:10:30 | 46.30665 | 15.59696 | 77° | 131km/h | 10393m | -14.6m/s | 0°C | 0% | 0hPa | 0V | 00:00:00 | 00:00:00 | 00:00:00 | |
| 9A1FER-3 | 2026-08-31 13:10:26 | 46.30631 | 15.59510 | 75° | 135km/h | 10449m | -15.2m/s | 0°C | 0% | 0hPa | 0V | 00:00:00 | 00:00:00 | 00:00:00 | |
| OM5KV | 2026-08-31 13:10:25 | 46.30622 | 15.59464 | 76° | 131km/h | 10464m | -13.4m/s | 0°C | 0% | 0hPa | 0V | 00:00:00 | 00:00:00 | 00:00:00 | |
| OM5KV | 2026-08-31 13:10:20 | 46.30580 | 15.59230 | 77° | 133km/h | 10534m | -16.3m/s | -42.2°C | 2.9% | 0hPa | 0V | 00:00:00 | 00:00:00 | 00:00:00 | |
| OM5KV | 2026-08-31 13:10:14 | 46.30523 | 15.58894 | 78° | 135km/h | 10643m | -16.1m/s | 0°C | 0% | 0hPa | 0V | 00:00:00 | 00:00:00 | 00:00:00 | |
| 9A1FER-3 | 2026-08-31 13:10:10 | 46.30498 | 15.58748 | 75° | 137km/h | 10691m | -15.0m/s | 0°C | 0% | 0hPa | 0V | 00:00:00 | 00:00:00 | 00:00:00 | |
| OM5KV | 2026-08-31 13:10:09 | 46.30489 | 15.58701 | 75° | 135km/h | 10705m | -13.0m/s | -42.2°C | 2.9% | 0hPa | 0V | 00:00:00 | 00:00:00 | 00:00:00 | |
| OM5KV | 2026-08-31 13:10:03 | 46.30437 | 15.58413 | 77° | 133km/h | 10799m | -15.9m/s | -42.2°C | 2.9% | 0hPa | 0V | 00:00:00 | 00:00:00 | 00:00:00 | |
| OM5KV | 2026-08-31 13:10:02 | 46.30428 | 15.58365 | 75° | 135km/h | 10815m | -14.9m/s | 0°C | 0% | 0hPa | 0V | 00:00:00 | 00:00:00 | 00:00:00 | |
| OM5KV | 2026-08-31 13:09:57 | 46.30386 | 15.58125 | 78° | 137km/h | 10885m | -14.1m/s | -42.2°C | 2.9% | 0hPa | 0V | 00:00:00 | 00:00:00 | 00:00:00 | |
| OM5KV | 2026-08-31 13:09:56 | 46.30378 | 15.58076 | 79° | 137km/h | 10899m | -14.9m/s | 0°C | 0% | 0hPa | 0V | 00:00:00 | 00:00:00 | 00:00:00 | |
| OM5KV | 2026-08-31 13:09:51 | 46.30337 | 15.57832 | 78° | 135km/h | 10973m | -14.5m/s | -42.2°C | 2.9% | 0hPa | 0V | 00:00:00 | 00:00:00 | 00:00:00 | |
| OM5KV | 2026-08-31 13:09:46 | 46.30297 | 15.57585 | 78° | 137km/h | 11045m | -14.4m/s | -42.2°C | 2.9% | 0hPa | 0V | 00:00:00 | 00:00:00 | 00:00:00 | |
| OM5KV | 2026-08-31 13:09:45 | 46.30289 | 15.57535 | 78° | 139km/h | 11058m | -13.8m/s | 0°C | 0% | 0hPa | 0V | 00:00:00 | 00:00:00 | 00:00:00 | |
| 9A1FER-10 | 2026-08-31 13:09:41 | 46.30258 | 15.57336 | 78° | 141km/h | 11115m | -15.4m/s | 0°C | 0% | 0hPa | 0V | 00:00:00 | 00:00:00 | 00:00:00 | |
| OM5KV | 2026-08-31 13:09:37 | 46.30228 | 15.57135 | 78° | 139km/h | 11179m | -15.8m/s | 0°C | 0% | 0hPa | 0V | 00:00:00 | 00:00:00 | 00:00:00 | |
| OM5KV | 2026-08-31 13:09:36 | 46.30219 | 15.57085 | 77° | 142km/h | 11196m | -17.9m/s | -42.2°C | 2.9% | 0hPa | 0V | 00:00:00 | 00:00:00 | 00:00:00 | |
| OM5KV | 2026-08-31 13:09:30 | 46.30174 | 15.56783 | 80° | 141km/h | 11290m | -16.6m/s | 0°C | 0% | 0hPa | 0V | 00:00:00 | 00:00:00 | 00:00:00 | |
| OM5KV | 2026-08-31 13:09:29 | 46.30167 | 15.56733 | 80° | 141km/h | 11307m | -19.1m/s | -42.2°C | 2.9% | 0hPa | 0V | 00:00:00 | 00:00:00 | 00:00:00 | |
| 9A1FER-3 | 2026-08-31 13:09:28 | 46.30160 | 15.56683 | 78° | 142km/h | 11325m | -16.5m/s | 0°C | 0% | 0hPa | 0V | 00:00:00 | 00:00:00 | 00:00:00 | |
| 9A1FER-10 | 2026-08-31 13:09:26 | 46.30145 | 15.56582 | 81° | 142km/h | 11358m | -18.3m/s | 0°C | 0% | 0hPa | 0V | 00:00:00 | 00:00:00 | 00:00:00 | |
| OM5KV | 2026-08-31 13:09:24 | 46.30132 | 15.56480 | 78° | 144km/h | 11390m | -17.3m/s | 0°C | 0% | 0hPa | 0V | 00:00:00 | 00:00:00 | 00:00:00 | |
| OM5KV | 2026-08-31 13:09:19 | 46.30097 | 15.56225 | 80° | 144km/h | 11465m | -15.9m/s | -42.2°C | 2.9% | 0hPa | 0V | 00:00:00 | 00:00:00 | 00:00:00 | |
| OM5KV | 2026-08-31 13:09:13 | 46.30058 | 15.55911 | 80° | 151km/h | 11554m | -17.4m/s | 0°C | 0% | 0hPa | 0V | 00:00:00 | 00:00:00 | 00:00:00 | |
| 9A1FER-10 | 2026-08-31 13:09:12 | 46.30044 | 15.55803 | 80° | 148km/h | 11588m | -15.8m/s | 0°C | 0% | 0hPa | 0V | 00:00:00 | 00:00:00 | 00:00:00 | |
| OM5KV | 2026-08-31 13:09:07 | 46.30017 | 15.55590 | 80° | 146km/h | 11647m | -14.7m/s | 0°C | 0% | 0hPa | 0V | 00:00:00 | 00:00:00 | 00:00:00 | |
| OM5KV | 2026-08-31 13:09:06 | 46.30010 | 15.55537 | 81° | 150km/h | 11663m | -14.8m/s | -42.2°C | 2.9% | 0hPa | 0V | 00:00:00 | 00:00:00 | 00:00:00 | |
| 9A1FER-3 | 2026-08-31 13:08:58 | 46.29957 | 15.55113 | 79° | 146km/h | 11775m | -14.6m/s | 0°C | 0% | 0hPa | 0V | 00:00:00 | 00:00:00 | 00:00:00 | |
| OM5KV | 2026-08-31 13:08:57 | 46.29950 | 15.55060 | 81° | 146km/h | 11790m | -15.4m/s | -42.2°C | 2.9% | 0hPa | 0V | 00:00:00 | 00:00:00 | 00:00:00 | |
| 9A1FER-10 | 2026-08-31 13:08:56 | 46.29944 | 15.55008 | 80° | 144km/h | 11806m | -14.9m/s | 0°C | 0% | 0hPa | 0V | 00:00:00 | 00:00:00 | 00:00:00 | |
| OM5KV | 2026-08-31 13:08:49 | 46.29898 | 15.54645 | 82° | 146km/h | 11908m | -16.1m/s | 0°C | 0% | 0hPa | 0V | 00:00:00 | 00:00:00 | 00:00:00 | |
| 9A1FER-3 | 2026-08-31 13:08:42 | 46.29851 | 15.54282 | 80° | 142km/h | 12019m | -15.6m/s | 0°C | 0% | 0hPa | 0V | 00:00:00 | 00:00:00 | 00:00:00 | |
| 9A1FER-10 | 2026-08-31 13:08:40 | 46.29838 | 15.54177 | 81° | 146km/h | 12051m | -13.5m/s | 0°C | 0% | 0hPa | 0V | 00:00:00 | 00:00:00 | 00:00:00 | |
| 9A1FER-10 | 2026-08-31 13:08:24 | 46.29768 | 15.53342 | 86° | 137km/h | 12293m | -14.6m/s | 0°C | 0% | 0hPa | 0V | 00:00:00 | 00:00:00 | 00:00:00 | |
| 9A1FER-10 | 2026-08-31 13:08:09 | 46.29712 | 15.52598 | 83° | 130km/h | 12513m | -14.5m/s | 0°C | 0% | 0hPa | 0V | 00:00:00 | 00:00:00 | 00:00:00 | |
| 9A1FER-3 | 2026-08-31 13:08:02 | 46.29685 | 15.52255 | 85° | 131km/h | 12620m | -14.4m/s | 0°C | 0% | 0hPa | 0V | 00:00:00 | 00:00:00 | 00:00:00 | |
| 9A1FER-10 | 2026-08-31 13:07:51 | 46.29655 | 15.51736 | 84° | 119km/h | 12785m | -14.3m/s | 0°C | 0% | 0hPa | 0V | 00:00:00 | 00:00:00 | 00:00:00 | |
| 9A1FER-3 | 2026-08-31 13:07:39 | 46.29614 | 15.51224 | 84° | 111km/h | 12966m | -15.0m/s | 0°C | 0% | 0hPa | 0V | 00:00:00 | 00:00:00 | 00:00:00 | |
| 9A1FER-10 | 2026-08-31 13:07:36 | 46.29604 | 15.51098 | 84° | 111km/h | 13013m | -13.3m/s | 0°C | 0% | 0hPa | 0V | 00:00:00 | 00:00:00 | 00:00:00 | |
| 9A1FER-10 | 2026-08-31 13:07:21 | 46.29546 | 15.50501 | 84° | 106km/h | 13246m | -14.0m/s | 0°C | 0% | 0hPa | 0V | 00:00:00 | 00:00:00 | 00:00:00 | |
| 9A1FER-3 | 2026-08-31 13:07:16 | 46.29529 | 15.50306 | 83° | 106km/h | 13322m | -14.8m/s | 0°C | 0% | 0hPa | 0V | 00:00:00 | 00:00:00 | 00:00:00 | |
| 9A1FER-10 | 2026-08-31 13:07:06 | 46.29491 | 15.49884 | 85° | 106km/h | 13494m | -14.9m/s | 0°C | 0% | 0hPa | 0V | 00:00:00 | 00:00:00 | 00:00:00 | |
| 9A1FER-10 | 2026-08-31 13:06:50 | 46.29451 | 15.49312 | 85° | 104km/h | 13742m | -15.2m/s | 0°C | 0% | 0hPa | 0V | 00:00:00 | 00:00:00 | 00:00:00 | |
| 9A1FER-3 | 2026-08-31 13:06:36 | 46.29404 | 15.48784 | 81° | 102km/h | 13972m | -15.8m/s | 0°C | 0% | 0hPa | 0V | 00:00:00 | 00:00:00 | 00:00:00 | |
| 9A1FER-10 | 2026-08-31 13:06:35 | 46.29417 | 15.48748 | 81° | 99km/h | 13989m | -16.1m/s | 0°C | 0% | 0hPa | 0V | 00:00:00 | 00:00:00 | 00:00:00 | |
| 9A1FER-3 | 2026-08-31 13:06:21 | 46.29353 | 15.48248 | 86° | 77km/h | 14226m | -15.2m/s | 0°C | 0% | 0hPa | 0V | 00:00:00 | 00:00:00 | 00:00:00 | |
| 9A1FER-15 | 2026-08-31 13:06:20 | 46.29351 | 15.48216 | 85° | 73km/h | 14242m | -16.4m/s | 0°C | 0% | 0hPa | 0V | 00:00:00 | 00:00:00 | 00:00:00 | |
| OM5KV | 2026-08-31 13:06:06 | 46.29301 | 15.47848 | 70° | 69km/h | 14486m | -15.9m/s | 0°C | 0% | 0hPa | 0V | 00:00:00 | 00:00:00 | 00:00:00 | |
| 9A1FER-10 | 2026-08-31 13:06:05 | 46.29294 | 15.47824 | 69° | 73km/h | 14503m | -16.4m/s | 0°C | 0% | 0hPa | 0V | 00:00:00 | 00:00:00 | 00:00:00 | |
| 9A1FER-15 | 2026-08-31 13:06:01 | 46.29264 | 15.47730 | 63° | 75km/h | 14576m | -17.1m/s | 0°C | 0% | 0hPa | 0V | 00:00:00 | 00:00:00 | 00:00:00 | |
| 9A1FER-10 | 2026-08-31 13:05:50 | 46.29161 | 15.47471 | 62° | 80km/h | 14772m | -17.0m/s | 0°C | 0% | 0hPa | 0V | 00:00:00 | 00:00:00 | 00:00:00 | |
| 9A1FER-3 | 2026-08-31 13:05:49 | 46.29152 | 15.47446 | 63° | 73km/h | 14790m | -16.3m/s | 0°C | 0% | 0hPa | 0V | 00:00:00 | 00:00:00 | 00:00:00 | |
| 9A1FER-15 | 2026-08-31 13:05:46 | 46.29124 | 15.47369 | 65° | 80km/h | 14842m | -16.3m/s | 0°C | 0% | 0hPa | 0V | 00:00:00 | 00:00:00 | 00:00:00 | |
| 9A1FER-10 | 2026-08-31 13:05:35 | 46.29032 | 15.47073 | 72° | 77km/h | 15037m | -16.6m/s | 0°C | 0% | 0hPa | 0V | 00:00:00 | 00:00:00 | 00:00:00 | |
| 9A1FER-15 | 2026-08-31 13:05:31 | 46.29005 | 15.46964 | 73° | 73km/h | 15108m | -17.5m/s | 0°C | 0% | 0hPa | 0V | 00:00:00 | 00:00:00 | 00:00:00 | |
| OM5KV | 2026-08-31 13:05:28 | 46.28988 | 15.46882 | 74° | 78km/h | 15163m | -16.4m/s | -42.2°C | 2.9% | 0hPa | 0V | 00:00:00 | 00:00:00 | 00:00:00 | |
| 9A1FER-10 | 2026-08-31 13:05:20 | 46.28949 | 15.46677 | 77° | 66km/h | 15306m | -16.8m/s | 0°C | 0% | 0hPa | 0V | 00:00:00 | 00:00:00 | 00:00:00 | |
| 9A1FER-15 | 2026-08-31 13:05:16 | 46.28933 | 15.46581 | 77° | 62km/h | 15379m | -16.7m/s | 0°C | 0% | 0hPa | 0V | 00:00:00 | 00:00:00 | 00:00:00 | |
| OM5KV | 2026-08-31 13:05:08 | 46.28897 | 15.46401 | 75° | 62km/h | 15530m | -18.0m/s | 0°C | 0% | 0hPa | 0V | 00:00:00 | 00:00:00 | 00:00:00 | |
| 9A1FER-3 | 2026-08-31 13:05:06 | 46.28889 | 15.46358 | 73° | 55km/h | 15568m | -17.5m/s | 0°C | 0% | 0hPa | 0V | 00:00:00 | 00:00:00 | 00:00:00 | |
| 9A1FER-10 | 2026-08-31 13:05:05 | 46.28884 | 15.46337 | 69° | 57km/h | 15586m | -17.4m/s | 0°C | 0% | 0hPa | 0V | 00:00:00 | 00:00:00 | 00:00:00 | |
| 9A1FER-15 | 2026-08-31 13:05:00 | 46.28856 | 15.46239 | 70° | 57km/h | 15679m | -16.4m/s | 0°C | 0% | 0hPa | 0V | 00:00:00 | 00:00:00 | 00:00:00 | |
| OM5KV | 2026-08-31 13:04:53 | 46.28823 | 15.46104 | 69° | 57km/h | 15810m | -18.3m/s | 0°C | 0% | 0hPa | 0V | 00:00:00 | 00:00:00 | 00:00:00 | |
| 9A1FER-10 | 2026-08-31 13:04:50 | 46.28807 | 15.46048 | 67° | 60km/h | 15861m | -15.2m/s | 0°C | 0% | 0hPa | 0V | 00:00:00 | 00:00:00 | 00:00:00 | |
| 9A1FER-3 | 2026-08-31 13:04:47 | 46.28789 | 15.45994 | 64° | 64km/h | 15915m | -18.5m/s | 0°C | 0% | 0hPa | 0V | 00:00:00 | 00:00:00 | 00:00:00 | |
| 9A1FER-15 | 2026-08-31 13:04:45 | 46.28775 | 15.45959 | 60° | 64km/h | 15951m | -16.0m/s | 0°C | 0% | 0hPa | 0V | 00:00:00 | 00:00:00 | 00:00:00 | |
| OM5KV | 2026-08-31 13:04:38 | 46.28723 | 15.45828 | 61° | 64km/h | 16071m | -17.7m/s | -42.2°C | 2.9% | 0hPa | 0V | 00:00:00 | 00:00:00 | 00:00:00 | |
| 9A1FER-10 | 2026-08-31 13:04:35 | 46.28697 | 15.45765 | 59° | 68km/h | 16130m | -16.8m/s | 0°C | 0% | 0hPa | 0V | 00:00:00 | 00:00:00 | 00:00:00 | |
| 9A1FER-3 | 2026-08-31 13:04:31 | 46.28664 | 15.45678 | 64° | 68km/h | 16200m | -21.2m/s | 0°C | 0% | 0hPa | 0V | 00:00:00 | 00:00:00 | 00:00:00 | |
| 9A1FER-15 | 2026-08-31 13:04:30 | 46.28656 | 15.45656 | 63° | 68km/h | 16221m | -18.9m/s | 0°C | 0% | 0hPa | 0V | 00:00:00 | 00:00:00 | 00:00:00 | |
| 9A1FER-10 | 2026-08-31 13:04:20 | 46.28596 | 15.45427 | 79° | 57km/h | 16411m | -16.3m/s | 0°C | 0% | 0hPa | 0V | 00:00:00 | 00:00:00 | 00:00:00 | |
| OM5KV | 2026-08-31 13:04:16 | 46.28586 | 15.45331 | 87° | 64km/h | 16481m | -18.4m/s | -42.2°C | 2.9% | 0hPa | 0V | 00:00:00 | 00:00:00 | 00:00:00 | |
| 9A1FER-3 | 2026-08-31 13:04:15 | 46.28585 | 15.45309 | 86° | 44km/h | 16501m | -21.2m/s | 0°C | 0% | 0hPa | 0V | 00:00:00 | 00:00:00 | 00:00:00 | |
| 9A1FER-15 | 2026-08-31 13:04:14 | 46.28584 | 15.45287 | 85° | 42km/h | 16523m | -21.3m/s | 0°C | 0% | 0hPa | 0V | 00:00:00 | 00:00:00 | 00:00:00 | |
| 9A1FER-10 | 2026-08-31 13:04:05 | 46.28574 | 15.45126 | 85° | 22km/h | 16699m | -19.6m/s | 0°C | 0% | 0hPa | 0V | 00:00:00 | 00:00:00 | 00:00:00 | |
| 9A1FER-3 | 2026-08-31 13:04:00 | 46.28567 | 15.45072 | 68° | 16km/h | 16799m | -19.9m/s | 0°C | 0% | 0hPa | 0V | 00:00:00 | 00:00:00 | 00:00:00 | |
| 9A1FER-15 | 2026-08-31 13:03:59 | 46.28564 | 15.45064 | 56° | 18km/h | 16819m | -19.6m/s | 0°C | 0% | 0hPa | 0V | 00:00:00 | 00:00:00 | 00:00:00 | |
| OM5KV | 2026-08-31 13:03:58 | 46.28562 | 15.45058 | 67° | 18km/h | 16839m | -18.2m/s | 0°C | 0% | 0hPa | 0V | 00:00:00 | 00:00:00 | 00:00:00 | |
| OM5KV | 2026-08-31 13:03:51 | 46.28543 | 15.45033 | 23° | 18km/h | 16969m | -17.6m/s | -42.2°C | 2.9% | 0hPa | 0V | 00:00:00 | 00:00:00 | 00:00:00 | |
| 9A1FER-10 | 2026-08-31 13:03:50 | 46.28539 | 15.45031 | 11° | 29km/h | 16988m | -18.8m/s | 0°C | 0% | 0hPa | 0V | 00:00:00 | 00:00:00 | 00:00:00 | |
| 9A1FER-3 | 2026-08-31 13:03:44 | 46.28502 | 15.45018 | 20° | 31km/h | 17115m | -18.6m/s | 0°C | 0% | 0hPa | 0V | 00:00:00 | 00:00:00 | 00:00:00 | |
| 9A1FER-10 | 2026-08-31 13:03:35 | 46.28442 | 15.44967 | 38° | 33km/h | 17287m | -17.5m/s | 0°C | 0% | 0hPa | 0V | 00:00:00 | 00:00:00 | 00:00:00 | |
| 9A1FER-15 | 2026-08-31 13:03:29 | 46.28406 | 15.44919 | 46° | 37km/h | 17397m | -21.6m/s | 0°C | 0% | 0hPa | 0V | 00:00:00 | 00:00:00 | 00:00:00 | |
| OM5KV | 2026-08-31 13:03:28 | 46.28401 | 15.44910 | 45° | 33km/h | 17419m | -21.3m/s | -42.2°C | 2.9% | 0hPa | 0V | 00:00:00 | 00:00:00 | 00:00:00 | |
| OM5KV | 2026-08-31 13:03:21 | 46.28361 | 15.44851 | 51° | 31km/h | 17557m | -17.6m/s | 0°C | 0% | 0hPa | 0V | 00:00:00 | 00:00:00 | 00:00:00 | |
| 9A1FER-10 | 2026-08-31 13:03:19 | 46.28350 | 15.44833 | 47° | 42km/h | 17595m | -20.1m/s | 0°C | 0% | 0hPa | 0V | 00:00:00 | 00:00:00 | 00:00:00 | |
| OM5KV | 2026-08-31 13:03:15 | 46.28326 | 15.44792 | 57° | 42km/h | 17674m | -18.6m/s | -42.2°C | 2.9% | 0hPa | 0V | 00:00:00 | 00:00:00 | 00:00:00 | |
| 9A1FER-3 | 2026-08-31 13:03:14 | 46.28320 | 15.44779 | 58° | 42km/h | 17692m | -15.2m/s | 0°C | 0% | 0hPa | 0V | 00:00:00 | 00:00:00 | 00:00:00 | |
| 9A1FER-10 | 2026-08-31 13:03:04 | 46.28266 | 15.44638 | 65° | 33km/h | 17878m | -23.6m/s | 0°C | 0% | 0hPa | 0V | 00:00:00 | 00:00:00 | 00:00:00 | |
| OM5KV | 2026-08-31 13:03:00 | 46.28249 | 15.44586 | 64° | 38km/h | 17970m | -20.6m/s | 0°C | 0% | 0hPa | 0V | 00:00:00 | 00:00:00 | 00:00:00 | |
| 9A1FER-3 | 2026-08-31 13:02:59 | 46.28244 | 15.44574 | 59° | 29km/h | 17990m | -19.5m/s | 0°C | 0% | 0hPa | 0V | 00:00:00 | 00:00:00 | 00:00:00 | |
| 9A1FER-15 | 2026-08-31 13:02:56 | 46.28230 | 15.44541 | 59° | 27km/h | 18045m | -17.2m/s | 0°C | 0% | 0hPa | 0V | 00:00:00 | 00:00:00 | 00:00:00 | |
| 9A1FER-10 | 2026-08-31 13:02:48 | 46.28203 | 15.44475 | 74° | 18km/h | 18197m | -17.5m/s | 0°C | 0% | 0hPa | 0V | 00:00:00 | 00:00:00 | 00:00:00 | |
| 9A1FER-3 | 2026-08-31 13:02:43 | 46.28197 | 15.44427 | 90° | 18km/h | 18290m | -21.7m/s | 0°C | 0% | 0hPa | 0V | 00:00:00 | 00:00:00 | 00:00:00 | |
| 9A1FER-15 | 2026-08-31 13:02:41 | 46.28196 | 15.44410 | 88° | 18km/h | 18334m | -20.1m/s | 0°C | 0% | 0hPa | 0V | 00:00:00 | 00:00:00 | 00:00:00 | |
| 9A1FER-10 | 2026-08-31 13:02:30 | 46.28181 | 15.44352 | 53° | 13km/h | 18563m | -19.4m/s | 0°C | 0% | 0hPa | 0V | 00:00:00 | 00:00:00 | 00:00:00 | |
| 9A1FER-15 | 2026-08-31 13:02:27 | 46.28171 | 15.44332 | 65° | 13km/h | 18650m | -21.4m/s | 0°C | 0% | 0hPa | 0V | 00:00:00 | 00:00:00 | 00:00:00 | |
| 9A1FER-3 | 2026-08-31 13:02:26 | 46.28171 | 15.44332 | 65° | 13km/h | 18650m | -21.4m/s | 0°C | 0% | 0hPa | 0V | 00:00:00 | 00:00:00 | 00:00:00 | |
| 9A1FER-10 | 2026-08-31 13:02:13 | 46.28147 | 15.44286 | 55° | 18km/h | 18925m | -18.7m/s | 0°C | 0% | 0hPa | 0V | 00:00:00 | 00:00:00 | 00:00:00 | |
| 9A1FER-3 | 2026-08-31 13:02:10 | 46.28141 | 15.44272 | 66° | 18km/h | 18984m | -20.2m/s | 0°C | 0% | 0hPa | 0V | 00:00:00 | 00:00:00 | 00:00:00 | |
| OM5KV | 2026-08-31 13:01:59 | 46.28105 | 15.44230 | 17° | 20km/h | 19223m | -19.4m/s | 0°C | 0% | 0hPa | 0V | 00:00:00 | 00:00:00 | 00:00:00 | |
| 9A1FER-10 | 2026-08-31 13:01:58 | 46.28101 | 15.44228 | 18° | 20km/h | 19244m | -20.1m/s | 0°C | 0% | 0hPa | 0V | 00:00:00 | 00:00:00 | 00:00:00 | |
| OM5KV | 2026-08-31 13:01:57 | 46.28096 | 15.44226 | 22° | 20km/h | 19265m | -19.9m/s | -42.2°C | 2.9% | 0hPa | 0V | 00:00:00 | 00:00:00 | 00:00:00 | |
| 9A1FER-3 | 2026-08-31 13:01:54 | 46.28082 | 15.44219 | 29° | 20km/h | 19328m | -19.8m/s | 0°C | 0% | 0hPa | 0V | 00:00:00 | 00:00:00 | 00:00:00 | |
| 9A1FER-10 | 2026-08-31 13:01:43 | 46.28046 | 15.44154 | 55° | 20km/h | 19578m | -17.7m/s | 0°C | 0% | 0hPa | 0V | 00:00:00 | 00:00:00 | 00:00:00 | |
| 9A1FER-3 | 2026-08-31 13:01:39 | 46.28034 | 15.44128 | 57° | 16km/h | 19662m | -21.8m/s | 0°C | 0% | 0hPa | 0V | 00:00:00 | 00:00:00 | 00:00:00 | |
| 9A1FER-10 | 2026-08-31 13:01:28 | 46.28016 | 15.44047 | 96° | 15km/h | 19909m | -22.3m/s | 0°C | 0% | 0hPa | 0V | 00:00:00 | 00:00:00 | 00:00:00 | |
| 9A1FER-3 | 2026-08-31 13:01:22 | 46.28018 | 15.44023 | 84° | 13km/h | 20035m | -22.2m/s | 0°C | 0% | 0hPa | 0V | 00:00:00 | 00:00:00 | 00:00:00 | |
| 9A1FER-15 | 2026-08-31 13:01:20 | 46.28017 | 15.44022 | 71° | 15km/h | 20085m | -22.7m/s | 0°C | 0% | 0hPa | 0V | 00:00:00 | 00:00:00 | 00:00:00 | |
| 9A1FER-15 | 2026-08-31 13:01:05 | 46.27968 | 15.44005 | 3° | 15km/h | 20408m | -21.1m/s | 0°C | 0% | 0hPa | 0V | 00:00:00 | 00:00:00 | 00:00:00 | |
| 9A1FER-3 | 2026-08-31 13:01:03 | 46.27965 | 15.44006 | 307° | 15km/h | 20452m | -21.1m/s | 0°C | 0% | 0hPa | 0V | 00:00:00 | 00:00:00 | 00:00:00 | |
| 9A1FER-10 | 2026-08-31 13:01:01 | 46.27963 | 15.44009 | 313° | 15km/h | 20500m | -22.4m/s | 0°C | 0% | 0hPa | 0V | 00:00:00 | 00:00:00 | 00:00:00 | |
| 9A1FER-15 | 2026-08-31 13:00:50 | 46.27922 | 15.44032 | 349° | 20km/h | 20730m | -17.6m/s | 0°C | 0% | 0hPa | 0V | 00:00:00 | 00:00:00 | 00:00:00 | |
| 9A1FER-3 | 2026-08-31 13:00:47 | 46.27900 | 15.44038 | 350° | 16km/h | 20785m | -19.6m/s | 0°C | 0% | 0hPa | 0V | 00:00:00 | 00:00:00 | 00:00:00 | |
| 9A1FER-15 | 2026-08-31 13:00:33 | 46.27839 | 15.44041 | 359° | 13km/h | 21076m | -25.0m/s | 0°C | 0% | 0hPa | 0V | 00:00:00 | 00:00:00 | 00:00:00 | |
| 9A1FER-3 | 2026-08-31 13:00:32 | 46.27836 | 15.44040 | 7° | 15km/h | 21100m | -21.9m/s | 0°C | 0% | 0hPa | 0V | 00:00:00 | 00:00:00 | 00:00:00 | |
| 9A1FER-10 | 2026-08-31 13:00:20 | 46.27810 | 15.44070 | 322° | 16km/h | 21369m | -19.2m/s | 0°C | 0% | 0hPa | 0V | 00:00:00 | 00:00:00 | 00:00:00 | |
| 9A1FER-15 | 2026-08-31 13:00:18 | 46.27793 | 15.44079 | 353° | 18km/h | 21440m | -22.9m/s | 0°C | 0% | 0hPa | 0V | 00:00:00 | 00:00:00 | 00:00:00 | |
| 9A1FER-15 | 2026-08-31 12:59:58 | 46.27698 | 15.44047 | 354° | 11km/h | 21880m | -24.0m/s | 0°C | 0% | 0hPa | 0V | 00:00:00 | 00:00:00 | 00:00:00 | |
| 9A1FER-3 | 2026-08-31 12:59:47 | 46.27667 | 15.44025 | 41° | 13km/h | 22136m | -22.2m/s | 0°C | 0% | 0hPa | 0V | 00:00:00 | 00:00:00 | 00:00:00 | |
| 9A1FER-15 | 2026-08-31 12:59:39 | 46.27631 | 15.44030 | 318° | 13km/h | 22334m | -21.6m/s | 0°C | 0% | 0hPa | 0V | 00:00:00 | 00:00:00 | 00:00:00 | |
| 9A1FER-10 | 2026-08-31 12:59:36 | 46.27622 | 15.44041 | 331° | 13km/h | 22399m | -20.7m/s | 0°C | 0% | 0hPa | 0V | 00:00:00 | 00:00:00 | 00:00:00 | |
| 9A1FER-3 | 2026-08-31 12:59:32 | 46.27606 | 15.44047 | 8° | 13km/h | 22491m | -23.8m/s | 0°C | 0% | 0hPa | 0V | 00:00:00 | 00:00:00 | 00:00:00 | |
| 9A1FER-15 | 2026-08-31 12:59:24 | 46.27586 | 15.44039 | 13° | 11km/h | 22699m | -25.2m/s | 0°C | 0% | 0hPa | 0V | 00:00:00 | 00:00:00 | 00:00:00 | |
| 9A1FER-3 | 2026-08-31 12:59:16 | 46.27570 | 15.44018 | 66° | 13km/h | 22899m | -22.5m/s | 0°C | 0% | 0hPa | 0V | 00:00:00 | 00:00:00 | 00:00:00 | |
| 9A1FER-10 | 2026-08-31 12:59:07 | 46.27569 | 15.44042 | 264° | 20km/h | 23102m | -18.3m/s | 0°C | 0% | 0hPa | 0V | 00:00:00 | 00:00:00 | 00:00:00 | |
| 9A1FER-15 | 2026-08-31 12:59:06 | 46.27569 | 15.44049 | 273° | 20km/h | 23122m | -19.1m/s | 0°C | 0% | 0hPa | 0V | 00:00:00 | 00:00:00 | 00:00:00 | |
| 9A1FER-3 | 2026-08-31 12:59:01 | 46.27564 | 15.44083 | 297° | 24km/h | 23225m | -18.3m/s | 0°C | 0% | 0hPa | 0V | 00:00:00 | 00:00:00 | 00:00:00 | |
| OM5KV | 2026-08-31 12:58:57 | 46.27551 | 15.44110 | 308° | 24km/h | 23313m | -18.2m/s | 0°C | 0% | 0hPa | 0V | 00:00:00 | 00:00:00 | 00:00:00 | |
| OM5KV | 2026-08-31 12:58:56 | 46.27548 | 15.44118 | 305° | 22km/h | 23332m | -16.4m/s | -42.2°C | 2.9% | 0hPa | 0V | 00:00:00 | 00:00:00 | 00:00:00 | |
| 9A1FER-10 | 2026-08-31 12:58:51 | 46.27523 | 15.44136 | 1° | 16km/h | 23417m | -18.0m/s | 0°C | 0% | 0hPa | 0V | 00:00:00 | 00:00:00 | 00:00:00 | |
| 9A1FER-3 | 2026-08-31 12:58:46 | 46.27495 | 15.44129 | 18° | 11km/h | 23502m | -17.3m/s | 0°C | 0% | 0hPa | 0V | 00:00:00 | 00:00:00 | 00:00:00 | |
| 9A1FER-15 | 2026-08-31 12:58:36 | 46.27471 | 15.44110 | 97° | 7km/h | 23691m | -17.1m/s | 0°C | 0% | 0hPa | 0V | 00:00:00 | 00:00:00 | 00:00:00 | |
| OM5KV | 2026-08-31 12:58:32 | 46.27469 | 15.44110 | 303° | 9km/h | 23765m | -20.4m/s | -42.2°C | 2.9% | 0hPa | 0V | 00:00:00 | 00:00:00 | 00:00:00 | |
| 9A1FER-3 | 2026-08-31 12:58:31 | 46.27469 | 15.44113 | 292° | 13km/h | 23787m | -22.8m/s | 0°C | 0% | 0hPa | 0V | 00:00:00 | 00:00:00 | 00:00:00 | |
| OM5KV | 2026-08-31 12:58:30 | 46.27467 | 15.44116 | 310° | 9km/h | 23810m | -21.1m/s | 0°C | 0% | 0hPa | 0V | 00:00:00 | 00:00:00 | 00:00:00 | |
| OM5KV | 2026-08-31 12:58:23 | 46.27458 | 15.44125 | 358° | 7km/h | 23968m | -24.2m/s | -42.2°C | 2.9% | 0hPa | 0V | 00:00:00 | 00:00:00 | 00:00:00 | |
| 9A1FER-15 | 2026-08-31 12:58:21 | 46.27454 | 15.44126 | 349° | 15km/h | 24017m | -21.6m/s | 0°C | 0% | 0hPa | 0V | 00:00:00 | 00:00:00 | 00:00:00 | |
| OM5KV | 2026-08-31 12:58:15 | 46.27436 | 15.44132 | 15° | 11km/h | 24146m | -20.7m/s | -42.2°C | 2.9% | 0hPa | 0V | 00:00:00 | 00:00:00 | 00:00:00 | |
| PETON7-10 | 2026-08-31 12:58:12 | 46.27426 | 15.44122 | 44° | 15km/h | 24210m | -20.2m/s | 0°C | 0% | 0hPa | 0V | 00:00:00 | 00:00:00 | 00:00:00 | |
| 9A1FER-3 | 2026-08-31 12:58:10 | 46.27419 | 15.44109 | 53° | 16km/h | 24250m | -18.2m/s | 0°C | 0% | 0hPa | 0V | 00:00:00 | 00:00:00 | 00:00:00 | |
| 9A1FER-10 | 2026-08-31 12:58:09 | 46.27415 | 15.44103 | 47° | 15km/h | 24269m | -19.7m/s | 0°C | 0% | 0hPa | 0V | 00:00:00 | 00:00:00 | 00:00:00 | |
| 9A1FER-15 | 2026-08-31 12:58:06 | 46.27405 | 15.44098 | 351° | 15km/h | 24332m | -19.1m/s | 0°C | 0% | 0hPa | 0V | 00:00:00 | 00:00:00 | 00:00:00 | |
| OM5KV | 2026-08-31 12:58:04 | 46.27399 | 15.44098 | 50° | 11km/h | 24372m | -20.1m/s | -42.2°C | 2.9% | 0hPa | 0V | 00:00:00 | 00:00:00 | 00:00:00 | |
| OM5KV | 2026-08-31 12:58:03 | 46.27397 | 15.44093 | 61° | 16km/h | 24391m | -17.1m/s | 0°C | 0% | 0hPa | 0V | 00:00:00 | 00:00:00 | 00:00:00 | |
| 9A1FER-3 | 2026-08-31 12:57:55 | 46.27380 | 15.44074 | 293° | 13km/h | 24518m | -11.8m/s | 0°C | 0% | 0hPa | 0V | 00:00:00 | 00:00:00 | 00:00:00 | |
| PETON7-10 | 2026-08-31 12:57:54 | 46.27379 | 15.44081 | 280° | 11km/h | 24531m | -13.6m/s | 0°C | 0% | 0hPa | 0V | 00:00:00 | 00:00:00 | 00:00:00 | |
| 9A1FER-10 | 2026-08-31 12:57:50 | 46.27384 | 15.44084 | 156° | 11km/h | 24584m | -1.3m/s | 0°C | 0% | 0hPa | 0V | 00:00:00 | 00:00:00 | 00:00:00 | |
| 9A1FER-15 | 2026-08-31 12:57:48 | 46.27388 | 15.44080 | 106° | 11km/h | 24575m | 5.4m/s | 0°C | 0% | 0hPa | 0V | 00:00:00 | 00:00:00 | 00:00:00 | |
| OM5KV | 2026-08-31 12:57:46 | 46.27388 | 15.44075 | 57° | 4km/h | 24564m | 6.4m/s | -42.2°C | 2.9% | 0hPa | 0V | 00:00:00 | 00:00:00 | 00:00:00 | |
| DG1MFX-10 | 2026-08-31 12:57:41 | 46.27371 | 15.44077 | 348° | 5km/h | 24537m | 7.3m/s | 0°C | 0% | 0hPa | 0V | 00:00:00 | 00:00:00 | 00:00:00 | |
| 9A1FER-3 | 2026-08-31 12:57:40 | 46.27372 | 15.44078 | 181° | 11km/h | 24530m | 6.8m/s | 0°C | 0% | 0hPa | 0V | 00:00:00 | 00:00:00 | 00:00:00 | |
| PETON7-10 | 2026-08-31 12:57:38 | 46.27377 | 15.44073 | 134° | 13km/h | 24518m | 6.2m/s | 0°C | 0% | 0hPa | 0V | 00:00:00 | 00:00:00 | 00:00:00 | |
| 9A1FER-10 | 2026-08-31 12:57:34 | 46.27372 | 15.44063 | 354° | 13km/h | 24497m | 5.6m/s | 0°C | 0% | 0hPa | 0V | 00:00:00 | 00:00:00 | 00:00:00 | |
| 9A1FER-15 | 2026-08-31 12:57:33 | 46.27369 | 15.44064 | 4° | 13km/h | 24491m | 6.6m/s | 0°C | 0% | 0hPa | 0V | 00:00:00 | 00:00:00 | 00:00:00 | |
| 9A1FER-3 | 2026-08-31 12:57:25 | 46.27367 | 15.44051 | 34° | 15km/h | 24446m | 5.6m/s | 0°C | 0% | 0hPa | 0V | 00:00:00 | 00:00:00 | 00:00:00 | |
| PETON7-10 | 2026-08-31 12:57:23 | 46.27342 | 15.44046 | 14° | 15km/h | 24435m | 4.0m/s | 0°C | 0% | 0hPa | 0V | 00:00:00 | 00:00:00 | 00:00:00 | |
| OM5KV | 2026-08-31 12:57:22 | 46.27338 | 15.44044 | 30° | 15km/h | 24430m | 6.0m/s | -42.2°C | 2.9% | 0hPa | 0V | 00:00:00 | 00:00:00 | 00:00:00 | |
| 9A1FER-10 | 2026-08-31 12:57:19 | 46.27330 | 15.44032 | 63° | 15km/h | 24412m | 8.1m/s | 0°C | 0% | 0hPa | 0V | 00:00:00 | 00:00:00 | 00:00:00 | |
| 9A1FER-15 | 2026-08-31 12:57:18 | 46.27329 | 15.44029 | 58° | 16km/h | 24405m | 6.0m/s | 0°C | 0% | 0hPa | 0V | 00:00:00 | 00:00:00 | 00:00:00 | |
| OM5KV | 2026-08-31 12:57:16 | 46.27326 | 15.44022 | 72° | 15km/h | 24393m | 5.1m/s | -42.2°C | 2.9% | 0hPa | 0V | 00:00:00 | 00:00:00 | 00:00:00 | |
| DG1MFX-10 | 2026-08-31 12:57:15 | 46.27324 | 15.44018 | 53° | 13km/h | 24388m | 3.8m/s | 0°C | 0% | 0hPa | 0V | 00:00:00 | 00:00:00 | 00:00:00 | |
| OM5KV | 2026-08-31 12:57:12 | 46.27318 | 15.44009 | 69° | 13km/h | 24372m | 7.0m/s | 0°C | 0% | 0hPa | 0V | 00:00:00 | 00:00:00 | 00:00:00 | |
| OM5KV | 2026-08-31 12:57:11 | 46.27333 | 15.44004 | 71° | 18km/h | 24365m | 6.1m/s | -42.2°C | 2.9% | 0hPa | 0V | 00:00:00 | 00:00:00 | 00:00:00 | |
| 9A1FER-3 | 2026-08-31 12:57:10 | 46.27315 | 15.43998 | 72° | 18km/h | 24360m | 5.4m/s | 0°C | 0% | 0hPa | 0V | 00:00:00 | 00:00:00 | 00:00:00 | |
| PETON7-10 | 2026-08-31 12:57:08 | 46.27310 | 15.43989 | 32° | 18km/h | 24347m | 6.4m/s | 0°C | 0% | 0hPa | 0V | 00:00:00 | 00:00:00 | 00:00:00 | |
| OM5KV | 2026-08-31 12:57:06 | 46.27303 | 15.43983 | 42° | 16km/h | 24336m | 6.2m/s | 0°C | 0% | 0hPa | 0V | 00:00:00 | 00:00:00 | 00:00:00 | |
| OM5KV | 2026-08-31 12:57:05 | 46.27300 | 15.43978 | 49° | 24km/h | 24329m | 6.3m/s | -42.2°C | 2.9% | 0hPa | 0V | 00:00:00 | 00:00:00 | 00:00:00 | |
| 9A1FER-15 | 2026-08-31 12:57:02 | 46.27285 | 15.43962 | 22° | 18km/h | 24313m | 6.0m/s | 0°C | 0% | 0hPa | 0V | 00:00:00 | 00:00:00 | 00:00:00 | |
| OM5KV | 2026-08-31 12:57:00 | 46.27275 | 15.43954 | 41° | 22km/h | 24301m | 6.2m/s | 0°C | 0% | 0hPa | 0V | 00:00:00 | 00:00:00 | 00:00:00 | |
| DO3MHA-12 | 2026-08-31 12:56:59 | 46.27271 | 15.43949 | 38° | 20km/h | 24297m | 4.1m/s | 0°C | 0% | 0hPa | 0V | 00:00:00 | 00:00:00 | 00:00:00 | |
| 9A1FER-3 | 2026-08-31 12:56:55 | 46.27258 | 15.43938 | 48° | 18km/h | 24273m | 5.9m/s | 0°C | 0% | 0hPa | 0V | 00:00:00 | 00:00:00 | 00:00:00 | |
| PETON7-10 | 2026-08-31 12:56:53 | 46.27250 | 15.43930 | 31° | 20km/h | 24262m | 6.8m/s | 0°C | 0% | 0hPa | 0V | 00:00:00 | 00:00:00 | 00:00:00 | |
| OM5KV | 2026-08-31 12:56:49 | 46.27233 | 15.43915 | 44° | 18km/h | 24237m | 4.4m/s | 0°C | 0% | 0hPa | 0V | 00:00:00 | 00:00:00 | 00:00:00 | |
| 9A1FER-15 | 2026-08-31 12:56:47 | 46.27227 | 15.43910 | 357° | 16km/h | 24225m | 5.7m/s | 0°C | 0% | 0hPa | 0V | 00:00:00 | 00:00:00 | 00:00:00 | |
| DO3MHA-12 | 2026-08-31 12:56:46 | 46.27225 | 15.43911 | 355° | 15km/h | 24220m | 4.3m/s | 0°C | 0% | 0hPa | 0V | 00:00:00 | 00:00:00 | 00:00:00 | |
| 9A1FER-10 | 2026-08-31 12:56:45 | 46.27222 | 15.43910 | 26° | 18km/h | 24215m | 6.6m/s | 0°C | 0% | 0hPa | 0V | 00:00:00 | 00:00:00 | 00:00:00 | |
| OM5KV | 2026-08-31 12:56:43 | 46.27213 | 15.43903 | 28° | 26km/h | 24203m | 6.8m/s | 0°C | 0% | 0hPa | 0V | 00:00:00 | 00:00:00 | 00:00:00 | |
| OM5KV | 2026-08-31 12:56:42 | 46.27207 | 15.43899 | 22° | 29km/h | 24196m | 6.6m/s | -42.2°C | 2.9% | 0hPa | 0V | 00:00:00 | 00:00:00 | 00:00:00 | |
| 9A1FER-3 | 2026-08-31 12:56:40 | 46.27194 | 15.43892 | 30° | 16km/h | 24186m | 6.7m/s | 0°C | 0% | 0hPa | 0V | 00:00:00 | 00:00:00 | 00:00:00 | |
| PETON7-10 | 2026-08-31 12:56:38 | 46.27184 | 15.43885 | 16° | 15km/h | 24175m | 7.1m/s | 0°C | 0% | 0hPa | 0V | 00:00:00 | 00:00:00 | 00:00:00 | |
| OM5KV | 2026-08-31 12:56:36 | 46.27178 | 15.43885 | 344° | 7km/h | 24161m | 5.8m/s | -42.2°C | 2.9% | 0hPa | 0V | 00:00:00 | 00:00:00 | 00:00:00 | |
| 9A1FER-15 | 2026-08-31 12:56:32 | 46.27169 | 15.43885 | 354° | 15km/h | 24138m | 5.1m/s | 0°C | 0% | 0hPa | 0V | 00:00:00 | 00:00:00 | 00:00:00 | |
| DO3MHA-12 | 2026-08-31 12:56:30 | 46.27159 | 15.43883 | 22° | 11km/h | 24127m | 6.2m/s | 0°C | 0% | 0hPa | 0V | 00:00:00 | 00:00:00 | 00:00:00 | |
| 9A1FER-10 | 2026-08-31 12:56:29 | 46.27153 | 15.43880 | 20° | 13km/h | 24122m | 4.0m/s | 0°C | 0% | 0hPa | 0V | 00:00:00 | 00:00:00 | 00:00:00 | |
| OM5KV | 2026-08-31 12:56:27 | 46.27142 | 15.43879 | 346° | 18km/h | 24111m | 5.8m/s | 0°C | 0% | 0hPa | 0V | 00:00:00 | 00:00:00 | 00:00:00 | |
| 9A1FER-3 | 2026-08-31 12:56:25 | 46.27135 | 15.43883 | 332° | 11km/h | 24100m | 5.1m/s | 0°C | 0% | 0hPa | 0V | 00:00:00 | 00:00:00 | 00:00:00 | |
| PETON7-10 | 2026-08-31 12:56:23 | 46.27131 | 15.43888 | 292° | 9km/h | 24091m | 5.9m/s | 0°C | 0% | 0hPa | 0V | 00:00:00 | 00:00:00 | 00:00:00 | |
| OM5KV | 2026-08-31 12:56:21 | 46.27129 | 15.43896 | 308° | 11km/h | 24081m | 5.7m/s | 0°C | 0% | 0hPa | 0V | 00:00:00 | 00:00:00 | 00:00:00 | |
| DG1MFX-10 | 2026-08-31 12:56:19 | 46.27125 | 15.43899 | 347° | 7km/h | 24070m | 5.5m/s | 0°C | 0% | 0hPa | 0V | 00:00:00 | 00:00:00 | 00:00:00 | |
| 9A1FER-15 | 2026-08-31 12:56:17 | 46.27120 | 15.43903 | 335° | 11km/h | 24057m | 4.3m/s | 0°C | 0% | 0hPa | 0V | 00:00:00 | 00:00:00 | 00:00:00 | |
| 9A1FER-10 | 2026-08-31 12:56:14 | 46.27111 | 15.43905 | 351° | 11km/h | 24040m | 5.7m/s | 0°C | 0% | 0hPa | 0V | 00:00:00 | 00:00:00 | 00:00:00 | |
| OM5KV | 2026-08-31 12:56:11 | 46.27105 | 15.43911 | 329° | 4km/h | 24023m | 7.5m/s | -42.2°C | 2.9% | 0hPa | 0V | 00:00:00 | 00:00:00 | 00:00:00 | |
| 9A1FER-3 | 2026-08-31 12:56:10 | 46.27103 | 15.43911 | 43° | 9km/h | 24017m | 5.2m/s | 0°C | 0% | 0hPa | 0V | 00:00:00 | 00:00:00 | 00:00:00 | |
| PETON7-10 | 2026-08-31 12:56:08 | 46.27102 | 15.43911 | 344° | 11km/h | 24005m | 5.0m/s | 0°C | 0% | 0hPa | 0V | 00:00:00 | 00:00:00 | 00:00:00 | |
| DO3MHA-12 | 2026-08-31 12:56:07 | 46.27100 | 15.43911 | 19° | 9km/h | 24000m | 5.6m/s | 0°C | 0% | 0hPa | 0V | 00:00:00 | 00:00:00 | 00:00:00 | |
| OM5KV | 2026-08-31 12:56:04 | 46.27090 | 15.43902 | 29° | 16km/h | 23982m | 6.2m/s | 0°C | 0% | 0hPa | 0V | 00:00:00 | 00:00:00 | 00:00:00 | |
| 9A1FER-15 | 2026-08-31 12:56:02 | 46.27083 | 15.43901 | 346° | 13km/h | 23973m | 3.6m/s | 0°C | 0% | 0hPa | 0V | 00:00:00 | 00:00:00 | 00:00:00 | |
| 9A1FER-10 | 2026-08-31 12:55:59 | 46.27078 | 15.43902 | 330° | 13km/h | 23957m | 6.3m/s | 0°C | 0% | 0hPa | 0V | 00:00:00 | 00:00:00 | 00:00:00 | |
| DG1MFX-10 | 2026-08-31 12:55:58 | 46.27077 | 15.43904 | 282° | 7km/h | 23950m | 6.8m/s | 0°C | 0% | 0hPa | 0V | 00:00:00 | 00:00:00 | 00:00:00 | |
| DO3MHA-12 | 2026-08-31 12:55:57 | 46.27077 | 15.43907 | 278° | 13km/h | 23945m | 4.0m/s | 0°C | 0% | 0hPa | 0V | 00:00:00 | 00:00:00 | 00:00:00 | |
| 9A1FER-3 | 2026-08-31 12:55:55 | 46.27075 | 15.43911 | 353° | 16km/h | 23934m | 4.9m/s | 0°C | 0% | 0hPa | 0V | 00:00:00 | 00:00:00 | 00:00:00 | |
| PETON7-10 | 2026-08-31 12:55:53 | 46.27072 | 15.43913 | 327° | 18km/h | 23925m | 6.6m/s | 0°C | 0% | 0hPa | 0V | 00:00:00 | 00:00:00 | 00:00:00 | |
| OM5KV | 2026-08-31 12:55:52 | 46.27069 | 15.43917 | 309° | 20km/h | 23919m | 5.7m/s | -42.2°C | 2.9% | 0hPa | 0V | 00:00:00 | 00:00:00 | 00:00:00 | |
| OM5KV | 2026-08-31 12:55:51 | 46.27066 | 15.43923 | 307° | 24km/h | 23914m | 4.8m/s | 0°C | 0% | 0hPa | 0V | 00:00:00 | 00:00:00 | 00:00:00 | |
| 9A1FER-15 | 2026-08-31 12:55:47 | 46.27051 | 15.43944 | 306° | 13km/h | 23890m | 5.9m/s | 0°C | 0% | 0hPa | 0V | 00:00:00 | 00:00:00 | 00:00:00 | |
| 9A1FER-10 | 2026-08-31 12:55:44 | 46.27042 | 15.43959 | 318° | 11km/h | 23874m | 3.2m/s | 0°C | 0% | 0hPa | 0V | 00:00:00 | 00:00:00 | 00:00:00 | |
| OM5KV | 2026-08-31 12:55:43 | 46.27040 | 15.43963 | 307° | 16km/h | 23869m | 7.1m/s | -42.2°C | 2.9% | 0hPa | 0V | 00:00:00 | 00:00:00 | 00:00:00 | |
| 9A1FER-3 | 2026-08-31 12:55:40 | 46.27035 | 15.43979 | 310° | 7km/h | 23852m | 6.8m/s | 0°C | 0% | 0hPa | 0V | 00:00:00 | 00:00:00 | 00:00:00 | |
| DO3MHA-12 | 2026-08-31 12:55:38 | 46.27030 | 15.43983 | 324° | 9km/h | 23840m | 6.2m/s | 0°C | 0% | 0hPa | 0V | 00:00:00 | 00:00:00 | 00:00:00 | |
| OM5KV | 2026-08-31 12:55:33 | 46.27022 | 15.43990 | 318° | 9km/h | 23813m | 6.6m/s | -42.2°C | 2.9% | 0hPa | 0V | 00:00:00 | 00:00:00 | 00:00:00 | |
| 9A1FER-15 | 2026-08-31 12:55:32 | 46.27021 | 15.43993 | 281° | 9km/h | 23808m | 4.2m/s | 0°C | 0% | 0hPa | 0V | 00:00:00 | 00:00:00 | 00:00:00 | |
| 9A1FER-10 | 2026-08-31 12:55:29 | 46.27018 | 15.43999 | 51° | 9km/h | 23792m | 4.9m/s | 0°C | 0% | 0hPa | 0V | 00:00:00 | 00:00:00 | 00:00:00 | |
| 9A1FER-3 | 2026-08-31 12:55:25 | 46.27021 | 15.43993 | 82° | 11km/h | 23771m | 5.3m/s | 0°C | 0% | 0hPa | 0V | 00:00:00 | 00:00:00 | 00:00:00 | |
| PETON7-10 | 2026-08-31 12:55:23 | 46.27017 | 15.43990 | 351° | 11km/h | 23761m | 5.4m/s | 0°C | 0% | 0hPa | 0V | 00:00:00 | 00:00:00 | 00:00:00 | |
| DO3MHA-12 | 2026-08-31 12:55:20 | 46.27009 | 15.43999 | 312° | 11km/h | 23744m | 4.8m/s | 0°C | 0% | 0hPa | 0V | 00:00:00 | 00:00:00 | 00:00:00 | |
| OM5KV | 2026-08-31 12:55:18 | 46.27003 | 15.44003 | 12° | 13km/h | 23734m | 4.8m/s | -42.2°C | 2.9% | 0hPa | 0V | 00:00:00 | 00:00:00 | 00:00:00 | |
| 9A1FER-15 | 2026-08-31 12:55:17 | 46.27000 | 15.44001 | 20° | 9km/h | 23728m | 5.3m/s | 0°C | 0% | 0hPa | 0V | 00:00:00 | 00:00:00 | 00:00:00 | |
| 9A1FER-10 | 2026-08-31 12:55:14 | 46.26996 | 15.44017 | 50° | 11km/h | 23713m | 5.4m/s | 0°C | 0% | 0hPa | 0V | 00:00:00 | 00:00:00 | 00:00:00 | |
| DO3MHA-12 | 2026-08-31 12:55:10 | 46.26988 | 15.43993 | 7° | 11km/h | 23691m | 4.2m/s | 0°C | 0% | 0hPa | 0V | 00:00:00 | 00:00:00 | 00:00:00 | |
| PETON7-10 | 2026-08-31 12:55:08 | 46.26983 | 15.43992 | 3° | 11km/h | 23680m | 6.1m/s | 0°C | 0% | 0hPa | 0V | 00:00:00 | 00:00:00 | 00:00:00 | |
| OM5KV | 2026-08-31 12:55:06 | 46.26976 | 15.43991 | 6° | 11km/h | 23669m | 6.2m/s | -42.2°C | 2.9% | 0hPa | 0V | 00:00:00 | 00:00:00 | 00:00:00 | |
| OM5KV | 2026-08-31 12:55:04 | 46.26974 | 15.43989 | 93° | 5km/h | 23659m | 3.8m/s | 0°C | 0% | 0hPa | 0V | 00:00:00 | 00:00:00 | 00:00:00 | |
| 9A1FER-15 | 2026-08-31 12:55:02 | 46.26972 | 15.43983 | 53° | 13km/h | 23648m | 5.7m/s | 0°C | 0% | 0hPa | 0V | 00:00:00 | 00:00:00 | 00:00:00 | |
| DO3MHA-12 | 2026-08-31 12:54:59 | 46.26965 | 15.43973 | 24° | 11km/h | 23631m | 5.5m/s | 0°C | 0% | 0hPa | 0V | 00:00:00 | 00:00:00 | 00:00:00 | |
| 9A1FER-10 | 2026-08-31 12:54:57 | 46.26957 | 15.43969 | 21° | 13km/h | 23620m | 2.8m/s | 0°C | 0% | 0hPa | 0V | 00:00:00 | 00:00:00 | 00:00:00 | |
| OM5KV | 2026-08-31 12:54:56 | 46.26954 | 15.43968 | 15° | 11km/h | 23616m | 6.6m/s | -42.2°C | 2.9% | 0hPa | 0V | 00:00:00 | 00:00:00 | 00:00:00 | |
| 9A1FER-3 | 2026-08-31 12:54:55 | 46.26951 | 15.43967 | 21° | 15km/h | 23609m | 6.9m/s | 0°C | 0% | 0hPa | 0V | 00:00:00 | 00:00:00 | 00:00:00 | |
| PETON7-10 | 2026-08-31 12:54:53 | 46.26948 | 15.43963 | 36° | 16km/h | 23597m | 6.7m/s | 0°C | 0% | 0hPa | 0V | 00:00:00 | 00:00:00 | 00:00:00 | |
| OM5KV | 2026-08-31 12:54:50 | 46.26938 | 15.43956 | 31° | 15km/h | 23580m | 6.4m/s | -42.2°C | 2.9% | 0hPa | 0V | 00:00:00 | 00:00:00 | 00:00:00 | |
| DO3MHA-12 | 2026-08-31 12:54:48 | 46.26932 | 15.43952 | 12° | 15km/h | 23567m | 5.8m/s | 0°C | 0% | 0hPa | 0V | 00:00:00 | 00:00:00 | 00:00:00 | |
| 9A1FER-15 | 2026-08-31 12:54:47 | 46.26928 | 15.43951 | 6° | 20km/h | 23561m | 6.4m/s | 0°C | 0% | 0hPa | 0V | 00:00:00 | 00:00:00 | 00:00:00 | |
| OM5KV | 2026-08-31 12:54:44 | 46.26914 | 15.43950 | 4° | 9km/h | 23545m | 4.7m/s | -42.2°C | 2.9% | 0hPa | 0V | 00:00:00 | 00:00:00 | 00:00:00 | |
| 9A1FER-10 | 2026-08-31 12:54:42 | 46.26907 | 15.43950 | 1° | 20km/h | 23536m | 5.6m/s | 0°C | 0% | 0hPa | 0V | 00:00:00 | 00:00:00 | 00:00:00 | |
| 9A1FER-3 | 2026-08-31 12:54:40 | 46.26897 | 15.43950 | 10° | 22km/h | 23524m | 5.7m/s | 0°C | 0% | 0hPa | 0V | 00:00:00 | 00:00:00 | 00:00:00 | |
| PETON7-10 | 2026-08-31 12:54:38 | 46.26889 | 15.43948 | 10° | 24km/h | 23516m | 4.7m/s | 0°C | 0% | 0hPa | 0V | 00:00:00 | 00:00:00 | 00:00:00 | |
| DG1MFX-10 | 2026-08-31 12:54:36 | 46.26876 | 15.43945 | 6° | 29km/h | 23505m | 4.4m/s | 0°C | 0% | 0hPa | 0V | 00:00:00 | 00:00:00 | 00:00:00 | |
| OM5KV | 2026-08-31 12:54:33 | 46.26858 | 15.43942 | 12° | 20km/h | 23489m | 4.0m/s | -42.2°C | 2.9% | 0hPa | 0V | 00:00:00 | 00:00:00 | 00:00:00 | |
| 9A1FER-15 | 2026-08-31 12:54:32 | 46.26853 | 15.43941 | 1° | 24km/h | 23484m | 5.5m/s | 0°C | 0% | 0hPa | 0V | 00:00:00 | 00:00:00 | 00:00:00 | |
| 9A1FER-10 | 2026-08-31 12:54:28 | 46.26828 | 15.43948 | 349° | 26km/h | 23459m | 6.3m/s | 0°C | 0% | 0hPa | 0V | 00:00:00 | 00:00:00 | 00:00:00 | |
| 9A1FER-3 | 2026-08-31 12:54:25 | 46.26814 | 15.43952 | 351° | 26km/h | 23447m | 5.7m/s | 0°C | 0% | 0hPa | 0V | 00:00:00 | 00:00:00 | 00:00:00 | |
| PETON7-10 | 2026-08-31 12:54:23 | 46.26802 | 15.43955 | 348° | 24km/h | 23438m | 3.2m/s | 0°C | 0% | 0hPa | 0V | 00:00:00 | 00:00:00 | 00:00:00 | |
| DO3MHA-12 | 2026-08-31 12:54:18 | 46.26773 | 15.43966 | 327° | 24km/h | 23411m | 4.2m/s | 0°C | 0% | 0hPa | 0V | 00:00:00 | 00:00:00 | 00:00:00 | |
| 9A1FER-15 | 2026-08-31 12:54:17 | 46.26768 | 15.43972 | 313° | 27km/h | 23407m | 5.6m/s | 0°C | 0% | 0hPa | 0V | 00:00:00 | 00:00:00 | 00:00:00 | |
| DG1MFX-10 | 2026-08-31 12:54:16 | 46.26763 | 15.43979 | 321° | 29km/h | 23401m | 7.0m/s | 0°C | 0% | 0hPa | 0V | 00:00:00 | 00:00:00 | 00:00:00 | |
| 9A1FER-10 | 2026-08-31 12:54:12 | 46.26739 | 15.44002 | 333° | 24km/h | 23376m | 5.9m/s | 0°C | 0% | 0hPa | 0V | 00:00:00 | 00:00:00 | 00:00:00 | |
| 9A1FER-3 | 2026-08-31 12:54:10 | 46.26732 | 15.44009 | 329° | 27km/h | 23366m | 5.9m/s | 0°C | 0% | 0hPa | 0V | 00:00:00 | 00:00:00 | 00:00:00 | |
| DO3MHA-12 | 2026-08-31 12:54:08 | 46.26722 | 15.44022 | 310° | 27km/h | 23355m | 4.7m/s | 0°C | 0% | 0hPa | 0V | 00:00:00 | 00:00:00 | 00:00:00 | |
| PETON7-10 | 2026-08-31 12:54:07 | 46.26717 | 15.44031 | 304° | 27km/h | 23350m | 6.5m/s | 0°C | 0% | 0hPa | 0V | 00:00:00 | 00:00:00 | 00:00:00 | |
| 9A1FER-15 | 2026-08-31 12:54:02 | 46.26691 | 15.44064 | 333° | 24km/h | 23321m | 6.4m/s | 0°C | 0% | 0hPa | 0V | 00:00:00 | 00:00:00 | 00:00:00 | |
| DO3MHA-12 | 2026-08-31 12:53:57 | 46.26675 | 15.44100 | 289° | 26km/h | 23292m | 4.6m/s | 0°C | 0% | 0hPa | 0V | 00:00:00 | 00:00:00 | 00:00:00 | |
| 9A1FER-3 | 2026-08-31 12:53:56 | 46.26671 | 15.44122 | 281° | 22km/h | 23282m | 5.9m/s | 0°C | 0% | 0hPa | 0V | 00:00:00 | 00:00:00 | 00:00:00 | |
| PETON7-10 | 2026-08-31 12:53:52 | 46.26663 | 15.44145 | 303° | 22km/h | 23265m | 5.1m/s | 0°C | 0% | 0hPa | 0V | 00:00:00 | 00:00:00 | 00:00:00 | |
| 9A1FER-15 | 2026-08-31 12:53:47 | 46.26649 | 15.44180 | 306° | 22km/h | 23239m | 5.3m/s | 0°C | 0% | 0hPa | 0V | 00:00:00 | 00:00:00 | 00:00:00 | |
| DO3MHA-12 | 2026-08-31 12:53:45 | 46.26643 | 15.44196 | 293° | 18km/h | 23228m | 6.5m/s | 0°C | 0% | 0hPa | 0V | 00:00:00 | 00:00:00 | 00:00:00 | |
| 9A1FER-10 | 2026-08-31 12:53:42 | 46.26641 | 15.44219 | 274° | 20km/h | 23212m | 5.2m/s | 0°C | 0% | 0hPa | 0V | 00:00:00 | 00:00:00 | 00:00:00 | |
| 9A1FER-3 | 2026-08-31 12:53:40 | 46.26641 | 15.44235 | 259° | 18km/h | 23200m | 7.2m/s | 0°C | 0% | 0hPa | 0V | 00:00:00 | 00:00:00 | 00:00:00 | |
| PETON7-10 | 2026-08-31 12:53:37 | 46.26641 | 15.44253 | 297° | 20km/h | 23182m | 6.0m/s | 0°C | 0% | 0hPa | 0V | 00:00:00 | 00:00:00 | 00:00:00 | |
| DO3MHA-12 | 2026-08-31 12:53:35 | 46.26636 | 15.44267 | 291° | 18km/h | 23172m | 6.0m/s | 0°C | 0% | 0hPa | 0V | 00:00:00 | 00:00:00 | 00:00:00 | |
| DG1MFX-10 | 2026-08-31 12:53:33 | 46.26638 | 15.44281 | 253° | 24km/h | 23161m | 5.9m/s | 0°C | 0% | 0hPa | 0V | 00:00:00 | 00:00:00 | 00:00:00 | |
| 9A1FER-15 | 2026-08-31 12:53:32 | 46.26639 | 15.44290 | 253° | 18km/h | 23154m | 7.0m/s | 0°C | 0% | 0hPa | 0V | 00:00:00 | 00:00:00 | 00:00:00 | |
| 9A1FER-10 | 2026-08-31 12:53:27 | 46.26646 | 15.44322 | 287° | 16km/h | 23128m | 6.8m/s | 0°C | 0% | 0hPa | 0V | 00:00:00 | 00:00:00 | 00:00:00 | |
| 9A1FER-3 | 2026-08-31 12:53:25 | 46.26641 | 15.44333 | 304° | 15km/h | 23117m | 6.1m/s | 0°C | 0% | 0hPa | 0V | 00:00:00 | 00:00:00 | 00:00:00 | |
| PETON7-10 | 2026-08-31 12:53:22 | 46.26641 | 15.44352 | 259° | 13km/h | 23101m | 5.7m/s | 0°C | 0% | 0hPa | 0V | 00:00:00 | 00:00:00 | 00:00:00 | |
| DO3MHA-12 | 2026-08-31 12:53:21 | 46.26643 | 15.44360 | 249° | 15km/h | 23095m | 4.7m/s | 0°C | 0% | 0hPa | 0V | 00:00:00 | 00:00:00 | 00:00:00 | |
| 9A1FER-15 | 2026-08-31 12:53:17 | 46.26653 | 15.44377 | 286° | 11km/h | 23073m | 6.7m/s | 0°C | 0% | 0hPa | 0V | 00:00:00 | 00:00:00 | 00:00:00 | |
| 9A1FER-10 | 2026-08-31 12:53:12 | 46.26646 | 15.44398 | 279° | 11km/h | 23042m | 6.7m/s | 0°C | 0% | 0hPa | 0V | 00:00:00 | 00:00:00 | 00:00:00 | |
| DO3MHA-12 | 2026-08-31 12:53:11 | 46.26646 | 15.44402 | 270° | 9km/h | 23036m | 4.0m/s | 0°C | 0% | 0hPa | 0V | 00:00:00 | 00:00:00 | 00:00:00 | |
| 9A1FER-3 | 2026-08-31 12:53:10 | 46.26646 | 15.44407 | 260° | 11km/h | 23033m | 3.5m/s | 0°C | 0% | 0hPa | 0V | 00:00:00 | 00:00:00 | 00:00:00 | |
| PETON7-10 | 2026-08-31 12:53:07 | 46.26651 | 15.44406 | 102° | 11km/h | 23017m | 5.0m/s | 0°C | 0% | 0hPa | 0V | 00:00:00 | 00:00:00 | 00:00:00 | |
| 9A1FER-15 | 2026-08-31 12:53:03 | 46.26649 | 15.44423 | 230° | 9km/h | 22990m | 4.8m/s | 0°C | 0% | 0hPa | 0V | 00:00:00 | 00:00:00 | 00:00:00 | |
| DO3MHA-12 | 2026-08-31 12:53:00 | 46.26654 | 15.44430 | 101° | 5km/h | 22973m | 5.4m/s | 0°C | 0% | 0hPa | 0V | 00:00:00 | 00:00:00 | 00:00:00 | |
| 9A1FER-10 | 2026-08-31 12:52:57 | 46.26655 | 15.44423 | 85° | 11km/h | 22961m | 3.8m/s | 0°C | 0% | 0hPa | 0V | 00:00:00 | 00:00:00 | 00:00:00 | |
| 9A1FER-3 | 2026-08-31 12:52:55 | 46.26652 | 15.44415 | 27° | 11km/h | 22950m | 5.8m/s | 0°C | 0% | 0hPa | 0V | 00:00:00 | 00:00:00 | 00:00:00 | |
| PETON7-10 | 2026-08-31 12:52:52 | 46.26649 | 15.44417 | 205° | 11km/h | 22933m | 4.5m/s | 0°C | 0% | 0hPa | 0V | 00:00:00 | 00:00:00 | 00:00:00 | |
| DG1MFX-10 | 2026-08-31 12:52:51 | 46.26651 | 15.44418 | 200° | 5km/h | 22930m | 3.1m/s | 0°C | 0% | 0hPa | 0V | 00:00:00 | 00:00:00 | 00:00:00 | |
| 9A1FER-15 | 2026-08-31 12:52:47 | 46.26650 | 15.44411 | 83° | 16km/h | 22907m | 6.9m/s | 0°C | 0% | 0hPa | 0V | 00:00:00 | 00:00:00 | 00:00:00 | |
| 9A1FER-10 | 2026-08-31 12:52:42 | 46.26639 | 15.44382 | 71° | 11km/h | 22880m | 7.2m/s | 0°C | 0% | 0hPa | 0V | 00:00:00 | 00:00:00 | 00:00:00 | |
| 9A1FER-3 | 2026-08-31 12:52:40 | 46.26636 | 15.44377 | 25° | 11km/h | 22866m | 6.7m/s | 0°C | 0% | 0hPa | 0V | 00:00:00 | 00:00:00 | 00:00:00 | |
| PETON7-10 | 2026-08-31 12:52:37 | 46.26629 | 15.44370 | 59° | 9km/h | 22850m | 7.0m/s | 0°C | 0% | 0hPa | 0V | 00:00:00 | 00:00:00 | 00:00:00 | |
| DO3MHA-12 | 2026-08-31 12:52:36 | 46.26627 | 15.44364 | 69° | 13km/h | 22843m | 5.6m/s | 0°C | 0% | 0hPa | 0V | 00:00:00 | 00:00:00 | 00:00:00 | |
| 9A1FER-15 | 2026-08-31 12:52:32 | 46.26616 | 15.44343 | 45° | 7km/h | 22819m | 6.3m/s | 0°C | 0% | 0hPa | 0V | 00:00:00 | 00:00:00 | 00:00:00 | |
| DG1MFX-10 | 2026-08-31 12:52:31 | 46.26614 | 15.44340 | 57° | 9km/h | 22814m | 4.0m/s | 0°C | 0% | 0hPa | 0V | 00:00:00 | 00:00:00 | 00:00:00 | |
| 9A1FER-10 | 2026-08-31 12:52:27 | 46.26609 | 15.44338 | 155° | 7km/h | 22791m | 5.3m/s | 0°C | 0% | 0hPa | 0V | 00:00:00 | 00:00:00 | 00:00:00 | |
| DO3MHA-12 | 2026-08-31 12:52:26 | 46.26609 | 15.44337 | 83° | 4km/h | 22785m | 6.3m/s | 0°C | 0% | 0hPa | 0V | 00:00:00 | 00:00:00 | 00:00:00 | |
| 9A1FER-3 | 2026-08-31 12:52:25 | 46.26608 | 15.44336 | 44° | 7km/h | 22778m | 6.7m/s | 0°C | 0% | 0hPa | 0V | 00:00:00 | 00:00:00 | 00:00:00 | |
| PETON7-10 | 2026-08-31 12:52:22 | 46.26602 | 15.44333 | 22° | 9km/h | 22762m | 5.9m/s | 0°C | 0% | 0hPa | 0V | 00:00:00 | 00:00:00 | 00:00:00 | |
| 9A1FER-15 | 2026-08-31 12:52:18 | 46.26593 | 15.44327 | 246° | 9km/h | 22735m | 6.0m/s | 0°C | 0% | 0hPa | 0V | 00:00:00 | 00:00:00 | 00:00:00 | |
| DO3MHA-12 | 2026-08-31 12:52:14 | 46.26592 | 15.44332 | 330° | 15km/h | 22718m | 6.6m/s | 0°C | 0% | 0hPa | 0V | 00:00:00 | 00:00:00 | 00:00:00 | |
| 9A1FER-10 | 2026-08-31 12:52:11 | 46.26586 | 15.44331 | 50° | 11km/h | 22699m | 5.3m/s | 0°C | 0% | 0hPa | 0V | 00:00:00 | 00:00:00 | 00:00:00 | |
| 9A1FER-3 | 2026-08-31 12:52:10 | 46.26583 | 15.44328 | 40° | 11km/h | 22693m | 6.2m/s | 0°C | 0% | 0hPa | 0V | 00:00:00 | 00:00:00 | 00:00:00 | |
| DG1MFX-10 | 2026-08-31 12:52:09 | 46.26580 | 15.44323 | 40° | 18km/h | 22687m | 5.1m/s | 0°C | 0% | 0hPa | 0V | 00:00:00 | 00:00:00 | 00:00:00 | |
| PETON7-10 | 2026-08-31 12:52:07 | 46.26575 | 15.44316 | 58° | 11km/h | 22676m | 6.1m/s | 0°C | 0% | 0hPa | 0V | 00:00:00 | 00:00:00 | 00:00:00 | |
| 9A1FER-15 | 2026-08-31 12:52:02 | 46.26566 | 15.44315 | 14° | 11km/h | 22648m | 6.4m/s | 0°C | 0% | 0hPa | 0V | 00:00:00 | 00:00:00 | 00:00:00 | |
| 9A1FER-3 | 2026-08-31 12:51:55 | 46.26552 | 15.44299 | 32° | 11km/h | 22609m | 6.5m/s | 0°C | 0% | 0hPa | 0V | 00:00:00 | 00:00:00 | 00:00:00 | |
| PETON7-10 | 2026-08-31 12:51:50 | 46.26536 | 15.44290 | 26° | 13km/h | 22580m | 6.8m/s | 0°C | 0% | 0hPa | 0V | 00:00:00 | 00:00:00 | 00:00:00 | |
| DG1MFX-10 | 2026-08-31 12:51:49 | 46.26532 | 15.44287 | 26° | 20km/h | 22574m | 4.4m/s | 0°C | 0% | 0hPa | 0V | 00:00:00 | 00:00:00 | 00:00:00 | |
| DO3MHA-12 | 2026-08-31 12:51:46 | 46.26523 | 15.44278 | 344° | 13km/h | 22551m | 5.5m/s | 0°C | 0% | 0hPa | 0V | 00:00:00 | 00:00:00 | 00:00:00 | |
| 9A1FER-10 | 2026-08-31 12:51:40 | 46.26512 | 15.44274 | 11° | 15km/h | 22523m | 6.8m/s | 0°C | 0% | 0hPa | 0V | 00:00:00 | 00:00:00 | 00:00:00 | |
| PETON7-10 | 2026-08-31 12:51:31 | 46.26482 | 15.44270 | 8° | 15km/h | 22474m | 4.5m/s | 0°C | 0% | 0hPa | 0V | 00:00:00 | 00:00:00 | 00:00:00 | |
| DG1MFX-10 | 2026-08-31 12:51:28 | 46.26470 | 15.44269 | 356° | 16km/h | 22457m | 4.9m/s | 0°C | 0% | 0hPa | 0V | 00:00:00 | 00:00:00 | 00:00:00 | |
| DO3MHA-12 | 2026-08-31 12:51:27 | 46.26466 | 15.44269 | 359° | 15km/h | 22452m | 5.8m/s | 0°C | 0% | 0hPa | 0V | 00:00:00 | 00:00:00 | 00:00:00 | |
| 9A1FER-3 | 2026-08-31 12:51:25 | 46.26462 | 15.44271 | 302° | 15km/h | 22442m | 4.0m/s | 0°C | 0% | 0hPa | 0V | 00:00:00 | 00:00:00 | 00:00:00 | |
| PETON7-10 | 2026-08-31 12:51:16 | 46.26431 | 15.44291 | 12° | 11km/h | 22393m | 5.0m/s | 0°C | 0% | 0hPa | 0V | 00:00:00 | 00:00:00 | 00:00:00 | |
| 9A1FER-3 | 2026-08-31 12:51:10 | 46.26421 | 15.44308 | 327° | 13km/h | 22359m | 5.0m/s | 0°C | 0% | 0hPa | 0V | 00:00:00 | 00:00:00 | 00:00:00 | |
| DG1MFX-10 | 2026-08-31 12:51:07 | 46.26409 | 15.44313 | 12° | 13km/h | 22342m | 6.9m/s | 0°C | 0% | 0hPa | 0V | 00:00:00 | 00:00:00 | 00:00:00 | |
| DO3MHA-12 | 2026-08-31 12:51:05 | 46.26405 | 15.44311 | 5° | 9km/h | 22331m | 6.0m/s | 0°C | 0% | 0hPa | 0V | 00:00:00 | 00:00:00 | 00:00:00 | |
| PETON7-10 | 2026-08-31 12:51:01 | 46.26396 | 15.44315 | 17° | 11km/h | 22309m | 5.2m/s | 0°C | 0% | 0hPa | 0V | 00:00:00 | 00:00:00 | 00:00:00 | |
| 9A1FER-3 | 2026-08-31 12:50:55 | 46.26381 | 15.44319 | 67° | 9km/h | 22279m | 5.3m/s | 0°C | 0% | 0hPa | 0V | 00:00:00 | 00:00:00 | 00:00:00 | |
| DO3MHA-12 | 2026-08-31 12:50:54 | 46.26380 | 15.44318 | 74° | 9km/h | 22274m | 3.8m/s | 0°C | 0% | 0hPa | 0V | 00:00:00 | 00:00:00 | 00:00:00 | |
| DG1MFX-10 | 2026-08-31 12:50:47 | 46.26362 | 15.44319 | 285° | 11km/h | 22237m | 4.2m/s | 0°C | 0% | 0hPa | 0V | 00:00:00 | 00:00:00 | 00:00:00 | |
| PETON7-10 | 2026-08-31 12:50:46 | 46.26362 | 15.44322 | 272° | 7km/h | 22232m | 6.1m/s | 0°C | 0% | 0hPa | 0V | 00:00:00 | 00:00:00 | 00:00:00 | |
| 9A1FER-3 | 2026-08-31 12:50:40 | 46.26364 | 15.44313 | 83° | 11km/h | 22200m | 4.9m/s | 0°C | 0% | 0hPa | 0V | 00:00:00 | 00:00:00 | 00:00:00 | |
| 9A1FER-10 | 2026-08-31 12:50:37 | 46.26361 | 15.44315 | 280° | 11km/h | 22185m | 5.0m/s | 0°C | 0% | 0hPa | 0V | 00:00:00 | 00:00:00 | 00:00:00 | |
| DO3MHA-12 | 2026-08-31 12:50:32 | 46.26362 | 15.44314 | 80° | 18km/h | 22157m | 7.5m/s | 0°C | 0% | 0hPa | 0V | 00:00:00 | 00:00:00 | 00:00:00 | |
| PETON7-10 | 2026-08-31 12:50:31 | 46.26361 | 15.44307 | 85° | 16km/h | 22151m | 3.9m/s | 0°C | 0% | 0hPa | 0V | 00:00:00 | 00:00:00 | 00:00:00 | |
| DG1MFX-10 | 2026-08-31 12:50:26 | 46.26350 | 15.44293 | 334° | 4km/h | 22124m | 6.4m/s | 0°C | 0% | 0hPa | 0V | 00:00:00 | 00:00:00 | 00:00:00 | |
| 9A1FER-3 | 2026-08-31 12:50:25 | 46.26350 | 15.44292 | 100° | 20km/h | 22118m | 4.1m/s | 0°C | 0% | 0hPa | 0V | 00:00:00 | 00:00:00 | 00:00:00 | |
| DO3MHA-12 | 2026-08-31 12:50:22 | 46.26346 | 15.44280 | 53° | 24km/h | 22101m | 6.4m/s | 0°C | 0% | 0hPa | 0V | 00:00:00 | 00:00:00 | 00:00:00 | |
| PETON7-10 | 2026-08-31 12:50:15 | 46.26320 | 15.44247 | 32° | 24km/h | 22063m | 5.3m/s | 0°C | 0% | 0hPa | 0V | 00:00:00 | 00:00:00 | 00:00:00 | |
| 9A1FER-3 | 2026-08-31 12:50:10 | 46.26296 | 15.44209 | 54° | 22km/h | 22034m | 4.5m/s | 0°C | 0% | 0hPa | 0V | 00:00:00 | 00:00:00 | 00:00:00 | |
| 9A1FER-10 | 2026-08-31 12:50:07 | 46.26282 | 15.44199 | 3° | 22km/h | 22019m | 3.7m/s | 0°C | 0% | 0hPa | 0V | 00:00:00 | 00:00:00 | 00:00:00 | |
| DG1MFX-10 | 2026-08-31 12:50:05 | 46.26273 | 15.44199 | 3° | 15km/h | 22008m | 3.8m/s | 0°C | 0% | 0hPa | 0V | 00:00:00 | 00:00:00 | 00:00:00 | |
| PETON7-10 | 2026-08-31 12:50:00 | 46.26249 | 15.44184 | 35° | 20km/h | 21983m | 4.0m/s | 0°C | 0% | 0hPa | 0V | 00:00:00 | 00:00:00 | 00:00:00 | |
| 9A1FER-3 | 2026-08-31 12:49:55 | 46.26221 | 15.44171 | 355° | 18km/h | 21956m | 4.2m/s | 0°C | 0% | 0hPa | 0V | 00:00:00 | 00:00:00 | 00:00:00 | |
| PETON7-10 | 2026-08-31 12:49:45 | 46.26173 | 15.44169 | 330° | 15km/h | 21902m | 4.8m/s | 0°C | 0% | 0hPa | 0V | 00:00:00 | 00:00:00 | 00:00:00 | |
| DG1MFX-10 | 2026-08-31 12:49:44 | 46.26169 | 15.44172 | 341° | 22km/h | 21897m | 5.7m/s | 0°C | 0% | 0hPa | 0V | 00:00:00 | 00:00:00 | 00:00:00 | |
| 9A1FER-3 | 2026-08-31 12:49:40 | 46.26153 | 15.44178 | 13° | 15km/h | 21876m | 4.1m/s | 0°C | 0% | 0hPa | 0V | 00:00:00 | 00:00:00 | 00:00:00 | |
| PETON7-10 | 2026-08-31 12:49:29 | 46.26115 | 15.44170 | 17° | 16km/h | 21815m | 5.8m/s | 0°C | 0% | 0hPa | 0V | 00:00:00 | 00:00:00 | 00:00:00 | |
| 9A1FER-3 | 2026-08-31 12:49:25 | 46.26099 | 15.44157 | 41° | 15km/h | 21795m | 4.5m/s | 0°C | 0% | 0hPa | 0V | 00:00:00 | 00:00:00 | 00:00:00 | |
| DG1MFX-10 | 2026-08-31 12:49:23 | 46.26093 | 15.44153 | 20° | 18km/h | 21784m | 5.8m/s | 0°C | 0% | 0hPa | 0V | 00:00:00 | 00:00:00 | 00:00:00 | |
| PETON7-10 | 2026-08-31 12:49:14 | 46.26064 | 15.44130 | 35° | 18km/h | 21737m | 4.0m/s | 0°C | 0% | 0hPa | 0V | 00:00:00 | 00:00:00 | 00:00:00 | |
| DG1MFX-10 | 2026-08-31 12:49:02 | 46.26021 | 15.44072 | 46° | 22km/h | 21670m | 5.5m/s | 0°C | 0% | 0hPa | 0V | 00:00:00 | 00:00:00 | 00:00:00 | |
| 9A1FER-10 | 2026-08-31 12:49:00 | 46.26012 | 15.44065 | 21° | 27km/h | 21660m | 7.0m/s | 0°C | 0% | 0hPa | 0V | 00:00:00 | 00:00:00 | 00:00:00 | |
| PETON7-10 | 2026-08-31 12:48:59 | 46.26008 | 15.44063 | 11° | 27km/h | 21654m | 4.1m/s | 0°C | 0% | 0hPa | 0V | 00:00:00 | 00:00:00 | 00:00:00 | |
| 9A1FER-3 | 2026-08-31 12:48:55 | 46.25983 | 15.44047 | 33° | 31km/h | 21631m | 4.9m/s | 0°C | 0% | 0hPa | 0V | 00:00:00 | 00:00:00 | 00:00:00 | |
| 9A1FER-10 | 2026-08-31 12:48:46 | 46.25915 | 15.44016 | 17° | 29km/h | 21578m | 6.4m/s | 0°C | 0% | 0hPa | 0V | 00:00:00 | 00:00:00 | 00:00:00 | |
| PETON7-10 | 2026-08-31 12:48:44 | 46.25908 | 15.44013 | 15° | 33km/h | 21573m | 4.3m/s | 0°C | 0% | 0hPa | 0V | 00:00:00 | 00:00:00 | 00:00:00 | |
| DG1MFX-10 | 2026-08-31 12:48:41 | 46.25881 | 15.44006 | 9° | 35km/h | 21556m | 3.3m/s | 0°C | 0% | 0hPa | 0V | 00:00:00 | 00:00:00 | 00:00:00 | |
| PETON7-10 | 2026-08-31 12:48:29 | 46.25786 | 15.44008 | 343° | 24km/h | 21493m | 7.6m/s | 0°C | 0% | 0hPa | 0V | 00:00:00 | 00:00:00 | 00:00:00 | |
| 9A1FER-3 | 2026-08-31 12:48:25 | 46.25765 | 15.44025 | 343° | 26km/h | 21473m | 5.5m/s | 0°C | 0% | 0hPa | 0V | 00:00:00 | 00:00:00 | 00:00:00 | |
| DG1MFX-10 | 2026-08-31 12:48:20 | 46.25731 | 15.44027 | 354° | 24km/h | 21445m | 3.6m/s | 0°C | 0% | 0hPa | 0V | 00:00:00 | 00:00:00 | 00:00:00 | |
| PETON7-10 | 2026-08-31 12:48:14 | 46.25708 | 15.44061 | 335° | 18km/h | 21413m | 4.1m/s | 0°C | 0% | 0hPa | 0V | 00:00:00 | 00:00:00 | 00:00:00 | |
| 9A1FER-3 | 2026-08-31 12:48:10 | 46.25685 | 15.44062 | 4° | 16km/h | 21392m | 5.0m/s | 0°C | 0% | 0hPa | 0V | 00:00:00 | 00:00:00 | 00:00:00 | |
| 9A1FER-10 | 2026-08-31 12:48:09 | 46.25680 | 15.44064 | 331° | 15km/h | 21387m | 4.6m/s | 0°C | 0% | 0hPa | 0V | 00:00:00 | 00:00:00 | 00:00:00 | |
| DO3MHA-12 | 2026-08-31 12:48:01 | 46.25662 | 15.44097 | 2° | 9km/h | 21345m | 4.9m/s | 0°C | 0% | 0hPa | 0V | 00:00:00 | 00:00:00 | 00:00:00 | |
| PETON7-10 | 2026-08-31 12:47:59 | 46.25655 | 15.44099 | 325° | 9km/h | 21333m | 4.7m/s | 0°C | 0% | 0hPa | 0V | 00:00:00 | 00:00:00 | 00:00:00 | |
| DG1MFX-10 | 2026-08-31 12:47:57 | 46.25651 | 15.44107 | 273° | 11km/h | 21322m | 6.6m/s | 0°C | 0% | 0hPa | 0V | 00:00:00 | 00:00:00 | 00:00:00 | |
| 9A1FER-3 | 2026-08-31 12:47:55 | 46.25652 | 15.44115 | 274° | 7km/h | 21311m | 5.8m/s | 0°C | 0% | 0hPa | 0V | 00:00:00 | 00:00:00 | 00:00:00 | |
| DO3MHA-12 | 2026-08-31 12:47:51 | 46.25649 | 15.44119 | 28° | 5km/h | 21289m | 4.0m/s | 0°C | 0% | 0hPa | 0V | 00:00:00 | 00:00:00 | 00:00:00 | |
| PETON7-10 | 2026-08-31 12:47:44 | 46.25642 | 15.44137 | 342° | 11km/h | 21249m | 4.7m/s | 0°C | 0% | 0hPa | 0V | 00:00:00 | 00:00:00 | 00:00:00 | |
| 9A1FER-3 | 2026-08-31 12:47:40 | 46.25635 | 15.44134 | 3° | 13km/h | 21226m | 4.7m/s | 0°C | 0% | 0hPa | 0V | 00:00:00 | 00:00:00 | 00:00:00 | |
| DO3MHA-12 | 2026-08-31 12:47:37 | 46.25627 | 15.44140 | 320° | 11km/h | 21210m | 4.1m/s | 0°C | 0% | 0hPa | 0V | 00:00:00 | 00:00:00 | 00:00:00 | |
| PETON7-10 | 2026-08-31 12:47:29 | 46.25604 | 15.44146 | 358° | 15km/h | 21164m | 5.7m/s | 0°C | 0% | 0hPa | 0V | 00:00:00 | 00:00:00 | 00:00:00 | |
| 9A1FER-3 | 2026-08-31 12:47:25 | 46.25591 | 15.44148 | 340° | 15km/h | 21143m | 7.2m/s | 0°C | 0% | 0hPa | 0V | 00:00:00 | 00:00:00 | 00:00:00 | |
| DG1MFX-10 | 2026-08-31 12:47:16 | 46.25561 | 15.44146 | 344° | 16km/h | 21093m | 7.3m/s | 0°C | 0% | 0hPa | 0V | 00:00:00 | 00:00:00 | 00:00:00 | |
| PETON7-10 | 2026-08-31 12:47:13 | 46.25550 | 15.44153 | 2° | 16km/h | 21076m | 5.1m/s | 0°C | 0% | 0hPa | 0V | 00:00:00 | 00:00:00 | 00:00:00 | |
| 9A1FER-3 | 2026-08-31 12:47:10 | 46.25539 | 15.44147 | 41° | 16km/h | 21060m | 3.9m/s | 0°C | 0% | 0hPa | 0V | 00:00:00 | 00:00:00 | 00:00:00 | |
| 9A1FER-10 | 2026-08-31 12:46:59 | 46.25498 | 15.44149 | 16° | 18km/h | 21001m | 4.7m/s | 0°C | 0% | 0hPa | 0V | 00:00:00 | 00:00:00 | 00:00:00 | |
| PETON7-10 | 2026-08-31 12:46:58 | 46.25495 | 15.44148 | 10° | 18km/h | 20995m | 6.5m/s | 0°C | 0% | 0hPa | 0V | 00:00:00 | 00:00:00 | 00:00:00 | |
| 9A1FER-3 | 2026-08-31 12:46:55 | 46.25480 | 15.44148 | 360° | 18km/h | 20978m | 4.6m/s | 0°C | 0% | 0hPa | 0V | 00:00:00 | 00:00:00 | 00:00:00 | |
| 9A1FER-10 | 2026-08-31 12:46:44 | 46.25428 | 15.44141 | 354° | 22km/h | 20921m | 3.9m/s | 0°C | 0% | 0hPa | 0V | 00:00:00 | 00:00:00 | 00:00:00 | |
| PETON7-10 | 2026-08-31 12:46:43 | 46.25422 | 15.44142 | 357° | 22km/h | 20916m | 6.2m/s | 0°C | 0% | 0hPa | 0V | 00:00:00 | 00:00:00 | 00:00:00 | |
| 9A1FER-3 | 2026-08-31 12:46:40 | 46.25410 | 15.44147 | 339° | 24km/h | 20901m | 4.8m/s | 0°C | 0% | 0hPa | 0V | 00:00:00 | 00:00:00 | 00:00:00 | |
| DG1MFX-10 | 2026-08-31 12:46:35 | 46.25382 | 15.44152 | 1° | 27km/h | 20875m | 7.0m/s | 0°C | 0% | 0hPa | 0V | 00:00:00 | 00:00:00 | 00:00:00 | |
| PETON7-10 | 2026-08-31 12:46:29 | 46.25341 | 15.44164 | 345° | 29km/h | 20838m | 6.7m/s | 0°C | 0% | 0hPa | 0V | 00:00:00 | 00:00:00 | 00:00:00 | |
| 9A1FER-3 | 2026-08-31 12:46:25 | 46.25320 | 15.44170 | 348° | 29km/h | 20821m | 5.8m/s | 0°C | 0% | 0hPa | 0V | 00:00:00 | 00:00:00 | 00:00:00 | |
| 9A1FER-10 | 2026-08-31 12:46:14 | 46.25237 | 15.44193 | 354° | 26km/h | 20762m | 6.1m/s | 0°C | 0% | 0hPa | 0V | 00:00:00 | 00:00:00 | 00:00:00 | |
| PETON7-10 | 2026-08-31 12:46:13 | 46.25223 | 15.44197 | 346° | 20km/h | 20752m | 6.5m/s | 0°C | 0% | 0hPa | 0V | 00:00:00 | 00:00:00 | 00:00:00 | |
| 9A1FER-3 | 2026-08-31 12:46:10 | 46.25211 | 15.44204 | 333° | 20km/h | 20742m | 5.4m/s | 0°C | 0% | 0hPa | 0V | 00:00:00 | 00:00:00 | 00:00:00 | |
| PETON7-10 | 2026-08-31 12:45:57 | 46.25156 | 15.44242 | 305° | 13km/h | 20672m | 5.4m/s | 0°C | 0% | 0hPa | 0V | 00:00:00 | 00:00:00 | 00:00:00 | |
| 9A1FER-3 | 2026-08-31 12:45:55 | 46.25150 | 15.44250 | 340° | 13km/h | 20662m | 6.2m/s | 0°C | 0% | 0hPa | 0V | 00:00:00 | 00:00:00 | 00:00:00 | |
| DO3MHA-12 | 2026-08-31 12:45:53 | 46.25142 | 15.44252 | 360° | 13km/h | 20652m | 4.6m/s | 0°C | 0% | 0hPa | 0V | 00:00:00 | 00:00:00 | 00:00:00 | |
| PETON7-10 | 2026-08-31 12:45:42 | 46.25119 | 15.44279 | 336° | 7km/h | 20594m | 4.5m/s | 0°C | 0% | 0hPa | 0V | 00:00:00 | 00:00:00 | 00:00:00 | |
| 9A1FER-3 | 2026-08-31 12:45:40 | 46.25115 | 15.44282 | 310° | 7km/h | 20584m | 7.0m/s | 0°C | 0% | 0hPa | 0V | 00:00:00 | 00:00:00 | 00:00:00 | |
| DG1MFX-10 | 2026-08-31 12:45:33 | 46.25116 | 15.44304 | 294° | 9km/h | 20546m | 6.5m/s | 0°C | 0% | 0hPa | 0V | 00:00:00 | 00:00:00 | 00:00:00 | |
| PETON7-10 | 2026-08-31 12:45:27 | 46.25116 | 15.44313 | 255° | 9km/h | 20514m | 3.0m/s | 0°C | 0% | 0hPa | 0V | 00:00:00 | 00:00:00 | 00:00:00 | |
| 9A1FER-3 | 2026-08-31 12:45:25 | 46.25119 | 15.44318 | 224° | 9km/h | 20505m | 4.0m/s | 0°C | 0% | 0hPa | 0V | 00:00:00 | 00:00:00 | 00:00:00 | |
| PETON7-10 | 2026-08-31 12:45:12 | 46.25109 | 15.44340 | 307° | 13km/h | 20438m | 3.6m/s | 0°C | 0% | 0hPa | 0V | 00:00:00 | 00:00:00 | 00:00:00 | |
| 9A1FER-3 | 2026-08-31 12:45:10 | 46.25105 | 15.44341 | 18° | 13km/h | 20426m | 5.0m/s | 0°C | 0% | 0hPa | 0V | 00:00:00 | 00:00:00 | 00:00:00 | |
| PETON7-10 | 2026-08-31 12:44:57 | 46.25065 | 15.44343 | 360° | 22km/h | 20361m | 4.6m/s | 0°C | 0% | 0hPa | 0V | 00:00:00 | 00:00:00 | 00:00:00 | |
| 9A1FER-3 | 2026-08-31 12:44:55 | 46.25057 | 15.44342 | 14° | 16km/h | 20352m | 4.2m/s | 0°C | 0% | 0hPa | 0V | 00:00:00 | 00:00:00 | 00:00:00 | |
| DG1MFX-10 | 2026-08-31 12:44:52 | 46.25056 | 15.44346 | 294° | 5km/h | 20337m | 3.3m/s | 0°C | 0% | 0hPa | 0V | 00:00:00 | 00:00:00 | 00:00:00 | |
| 9A1FER-3 | 2026-08-31 12:44:40 | 46.24997 | 15.44329 | 16° | 16km/h | 20275m | 6.0m/s | 0°C | 0% | 0hPa | 0V | 00:00:00 | 00:00:00 | 00:00:00 | |
| PETON7-10 | 2026-08-31 12:44:39 | 46.24992 | 15.44325 | 26° | 16km/h | 20270m | 4.1m/s | 0°C | 0% | 0hPa | 0V | 00:00:00 | 00:00:00 | 00:00:00 | |
| DG1MFX-10 | 2026-08-31 12:44:30 | 46.24953 | 15.44315 | 39° | 7km/h | 20226m | 6.4m/s | 0°C | 0% | 0hPa | 0V | 00:00:00 | 00:00:00 | 00:00:00 | |
| 9A1FER-10 | 2026-08-31 12:44:29 | 46.24952 | 15.44314 | 40° | 7km/h | 20221m | 3.9m/s | 0°C | 0% | 0hPa | 0V | 00:00:00 | 00:00:00 | 00:00:00 | |
| 9A1FER-3 | 2026-08-31 12:44:25 | 46.24937 | 15.44311 | 16° | 9km/h | 20201m | 7.0m/s | 0°C | 0% | 0hPa | 0V | 00:00:00 | 00:00:00 | 00:00:00 | |
| PETON7-10 | 2026-08-31 12:44:24 | 46.24934 | 15.44308 | 28° | 7km/h | 20194m | 5.6m/s | 0°C | 0% | 0hPa | 0V | 00:00:00 | 00:00:00 | 00:00:00 | |
| 9A1FER-10 | 2026-08-31 12:44:13 | 46.24923 | 15.44307 | 344° | 7km/h | 20136m | 6.5m/s | 0°C | 0% | 0hPa | 0V | 00:00:00 | 00:00:00 | 00:00:00 | |
| 9A1FER-3 | 2026-08-31 12:44:10 | 46.24920 | 15.44311 | 159° | 7km/h | 20120m | 5.4m/s | 0°C | 0% | 0hPa | 0V | 00:00:00 | 00:00:00 | 00:00:00 | |
| PETON7-10 | 2026-08-31 12:44:09 | 46.24921 | 15.44309 | 135° | 7km/h | 20115m | 4.1m/s | 0°C | 0% | 0hPa | 0V | 00:00:00 | 00:00:00 | 00:00:00 | |
| 9A1FER-3 | 2026-08-31 12:43:55 | 46.24925 | 15.44290 | 122° | 15km/h | 20042m | 4.3m/s | 0°C | 0% | 0hPa | 0V | 00:00:00 | 00:00:00 | 00:00:00 | |
| PETON7-10 | 2026-08-31 12:43:54 | 46.24926 | 15.44286 | 92° | 15km/h | 20036m | 5.6m/s | 0°C | 0% | 0hPa | 0V | 00:00:00 | 00:00:00 | 00:00:00 | |
| DG1MFX-10 | 2026-08-31 12:43:49 | 46.24921 | 15.44264 | 108° | 11km/h | 20012m | 5.7m/s | 0°C | 0% | 0hPa | 0V | 00:00:00 | 00:00:00 | 00:00:00 | |
| 9A1FER-3 | 2026-08-31 12:43:40 | 46.24931 | 15.44214 | 102° | 18km/h | 19964m | 4.7m/s | 0°C | 0% | 0hPa | 0V | 00:00:00 | 00:00:00 | 00:00:00 | |
| PETON7-10 | 2026-08-31 12:43:39 | 46.24932 | 15.44206 | 103° | 18km/h | 19959m | 4.5m/s | 0°C | 0% | 0hPa | 0V | 00:00:00 | 00:00:00 | 00:00:00 | |
| DG1MFX-10 | 2026-08-31 12:43:28 | 46.24930 | 15.44138 | 70° | 15km/h | 19902m | 5.9m/s | 0°C | 0% | 0hPa | 0V | 00:00:00 | 00:00:00 | 00:00:00 | |
| 9A1FER-3 | 2026-08-31 12:43:25 | 46.24928 | 15.44118 | 96° | 20km/h | 19886m | 4.4m/s | 0°C | 0% | 0hPa | 0V | 00:00:00 | 00:00:00 | 00:00:00 | |
| PETON7-10 | 2026-08-31 12:43:24 | 46.24929 | 15.44110 | 94° | 20km/h | 19881m | 5.6m/s | 0°C | 0% | 0hPa | 0V | 00:00:00 | 00:00:00 | 00:00:00 | |
| 9A1FER-10 | 2026-08-31 12:43:22 | 46.24927 | 15.44100 | 63° | 20km/h | 19870m | 3.1m/s | 0°C | 0% | 0hPa | 0V | 00:00:00 | 00:00:00 | 00:00:00 | |
| 9A1FER-3 | 2026-08-31 12:43:10 | 46.24910 | 15.44013 | 75° | 20km/h | 19812m | 4.3m/s | 0°C | 0% | 0hPa | 0V | 00:00:00 | 00:00:00 | 00:00:00 | |
| PETON7-10 | 2026-08-31 12:43:09 | 46.24909 | 15.44006 | 84° | 22km/h | 19807m | 5.6m/s | 0°C | 0% | 0hPa | 0V | 00:00:00 | 00:00:00 | 00:00:00 | |
| 9A1FER-10 | 2026-08-31 12:43:07 | 46.24907 | 15.43993 | 69° | 18km/h | 19798m | 3.5m/s | 0°C | 0% | 0hPa | 0V | 00:00:00 | 00:00:00 | 00:00:00 | |
| 9A1FER-3 | 2026-08-31 12:42:55 | 46.24877 | 15.43909 | 63° | 20km/h | 19735m | 5.3m/s | 0°C | 0% | 0hPa | 0V | 00:00:00 | 00:00:00 | 00:00:00 | |
| PETON7-10 | 2026-08-31 12:42:54 | 46.24875 | 15.43902 | 56° | 20km/h | 19729m | 6.5m/s | 0°C | 0% | 0hPa | 0V | 00:00:00 | 00:00:00 | 00:00:00 | |
| 9A1FER-3 | 2026-08-31 12:42:40 | 46.24831 | 15.43830 | 47° | 20km/h | 19659m | 4.5m/s | 0°C | 0% | 0hPa | 0V | 00:00:00 | 00:00:00 | 00:00:00 | |
| PETON7-10 | 2026-08-31 12:42:39 | 46.24827 | 15.43826 | 37° | 20km/h | 19653m | 6.4m/s | 0°C | 0% | 0hPa | 0V | 00:00:00 | 00:00:00 | 00:00:00 | |
| 9A1FER-3 | 2026-08-31 12:42:25 | 46.24779 | 15.43754 | 38° | 18km/h | 19578m | 6.1m/s | 0°C | 0% | 0hPa | 0V | 00:00:00 | 00:00:00 | 00:00:00 | |
| PETON7-10 | 2026-08-31 12:42:23 | 46.24774 | 15.43745 | 68° | 18km/h | 19567m | 3.6m/s | 0°C | 0% | 0hPa | 0V | 00:00:00 | 00:00:00 | 00:00:00 | |
| 9A1FER-10 | 2026-08-31 12:42:10 | 46.24738 | 15.43681 | 33° | 18km/h | 19502m | 5.4m/s | 0°C | 0% | 0hPa | 0V | 00:00:00 | 00:00:00 | 00:00:00 | |
| PETON7-10 | 2026-08-31 12:42:08 | 46.24729 | 15.43675 | 30° | 18km/h | 19493m | 5.4m/s | 0°C | 0% | 0hPa | 0V | 00:00:00 | 00:00:00 | 00:00:00 | |
| 9A1FER-3 | 2026-08-31 12:41:55 | 46.24680 | 15.43632 | 15° | 18km/h | 19426m | 4.6m/s | 0°C | 0% | 0hPa | 0V | 00:00:00 | 00:00:00 | 00:00:00 | |
| 9A1FER-10 | 2026-08-31 12:41:54 | 46.24675 | 15.43629 | 26° | 18km/h | 19421m | 5.7m/s | 0°C | 0% | 0hPa | 0V | 00:00:00 | 00:00:00 | 00:00:00 | |
| PETON7-10 | 2026-08-31 12:41:53 | 46.24670 | 15.43625 | 27° | 18km/h | 19415m | 4.5m/s | 0°C | 0% | 0hPa | 0V | 00:00:00 | 00:00:00 | 00:00:00 | |
| 9A1FER-3 | 2026-08-31 12:41:40 | 46.24615 | 15.43606 | 26° | 18km/h | 19347m | 6.2m/s | 0°C | 0% | 0hPa | 0V | 00:00:00 | 00:00:00 | 00:00:00 | |
| PETON7-10 | 2026-08-31 12:41:38 | 46.24608 | 15.43599 | 36° | 18km/h | 19337m | 4.2m/s | 0°C | 0% | 0hPa | 0V | 00:00:00 | 00:00:00 | 00:00:00 | |
| 9A1FER-3 | 2026-08-31 12:41:25 | 46.24567 | 15.43585 | 13° | 15km/h | 19270m | 5.6m/s | 0°C | 0% | 0hPa | 0V | 00:00:00 | 00:00:00 | 00:00:00 | |
| PETON7-10 | 2026-08-31 12:41:23 | 46.24540 | 15.43581 | 11° | 15km/h | 19260m | 5.8m/s | 0°C | 0% | 0hPa | 0V | 00:00:00 | 00:00:00 | 00:00:00 | |
| 9A1FER-3 | 2026-08-31 12:41:10 | 46.24498 | 15.43560 | 24° | 9km/h | 19193m | 2.8m/s | 0°C | 0% | 0hPa | 0V | 00:00:00 | 00:00:00 | 00:00:00 | |
| PETON7-10 | 2026-08-31 12:41:08 | 46.24494 | 15.43556 | 62° | 9km/h | 19183m | 4.9m/s | 0°C | 0% | 0hPa | 0V | 00:00:00 | 00:00:00 | 00:00:00 | |
| 9A1FER-3 | 2026-08-31 12:40:55 | 46.24473 | 15.43525 | 20° | 13km/h | 19121m | 5.6m/s | 0°C | 0% | 0hPa | 0V | 00:00:00 | 00:00:00 | 00:00:00 | |
| PETON7-10 | 2026-08-31 12:40:53 | 46.24469 | 15.43523 | 29° | 15km/h | 19111m | 5.6m/s | 0°C | 0% | 0hPa | 0V | 00:00:00 | 00:00:00 | 00:00:00 | |
| 9A1FER-3 | 2026-08-31 12:40:40 | 46.24455 | 15.43462 | 45° | 18km/h | 19047m | 5.4m/s | 0°C | 0% | 0hPa | 0V | 00:00:00 | 00:00:00 | 00:00:00 | |
| PETON7-10 | 2026-08-31 12:40:38 | 46.24450 | 15.43450 | 82° | 18km/h | 19036m | 5.0m/s | 0°C | 0% | 0hPa | 0V | 00:00:00 | 00:00:00 | 00:00:00 | |
| 9A1FER-3 | 2026-08-31 12:40:25 | 46.24425 | 15.43378 | 81° | 20km/h | 18970m | 4.7m/s | 0°C | 0% | 0hPa | 0V | 00:00:00 | 00:00:00 | 00:00:00 | |
| 9A1FER-10 | 2026-08-31 12:40:23 | 46.24420 | 15.43364 | 47° | 20km/h | 18961m | 6.1m/s | 0°C | 0% | 0hPa | 0V | 00:00:00 | 00:00:00 | 00:00:00 | |
| 9A1FER-3 | 2026-08-31 12:40:10 | 46.24375 | 15.43324 | 349° | 15km/h | 18895m | 5.3m/s | 0°C | 0% | 0hPa | 0V | 00:00:00 | 00:00:00 | 00:00:00 | |
| PETON7-10 | 2026-08-31 12:40:08 | 46.24366 | 15.43327 | 356° | 13km/h | 18885m | 5.7m/s | 0°C | 0% | 0hPa | 0V | 00:00:00 | 00:00:00 | 00:00:00 | |
| 9A1FER-3 | 2026-08-31 12:39:55 | 46.24338 | 15.43290 | 9° | 9km/h | 18821m | 5.7m/s | 0°C | 0% | 0hPa | 0V | 00:00:00 | 00:00:00 | 00:00:00 | |
| PETON7-10 | 2026-08-31 12:39:53 | 46.24336 | 15.43290 | 8° | 11km/h | 18811m | 5.8m/s | 0°C | 0% | 0hPa | 0V | 00:00:00 | 00:00:00 | 00:00:00 | |
| 9A1FER-10 | 2026-08-31 12:39:50 | 46.24329 | 15.43287 | 10° | 13km/h | 18796m | 5.2m/s | 0°C | 0% | 0hPa | 0V | 00:00:00 | 00:00:00 | 00:00:00 | |
| 9A1FER-3 | 2026-08-31 12:39:40 | 46.24308 | 15.43267 | 38° | 18km/h | 18744m | 3.9m/s | 0°C | 0% | 0hPa | 0V | 00:00:00 | 00:00:00 | 00:00:00 | |
| PETON7-10 | 2026-08-31 12:39:38 | 46.24304 | 15.43262 | 43° | 20km/h | 18734m | 4.0m/s | 0°C | 0% | 0hPa | 0V | 00:00:00 | 00:00:00 | 00:00:00 | |
| 9A1FER-10 | 2026-08-31 12:39:32 | 46.24285 | 15.43232 | 48° | 22km/h | 18705m | 6.1m/s | 0°C | 0% | 0hPa | 0V | 00:00:00 | 00:00:00 | 00:00:00 | |
| 9A1FER-3 | 2026-08-31 12:39:25 | 46.24255 | 15.43217 | 51° | 22km/h | 18668m | 5.9m/s | 0°C | 0% | 0hPa | 0V | 00:00:00 | 00:00:00 | 00:00:00 | |
| PETON7-10 | 2026-08-31 12:39:23 | 46.24247 | 15.43200 | 63° | 22km/h | 18657m | 6.4m/s | 0°C | 0% | 0hPa | 0V | 00:00:00 | 00:00:00 | 00:00:00 | |
| 9A1FER-10 | 2026-08-31 12:39:17 | 46.24226 | 15.43168 | 19° | 20km/h | 18627m | 5.0m/s | 0°C | 0% | 0hPa | 0V | 00:00:00 | 00:00:00 | 00:00:00 | |
| 9A1FER-3 | 2026-08-31 12:39:10 | 46.24196 | 15.43134 | 44° | 18km/h | 18590m | 5.7m/s | 0°C | 0% | 0hPa | 0V | 00:00:00 | 00:00:00 | 00:00:00 | |
| PETON7-10 | 2026-08-31 12:39:08 | 46.24182 | 15.43125 | 1° | 16km/h | 18574m | 5.1m/s | 0°C | 0% | 0hPa | 0V | 00:00:00 | 00:00:00 | 00:00:00 | |
| 9A1FER-10 | 2026-08-31 12:39:02 | 46.24160 | 15.43116 | 45° | 15km/h | 18550m | 4.6m/s | 0°C | 0% | 0hPa | 0V | 00:00:00 | 00:00:00 | 00:00:00 | |
| 9A1FER-3 | 2026-08-31 12:38:55 | 46.24139 | 15.43095 | 29° | 15km/h | 18513m | 5.5m/s | 0°C | 0% | 0hPa | 0V | 00:00:00 | 00:00:00 | 00:00:00 | |
| PETON7-10 | 2026-08-31 12:38:52 | 46.24129 | 15.43087 | 44° | 15km/h | 18498m | 4.0m/s | 0°C | 0% | 0hPa | 0V | 00:00:00 | 00:00:00 | 00:00:00 | |
| 9A1FER-10 | 2026-08-31 12:38:47 | 46.24118 | 15.43065 | 64° | 16km/h | 18472m | 4.0m/s | 0°C | 0% | 0hPa | 0V | 00:00:00 | 00:00:00 | 00:00:00 | |
| 9A1FER-3 | 2026-08-31 12:38:40 | 46.24103 | 15.43044 | 95° | 18km/h | 18438m | 6.2m/s | 0°C | 0% | 0hPa | 0V | 00:00:00 | 00:00:00 | 00:00:00 | |
| PETON7-10 | 2026-08-31 12:38:36 | 46.24099 | 15.43025 | 89° | 24km/h | 18417m | 4.4m/s | 0°C | 0% | 0hPa | 0V | 00:00:00 | 00:00:00 | 00:00:00 | |
| 9A1FER-10 | 2026-08-31 12:38:30 | 46.24095 | 15.42986 | 78° | 26km/h | 18384m | 5.8m/s | 0°C | 0% | 0hPa | 0V | 00:00:00 | 00:00:00 | 00:00:00 | |
| 9A1FER-3 | 2026-08-31 12:38:25 | 46.24099 | 15.42945 | 88° | 29km/h | 18359m | 6.1m/s | 0°C | 0% | 0hPa | 0V | 00:00:00 | 00:00:00 | 00:00:00 | |
| PETON7-10 | 2026-08-31 12:38:21 | 46.24099 | 15.42907 | 100° | 27km/h | 18339m | 4.2m/s | 0°C | 0% | 0hPa | 0V | 00:00:00 | 00:00:00 | 00:00:00 | |
| 9A1FER-10 | 2026-08-31 12:38:14 | 46.24094 | 15.42838 | 73° | 31km/h | 18302m | 3.5m/s | 0°C | 0% | 0hPa | 0V | 00:00:00 | 00:00:00 | 00:00:00 | |
| 9A1FER-3 | 2026-08-31 12:38:10 | 46.24088 | 15.42791 | 73° | 29km/h | 18283m | 4.0m/s | 0°C | 0% | 0hPa | 0V | 00:00:00 | 00:00:00 | 00:00:00 | |
| PETON7-10 | 2026-08-31 12:38:06 | 46.24081 | 15.42748 | 70° | 29km/h | 18263m | 4.1m/s | 0°C | 0% | 0hPa | 0V | 00:00:00 | 00:00:00 | 00:00:00 | |
| 9A1FER-10 | 2026-08-31 12:37:59 | 46.24067 | 15.42678 | 83° | 27km/h | 18227m | 3.5m/s | 0°C | 0% | 0hPa | 0V | 00:00:00 | 00:00:00 | 00:00:00 | |
| 9A1FER-3 | 2026-08-31 12:37:55 | 46.24057 | 15.42640 | 68° | 26km/h | 18208m | 6.0m/s | 0°C | 0% | 0hPa | 0V | 00:00:00 | 00:00:00 | 00:00:00 | |
| PETON7-10 | 2026-08-31 12:37:48 | 46.24041 | 15.42578 | 65° | 27km/h | 18174m | 3.5m/s | 0°C | 0% | 0hPa | 0V | 00:00:00 | 00:00:00 | 00:00:00 | |
| 9A1FER-10 | 2026-08-31 12:37:44 | 46.24032 | 15.42543 | 78° | 31km/h | 18155m | 4.1m/s | 0°C | 0% | 0hPa | 0V | 00:00:00 | 00:00:00 | 00:00:00 | |
| 9A1FER-3 | 2026-08-31 12:37:40 | 46.24020 | 15.42507 | 51° | 35km/h | 18134m | 4.9m/s | 0°C | 0% | 0hPa | 0V | 00:00:00 | 00:00:00 | 00:00:00 | |
| PETON7-10 | 2026-08-31 12:37:34 | 46.23993 | 15.42441 | 68° | 37km/h | 18100m | 5.6m/s | 0°C | 0% | 0hPa | 0V | 00:00:00 | 00:00:00 | 00:00:00 | |
| 9A1FER-10 | 2026-08-31 12:37:29 | 46.23976 | 15.42392 | 54° | 35km/h | 18079m | 5.7m/s | 0°C | 0% | 0hPa | 0V | 00:00:00 | 00:00:00 | 00:00:00 | |
| 9A1FER-3 | 2026-08-31 12:37:25 | 46.23954 | 15.42347 | 57° | 33km/h | 18058m | 5.6m/s | 0°C | 0% | 0hPa | 0V | 00:00:00 | 00:00:00 | 00:00:00 | |
| PETON7-10 | 2026-08-31 12:37:17 | 46.23927 | 15.42261 | 62° | 37km/h | 18019m | 4.0m/s | 0°C | 0% | 0hPa | 0V | 00:00:00 | 00:00:00 | 00:00:00 | |
| 9A1FER-10 | 2026-08-31 12:37:14 | 46.23916 | 15.42229 | 68° | 40km/h | 18005m | 4.9m/s | 0°C | 0% | 0hPa | 0V | 00:00:00 | 00:00:00 | 00:00:00 | |
| 9A1FER-3 | 2026-08-31 12:37:10 | 46.23908 | 15.42178 | 74° | 42km/h | 17985m | 4.4m/s | 0°C | 0% | 0hPa | 0V | 00:00:00 | 00:00:00 | 00:00:00 | |
| PETON7-10 | 2026-08-31 12:37:02 | 46.23885 | 15.42069 | 74° | 44km/h | 17947m | 3.7m/s | 0°C | 0% | 0hPa | 0V | 00:00:00 | 00:00:00 | 00:00:00 | |
| 9A1FER-10 | 2026-08-31 12:36:59 | 46.23875 | 15.42022 | 74° | 47km/h | 17931m | 5.6m/s | 0°C | 0% | 0hPa | 0V | 00:00:00 | 00:00:00 | 00:00:00 | |
| 9A1FER-3 | 2026-08-31 12:36:55 | 46.23861 | 15.41960 | 70° | 49km/h | 17911m | 4.5m/s | 0°C | 0% | 0hPa | 0V | 00:00:00 | 00:00:00 | 00:00:00 | |
| PETON7-10 | 2026-08-31 12:36:47 | 46.23826 | 15.41829 | 69° | 49km/h | 17873m | 5.0m/s | 0°C | 0% | 0hPa | 0V | 00:00:00 | 00:00:00 | 00:00:00 | |
| 9A1FER-10 | 2026-08-31 12:36:44 | 46.23814 | 15.41776 | 74° | 47km/h | 17859m | 3.5m/s | 0°C | 0% | 0hPa | 0V | 00:00:00 | 00:00:00 | 00:00:00 | |
| 9A1FER-3 | 2026-08-31 12:36:40 | 46.23793 | 15.41707 | 60° | 46km/h | 17840m | 5.0m/s | 0°C | 0% | 0hPa | 0V | 00:00:00 | 00:00:00 | 00:00:00 | |
| PETON7-10 | 2026-08-31 12:36:32 | 46.23752 | 15.41583 | 62° | 42km/h | 17799m | 5.0m/s | 0°C | 0% | 0hPa | 0V | 00:00:00 | 00:00:00 | 00:00:00 | |
| 9A1FER-10 | 2026-08-31 12:36:30 | 46.23737 | 15.41537 | 73° | 40km/h | 17785m | 4.6m/s | 0°C | 0% | 0hPa | 0V | 00:00:00 | 00:00:00 | 00:00:00 | |
| 9A1FER-3 | 2026-08-31 12:36:25 | 46.23719 | 15.41483 | 59° | 38km/h | 17767m | 4.9m/s | 0°C | 0% | 0hPa | 0V | 00:00:00 | 00:00:00 | 00:00:00 | |
| PETON7-10 | 2026-08-31 12:36:16 | 46.23669 | 15.41374 | 66° | 35km/h | 17724m | 4.9m/s | 0°C | 0% | 0hPa | 0V | 00:00:00 | 00:00:00 | 00:00:00 | |
| 9A1FER-10 | 2026-08-31 12:36:14 | 46.23660 | 15.41352 | 54° | 35km/h | 17715m | 5.6m/s | 0°C | 0% | 0hPa | 0V | 00:00:00 | 00:00:00 | 00:00:00 | |
| 9A1FER-3 | 2026-08-31 12:36:10 | 46.23637 | 15.41316 | 54° | 35km/h | 17694m | 4.0m/s | 0°C | 0% | 0hPa | 0V | 00:00:00 | 00:00:00 | 00:00:00 | |
| PETON7-10 | 2026-08-31 12:36:01 | 46.23593 | 15.41219 | 58° | 35km/h | 17649m | 4.7m/s | 0°C | 0% | 0hPa | 0V | 00:00:00 | 00:00:00 | 00:00:00 | |
| 9A1FER-10 | 2026-08-31 12:35:59 | 46.23583 | 15.41200 | 50° | 35km/h | 17639m | 4.3m/s | 0°C | 0% | 0hPa | 0V | 00:00:00 | 00:00:00 | 00:00:00 | |
| 9A1FER-3 | 2026-08-31 12:35:55 | 46.23565 | 15.41157 | 65° | 35km/h | 17621m | 6.5m/s | 0°C | 0% | 0hPa | 0V | 00:00:00 | 00:00:00 | 00:00:00 | |
| PETON7-10 | 2026-08-31 12:35:46 | 46.23514 | 15.41076 | 56° | 33km/h | 17575m | 5.7m/s | 0°C | 0% | 0hPa | 0V | 00:00:00 | 00:00:00 | 00:00:00 | |
| 9A1FER-10 | 2026-08-31 12:35:44 | 46.23504 | 15.41056 | 55° | 33km/h | 17564m | 5.5m/s | 0°C | 0% | 0hPa | 0V | 00:00:00 | 00:00:00 | 00:00:00 | |
| 9A1FER-3 | 2026-08-31 12:35:40 | 46.23481 | 15.41017 | 49° | 31km/h | 17543m | 5.3m/s | 0°C | 0% | 0hPa | 0V | 00:00:00 | 00:00:00 | 00:00:00 | |
| PETON7-10 | 2026-08-31 12:35:31 | 46.23436 | 15.40936 | 60° | 31km/h | 17504m | 5.0m/s | 0°C | 0% | 0hPa | 0V | 00:00:00 | 00:00:00 | 00:00:00 | |
| 9A1FER-10 | 2026-08-31 12:35:29 | 46.23428 | 15.40918 | 47° | 29km/h | 17494m | 3.7m/s | 0°C | 0% | 0hPa | 0V | 00:00:00 | 00:00:00 | 00:00:00 | |
| 9A1FER-3 | 2026-08-31 12:35:25 | 46.23408 | 15.40883 | 53° | 29km/h | 17474m | 4.5m/s | 0°C | 0% | 0hPa | 0V | 00:00:00 | 00:00:00 | 00:00:00 | |
| PETON7-10 | 2026-08-31 12:35:16 | 46.23375 | 15.40798 | 59° | 31km/h | 17429m | 6.1m/s | 0°C | 0% | 0hPa | 0V | 00:00:00 | 00:00:00 | 00:00:00 | |
| 9A1FER-10 | 2026-08-31 12:35:14 | 46.23368 | 15.40781 | 61° | 31km/h | 17418m | 4.7m/s | 0°C | 0% | 0hPa | 0V | 00:00:00 | 00:00:00 | 00:00:00 | |
| 9A1FER-3 | 2026-08-31 12:35:10 | 46.23348 | 15.40747 | 42° | 31km/h | 17397m | 4.2m/s | 0°C | 0% | 0hPa | 0V | 00:00:00 | 00:00:00 | 00:00:00 | |
| PETON7-10 | 2026-08-31 12:35:01 | 46.23301 | 15.40668 | 46° | 31km/h | 17352m | 5.7m/s | 0°C | 0% | 0hPa | 0V | 00:00:00 | 00:00:00 | 00:00:00 | |
| 9A1FER-10 | 2026-08-31 12:34:59 | 46.23290 | 15.40651 | 41° | 29km/h | 17343m | 6.2m/s | 0°C | 0% | 0hPa | 0V | 00:00:00 | 00:00:00 | 00:00:00 | |
| 9A1FER-3 | 2026-08-31 12:34:55 | 46.23269 | 15.40619 | 56° | 29km/h | 17323m | 4.6m/s | 0°C | 0% | 0hPa | 0V | 00:00:00 | 00:00:00 | 00:00:00 | |
| PETON7-10 | 2026-08-31 12:34:46 | 46.23223 | 15.40548 | 57° | 31km/h | 17277m | 5.8m/s | 0°C | 0% | 0hPa | 0V | 00:00:00 | 00:00:00 | 00:00:00 | |
| 9A1FER-10 | 2026-08-31 12:34:44 | 46.23215 | 15.40537 | 39° | 31km/h | 17268m | 3.1m/s | 0°C | 0% | 0hPa | 0V | 00:00:00 | 00:00:00 | 00:00:00 | |
| 9A1FER-3 | 2026-08-31 12:34:40 | 46.23193 | 15.40508 | 41° | 31km/h | 17249m | 4.0m/s | 0°C | 0% | 0hPa | 0V | 00:00:00 | 00:00:00 | 00:00:00 | |
| PETON7-10 | 2026-08-31 12:34:31 | 46.23131 | 15.40449 | 32° | 31km/h | 17203m | 3.8m/s | 0°C | 0% | 0hPa | 0V | 00:00:00 | 00:00:00 | 00:00:00 | |
| 9A1FER-10 | 2026-08-31 12:34:29 | 46.23117 | 15.40437 | 34° | 29km/h | 17193m | 4.5m/s | 0°C | 0% | 0hPa | 0V | 00:00:00 | 00:00:00 | 00:00:00 | |
| 9A1FER-3 | 2026-08-31 12:34:25 | 46.23092 | 15.40415 | 38° | 29km/h | 17172m | 4.6m/s | 0°C | 0% | 0hPa | 0V | 00:00:00 | 00:00:00 | 00:00:00 | |
| PETON7-10 | 2026-08-31 12:34:16 | 46.23029 | 15.40373 | 33° | 26km/h | 17132m | 4.0m/s | 0°C | 0% | 0hPa | 0V | 00:00:00 | 00:00:00 | 00:00:00 | |
| 9A1FER-10 | 2026-08-31 12:34:14 | 46.23019 | 15.40366 | 10° | 26km/h | 17123m | 4.9m/s | 0°C | 0% | 0hPa | 0V | 00:00:00 | 00:00:00 | 00:00:00 | |
| 9A1FER-3 | 2026-08-31 12:34:10 | 46.22993 | 15.40360 | 27° | 24km/h | 17103m | 4.9m/s | 0°C | 0% | 0hPa | 0V | 00:00:00 | 00:00:00 | 00:00:00 | |
| PETON7-10 | 2026-08-31 12:34:01 | 46.22941 | 15.40325 | 32° | 18km/h | 17061m | 6.7m/s | 0°C | 0% | 0hPa | 0V | 00:00:00 | 00:00:00 | 00:00:00 | |
| 9A1FER-10 | 2026-08-31 12:33:59 | 46.22932 | 15.40317 | 38° | 18km/h | 17050m | 6.3m/s | 0°C | 0% | 0hPa | 0V | 00:00:00 | 00:00:00 | 00:00:00 | |
| 9A1FER-3 | 2026-08-31 12:33:55 | 46.22917 | 15.40307 | 20° | 18km/h | 17032m | 6.0m/s | 0°C | 0% | 0hPa | 0V | 00:00:00 | 00:00:00 | 00:00:00 | |
| PETON7-10 | 2026-08-31 12:33:46 | 46.22887 | 15.40269 | 27° | 16km/h | 16988m | 4.4m/s | 0°C | 0% | 0hPa | 0V | 00:00:00 | 00:00:00 | 00:00:00 | |
| 9A1FER-10 | 2026-08-31 12:33:44 | 46.22882 | 15.40261 | 57° | 16km/h | 16979m | 2.8m/s | 0°C | 0% | 0hPa | 0V | 00:00:00 | 00:00:00 | 00:00:00 | |
| 9A1FER-3 | 2026-08-31 12:33:40 | 46.22873 | 15.40240 | 73° | 16km/h | 16962m | 6.2m/s | 0°C | 0% | 0hPa | 0V | 00:00:00 | 00:00:00 | 00:00:00 | |
| OM5KV | 2026-08-31 12:33:33 | 46.22860 | 15.40211 | 72° | 16km/h | 16931m | 6.6m/s | 0°C | 0% | 0hPa | 0V | 00:00:00 | 00:00:00 | 00:00:00 | |
| PETON7-10 | 2026-08-31 12:33:31 | 46.22859 | 15.40197 | 97° | 26km/h | 16920m | 7.3m/s | 0°C | 0% | 0hPa | 0V | 00:00:00 | 00:00:00 | 00:00:00 | |
| 9A1FER-10 | 2026-08-31 12:33:29 | 46.22862 | 15.40180 | 106° | 24km/h | 16909m | 4.4m/s | 0°C | 0% | 0hPa | 0V | 00:00:00 | 00:00:00 | 00:00:00 | |
| OM5KV | 2026-08-31 12:33:26 | 46.22861 | 15.40160 | 72° | 20km/h | 16893m | 6.9m/s | 0°C | 0% | 0hPa | 0V | 00:00:00 | 00:00:00 | 00:00:00 | |
| 9A1FER-3 | 2026-08-31 12:33:25 | 46.22860 | 15.40152 | 80° | 27km/h | 16887m | 4.4m/s | 0°C | 0% | 0hPa | 0V | 00:00:00 | 00:00:00 | 00:00:00 | |
| OM5KV | 2026-08-31 12:33:20 | 46.22858 | 15.40101 | 101° | 37km/h | 16863m | 5.8m/s | 0°C | 0% | 0hPa | 0V | 00:00:00 | 00:00:00 | 00:00:00 | |
| 9A1FER-10 | 2026-08-31 12:33:14 | 46.22866 | 15.40054 | 86° | 35km/h | 16834m | 2.8m/s | 0°C | 0% | 0hPa | 0V | 00:00:00 | 00:00:00 | 00:00:00 | |
| 9A1FER-3 | 2026-08-31 12:33:10 | 46.22857 | 15.40011 | 90° | 42km/h | 16810m | 6.3m/s | 0°C | 0% | 0hPa | 0V | 00:00:00 | 00:00:00 | 00:00:00 | |
| OM5KV | 2026-08-31 12:33:08 | 46.22862 | 15.39987 | 123° | 29km/h | 16798m | 6.0m/s | 0°C | 0% | 0hPa | 0V | 00:00:00 | 00:00:00 | 00:00:00 | |
| OM5KV | 2026-08-31 12:33:02 | 46.22856 | 15.39926 | 91° | 51km/h | 16746m | 9.5m/s | 0°C | 0% | 0hPa | 0V | 00:00:00 | 00:00:00 | 00:00:00 | |
| 9A1FER-10 | 2026-08-31 12:32:59 | 46.22861 | 15.39870 | 98° | 57km/h | 16719m | 6.6m/s | 0°C | 0% | 0hPa | 0V | 00:00:00 | 00:00:00 | 00:00:00 | |
| OM5KV | 2026-08-31 12:32:58 | 46.22862 | 15.39851 | 94° | 51km/h | 16712m | 7.1m/s | 0°C | 0% | 0hPa | 0V | 00:00:00 | 00:00:00 | 00:00:00 | |
| OM5KV | 2026-08-31 12:32:57 | 46.22863 | 15.39832 | 90° | 58km/h | 16705m | 7.1m/s | 0°C | 0% | 0hPa | 0V | 00:00:00 | 00:00:00 | 00:00:00 | |
| OM5KV | 2026-08-31 12:32:52 | 46.22866 | 15.39728 | 90° | 57km/h | 16681m | 4.0m/s | 0°C | 0% | 0hPa | 0V | 00:00:00 | 00:00:00 | 00:00:00 | |
| OM5KV | 2026-08-31 12:32:51 | 46.22866 | 15.39707 | 92° | 57km/h | 16676m | 5.7m/s | 0°C | 0% | 0hPa | 0V | 00:00:00 | 00:00:00 | 00:00:00 | |
| 9A1FER-10 | 2026-08-31 12:32:44 | 46.22862 | 15.39560 | 94° | 64km/h | 16644m | 5.2m/s | 0°C | 0% | 0hPa | 0V | 00:00:00 | 00:00:00 | 00:00:00 | |
| 9A1FER-3 | 2026-08-31 12:32:40 | 46.22864 | 15.39466 | 89° | 62km/h | 16624m | 3.5m/s | 0°C | 0% | 0hPa | 0V | 00:00:00 | 00:00:00 | 00:00:00 | |
| OM5KV | 2026-08-31 12:32:39 | 46.22863 | 15.39443 | 85° | 62km/h | 16620m | 5.3m/s | 0°C | 0% | 0hPa | 0V | 00:00:00 | 00:00:00 | 00:00:00 | |
| OM5KV | 2026-08-31 12:32:38 | 46.22861 | 15.39421 | 84° | 62km/h | 16616m | 2.3m/s | 0°C | 0% | 0hPa | 0V | 00:00:00 | 00:00:00 | 00:00:00 | |
| OM5KV | 2026-08-31 12:32:33 | 46.22853 | 15.39305 | 89° | 66km/h | 16596m | 5.3m/s | 0°C | 0% | 0hPa | 0V | 00:00:00 | 00:00:00 | 00:00:00 | |
| OM5KV | 2026-08-31 12:32:32 | 46.22853 | 15.39282 | 88° | 60km/h | 16592m | 3.5m/s | 0°C | 0% | 0hPa | 0V | 00:00:00 | 00:00:00 | 00:00:00 | |
| 9A1FER-10 | 2026-08-31 12:32:29 | 46.22844 | 15.39220 | 75° | 64km/h | 16579m | 4.3m/s | 0°C | 0% | 0hPa | 0V | 00:00:00 | 00:00:00 | 00:00:00 | |
| OM5KV | 2026-08-31 12:32:27 | 46.22839 | 15.39177 | 84° | 60km/h | 16573m | 1.9m/s | 0°C | 0% | 0hPa | 0V | 00:00:00 | 00:00:00 | 00:00:00 | |
| OM5KV | 2026-08-31 12:32:26 | 46.22837 | 15.39154 | 80° | 64km/h | 16569m | 6.2m/s | 0°C | 0% | 0hPa | 0V | 00:00:00 | 00:00:00 | 00:00:00 | |
| 9A1FER-3 | 2026-08-31 12:32:25 | 46.22834 | 15.39131 | 82° | 64km/h | 16564m | 3.2m/s | 0°C | 0% | 0hPa | 0V | 00:00:00 | 00:00:00 | 00:00:00 | |
| OM5KV | 2026-08-31 12:32:21 | 46.22829 | 15.39039 | 82° | 66km/h | 16549m | 4.2m/s | 0°C | 0% | 0hPa | 0V | 00:00:00 | 00:00:00 | 00:00:00 | |
| OM5KV | 2026-08-31 12:32:20 | 46.22825 | 15.39016 | 80° | 64km/h | 16546m | 2.8m/s | 0°C | 0% | 0hPa | 0V | 00:00:00 | 00:00:00 | 00:00:00 | |
| OM5KV | 2026-08-31 12:32:15 | 46.22810 | 15.38903 | 81° | 71km/h | 16527m | 4.1m/s | 0°C | 0% | 0hPa | 0V | 00:00:00 | 00:00:00 | 00:00:00 | |
| 9A1FER-10 | 2026-08-31 12:32:14 | 46.22807 | 15.38879 | 83° | 64km/h | 16523m | 5.8m/s | 0°C | 0% | 0hPa | 0V | 00:00:00 | 00:00:00 | 00:00:00 | |
| 9A1FER-3 | 2026-08-31 12:32:10 | 46.22801 | 15.38788 | 81° | 64km/h | 16507m | 3.6m/s | 0°C | 0% | 0hPa | 0V | 00:00:00 | 00:00:00 | 00:00:00 | |
| OM5KV | 2026-08-31 12:32:09 | 46.22798 | 15.38767 | 80° | 57km/h | 16503m | 4.5m/s | 0°C | 0% | 0hPa | 0V | 00:00:00 | 00:00:00 | 00:00:00 | |
| OM5KV | 2026-08-31 12:32:08 | 46.22795 | 15.38747 | 77° | 58km/h | 16499m | 2.4m/s | 0°C | 0% | 0hPa | 0V | 00:00:00 | 00:00:00 | 00:00:00 | |
| OM5KV | 2026-08-31 12:32:03 | 46.22776 | 15.38632 | 78° | 62km/h | 16479m | 3.6m/s | 0°C | 0% | 0hPa | 0V | 00:00:00 | 00:00:00 | 00:00:00 | |
| OM5KV | 2026-08-31 12:32:02 | 46.22773 | 15.38609 | 79° | 64km/h | 16475m | 4.9m/s | 0°C | 0% | 0hPa | 0V | 00:00:00 | 00:00:00 | 00:00:00 | |
| 9A1FER-10 | 2026-08-31 12:31:59 | 46.22762 | 15.38543 | 73° | 64km/h | 16463m | 1.6m/s | 0°C | 0% | 0hPa | 0V | 00:00:00 | 00:00:00 | 00:00:00 | |
| OM5KV | 2026-08-31 12:31:57 | 46.22753 | 15.38499 | 75° | 71km/h | 16456m | 5.0m/s | 0°C | 0% | 0hPa | 0V | 00:00:00 | 00:00:00 | 00:00:00 | |
| 9A1FER-3 | 2026-08-31 12:31:55 | 46.22744 | 15.38448 | 78° | 66km/h | 16448m | 4.6m/s | 0°C | 0% | 0hPa | 0V | 00:00:00 | 00:00:00 | 00:00:00 | |
| OM5KV | 2026-08-31 12:31:51 | 46.22730 | 15.38360 | 80° | 62km/h | 16430m | 4.2m/s | 0°C | 0% | 0hPa | 0V | 00:00:00 | 00:00:00 | 00:00:00 | |
| 9A1FER-10 | 2026-08-31 12:31:44 | 46.22690 | 15.38206 | 69° | 66km/h | 16400m | 5.9m/s | 0°C | 0% | 0hPa | 0V | 00:00:00 | 00:00:00 | 00:00:00 | |
| 9A1FER-3 | 2026-08-31 12:31:40 | 46.22666 | 15.38115 | 67° | 64km/h | 16381m | 5.3m/s | 0°C | 0% | 0hPa | 0V | 00:00:00 | 00:00:00 | 00:00:00 | |
| OM5KV | 2026-08-31 12:31:33 | 46.22617 | 15.37966 | 62° | 71km/h | 16348m | 4.8m/s | 0°C | 0% | 0hPa | 0V | 00:00:00 | 00:00:00 | 00:00:00 | |
| OM5KV | 2026-08-31 12:31:32 | 46.22608 | 15.37944 | 60° | 68km/h | 16343m | 5.9m/s | 0°C | 0% | 0hPa | 0V | 00:00:00 | 00:00:00 | 00:00:00 | |
| 9A1FER-10 | 2026-08-31 12:31:29 | 46.22582 | 15.37883 | 63° | 64km/h | 16328m | 4.2m/s | 0°C | 0% | 0hPa | 0V | 00:00:00 | 00:00:00 | 00:00:00 | |
| OM5KV | 2026-08-31 12:31:27 | 46.22567 | 15.37843 | 60° | 58km/h | 16318m | 4.3m/s | 0°C | 0% | 0hPa | 0V | 00:00:00 | 00:00:00 | 00:00:00 | |
| OM5KV | 2026-08-31 12:31:26 | 46.22559 | 15.37825 | 60° | 60km/h | 16314m | 5.0m/s | 0°C | 0% | 0hPa | 0V | 00:00:00 | 00:00:00 | 00:00:00 | |
| 9A1FER-3 | 2026-08-31 12:31:25 | 46.22551 | 15.37805 | 58° | 66km/h | 16308m | 5.4m/s | 0°C | 0% | 0hPa | 0V | 00:00:00 | 00:00:00 | 00:00:00 | |
| OM5KV | 2026-08-31 12:31:21 | 46.22512 | 15.37723 | 60° | 69km/h | 16289m | 5.8m/s | 0°C | 0% | 0hPa | 0V | 00:00:00 | 00:00:00 | 00:00:00 | |
| OM5KV | 2026-08-31 12:31:20 | 46.22503 | 15.37701 | 65° | 68km/h | 16285m | 2.9m/s | 0°C | 0% | 0hPa | 0V | 00:00:00 | 00:00:00 | 00:00:00 | |
| OM5KV | 2026-08-31 12:31:15 | 46.22464 | 15.37603 | 55° | 62km/h | 16260m | 6.2m/s | 0°C | 0% | 0hPa | 0V | 00:00:00 | 00:00:00 | 00:00:00 | |
| 9A1FER-10 | 2026-08-31 12:31:14 | 46.22455 | 15.37584 | 52° | 64km/h | 16254m | 4.7m/s | 0°C | 0% | 0hPa | 0V | 00:00:00 | 00:00:00 | 00:00:00 | |
| 9A1FER-3 | 2026-08-31 12:31:10 | 46.22417 | 15.37504 | 58° | 62km/h | 16234m | 5.4m/s | 0°C | 0% | 0hPa | 0V | 00:00:00 | 00:00:00 | 00:00:00 | |
| OM5KV | 2026-08-31 12:31:09 | 46.22408 | 15.37484 | 58° | 62km/h | 16229m | 5.1m/s | 0°C | 0% | 0hPa | 0V | 00:00:00 | 00:00:00 | 00:00:00 | |
| OM5KV | 2026-08-31 12:31:08 | 46.22400 | 15.37465 | 60° | 58km/h | 16224m | 4.8m/s | 0°C | 0% | 0hPa | 0V | 00:00:00 | 00:00:00 | 00:00:00 | |
| OM5KV | 2026-08-31 12:31:03 | 46.22361 | 15.37372 | 60° | 66km/h | 16200m | 5.6m/s | 0°C | 0% | 0hPa | 0V | 00:00:00 | 00:00:00 | 00:00:00 | |
| OM5KV | 2026-08-31 12:31:02 | 46.22353 | 15.37352 | 59° | 66km/h | 16195m | 4.2m/s | 0°C | 0% | 0hPa | 0V | 00:00:00 | 00:00:00 | 00:00:00 | |
| 9A1FER-10 | 2026-08-31 12:30:59 | 46.22325 | 15.37296 | 57° | 58km/h | 16180m | 5.4m/s | 0°C | 0% | 0hPa | 0V | 00:00:00 | 00:00:00 | 00:00:00 | |
| PETON7-10 | 2026-08-31 12:30:57 | 46.22310 | 15.37258 | 59° | 57km/h | 16171m | 6.3m/s | 0°C | 0% | 0hPa | 0V | 00:00:00 | 00:00:00 | 00:00:00 | |
| 9A1FER-3 | 2026-08-31 12:30:55 | 46.22294 | 15.37222 | 63° | 58km/h | 16162m | 5.4m/s | 0°C | 0% | 0hPa | 0V | 00:00:00 | 00:00:00 | 00:00:00 | |
| OM5KV | 2026-08-31 12:30:53 | 46.22280 | 15.37184 | 62° | 57km/h | 16153m | 5.5m/s | 0°C | 0% | 0hPa | 0V | 00:00:00 | 00:00:00 | 00:00:00 | |
| OM5KV | 2026-08-31 12:30:45 | 46.22218 | 15.37041 | 65° | 55km/h | 16113m | 3.6m/s | 0°C | 0% | 0hPa | 0V | 00:00:00 | 00:00:00 | 00:00:00 | |
| 9A1FER-10 | 2026-08-31 12:30:44 | 46.22212 | 15.37024 | 60° | 55km/h | 16109m | 4.9m/s | 0°C | 0% | 0hPa | 0V | 00:00:00 | 00:00:00 | 00:00:00 | |
| PETON7-10 | 2026-08-31 12:30:42 | 46.22198 | 15.36992 | 59° | 58km/h | 16100m | 5.8m/s | 0°C | 0% | 0hPa | 0V | 00:00:00 | 00:00:00 | 00:00:00 | |
| 9A1FER-3 | 2026-08-31 12:30:40 | 46.22182 | 15.36956 | 59° | 55km/h | 16089m | 5.7m/s | 0°C | 0% | 0hPa | 0V | 00:00:00 | 00:00:00 | 00:00:00 | |
| 9A1FER-10 | 2026-08-31 12:30:29 | 46.22101 | 15.36770 | 59° | 53km/h | 16036m | 6.2m/s | 0°C | 0% | 0hPa | 0V | 00:00:00 | 00:00:00 | 00:00:00 | |
| OM5KV | 2026-08-31 12:30:27 | 46.22087 | 15.36732 | 65° | 58km/h | 16025m | 5.9m/s | 0°C | 0% | 0hPa | 0V | 00:00:00 | 00:00:00 | 00:00:00 | |
| 9A1FER-3 | 2026-08-31 12:30:25 | 46.22073 | 15.36698 | 58° | 47km/h | 16014m | 4.4m/s | 0°C | 0% | 0hPa | 0V | 00:00:00 | 00:00:00 | 00:00:00 | |
| PETON7-10 | 2026-08-31 12:30:22 | 46.22056 | 15.36651 | 61° | 46km/h | 15999m | 5.7m/s | 0°C | 0% | 0hPa | 0V | 00:00:00 | 00:00:00 | 00:00:00 | |
| OM5KV | 2026-08-31 12:30:21 | 46.22050 | 15.36637 | 59° | 47km/h | 15993m | 4.8m/s | 0°C | 0% | 0hPa | 0V | 00:00:00 | 00:00:00 | 00:00:00 | |
| OM5KV | 2026-08-31 12:30:15 | 46.22012 | 15.36536 | 66° | 47km/h | 15965m | 5.1m/s | 0°C | 0% | 0hPa | 0V | 00:00:00 | 00:00:00 | 00:00:00 | |
| 9A1FER-10 | 2026-08-31 12:30:14 | 46.22008 | 15.36521 | 70° | 44km/h | 15961m | 4.0m/s | 0°C | 0% | 0hPa | 0V | 00:00:00 | 00:00:00 | 00:00:00 | |
| 9A1FER-3 | 2026-08-31 12:30:10 | 46.21990 | 15.36466 | 66° | 44km/h | 15942m | 4.9m/s | 0°C | 0% | 0hPa | 0V | 00:00:00 | 00:00:00 | 00:00:00 | |
| OM5KV | 2026-08-31 12:30:09 | 46.21985 | 15.36451 | 65° | 46km/h | 15936m | 5.5m/s | 0°C | 0% | 0hPa | 0V | 00:00:00 | 00:00:00 | 00:00:00 | |
| PETON7-10 | 2026-08-31 12:30:05 | 46.21967 | 15.36390 | 70° | 46km/h | 15918m | 5.7m/s | 0°C | 0% | 0hPa | 0V | 00:00:00 | 00:00:00 | 00:00:00 | |
| 9A1FER-10 | 2026-08-31 12:29:59 | 46.21944 | 15.36305 | 64° | 44km/h | 15889m | 5.0m/s | 0°C | 0% | 0hPa | 0V | 00:00:00 | 00:00:00 | 00:00:00 | |
| OM5KV | 2026-08-31 12:29:58 | 46.21940 | 15.36292 | 68° | 40km/h | 15884m | 4.1m/s | 0°C | 0% | 0hPa | 0V | 00:00:00 | 00:00:00 | 00:00:00 | |
| 9A1FER-3 | 2026-08-31 12:29:55 | 46.21928 | 15.36243 | 76° | 46km/h | 15869m | 5.7m/s | 0°C | 0% | 0hPa | 0V | 00:00:00 | 00:00:00 | 00:00:00 | |
| OM5KV | 2026-08-31 12:29:52 | 46.21918 | 15.36195 | 68° | 44km/h | 15855m | 4.4m/s | 0°C | 0% | 0hPa | 0V | 00:00:00 | 00:00:00 | 00:00:00 | |
| PETON7-10 | 2026-08-31 12:29:50 | 46.21910 | 15.36167 | 68° | 44km/h | 15846m | 5.1m/s | 0°C | 0% | 0hPa | 0V | 00:00:00 | 00:00:00 | 00:00:00 | |
| 9A1FER-10 | 2026-08-31 12:29:44 | 46.21891 | 15.36073 | 77° | 46km/h | 15819m | 4.6m/s | 0°C | 0% | 0hPa | 0V | 00:00:00 | 00:00:00 | 00:00:00 | |
| OM5KV | 2026-08-31 12:29:41 | 46.21883 | 15.36022 | 82° | 42km/h | 15805m | 2.8m/s | 0°C | 0% | 0hPa | 0V | 00:00:00 | 00:00:00 | 00:00:00 | |
| 9A1FER-3 | 2026-08-31 12:29:40 | 46.21881 | 15.36007 | 72° | 47km/h | 15802m | 4.6m/s | 0°C | 0% | 0hPa | 0V | 00:00:00 | 00:00:00 | 00:00:00 | |
| OM5KV | 2026-08-31 12:29:35 | 46.21866 | 15.35934 | 74° | 47km/h | 15779m | 4.1m/s | 0°C | 0% | 0hPa | 0V | 00:00:00 | 00:00:00 | 00:00:00 | |
| PETON7-10 | 2026-08-31 12:29:34 | 46.21863 | 15.35918 | 76° | 51km/h | 15774m | 5.7m/s | 0°C | 0% | 0hPa | 0V | 00:00:00 | 00:00:00 | 00:00:00 | |
| 9A1FER-10 | 2026-08-31 12:29:29 | 46.21850 | 15.35830 | 78° | 53km/h | 15751m | 5.9m/s | 0°C | 0% | 0hPa | 0V | 00:00:00 | 00:00:00 | 00:00:00 | |
| 9A1FER-3 | 2026-08-31 12:29:25 | 46.21837 | 15.35758 | 73° | 55km/h | 15732m | 4.1m/s | 0°C | 0% | 0hPa | 0V | 00:00:00 | 00:00:00 | 00:00:00 | |
| PETON7-10 | 2026-08-31 12:29:19 | 46.21811 | 15.35648 | 75° | 57km/h | 15707m | 4.2m/s | 0°C | 0% | 0hPa | 0V | 00:00:00 | 00:00:00 | 00:00:00 | |
| 9A1FER-10 | 2026-08-31 12:29:14 | 46.21797 | 15.35549 | 82° | 58km/h | 15684m | 5.2m/s | 0°C | 0% | 0hPa | 0V | 00:00:00 | 00:00:00 | 00:00:00 | |
| 9A1FER-3 | 2026-08-31 12:29:10 | 46.21786 | 15.35470 | 77° | 58km/h | 15666m | 5.5m/s | 0°C | 0% | 0hPa | 0V | 00:00:00 | 00:00:00 | 00:00:00 | |
| PETON7-10 | 2026-08-31 12:29:04 | 46.21765 | 15.35344 | 77° | 62km/h | 15638m | 6.0m/s | 0°C | 0% | 0hPa | 0V | 00:00:00 | 00:00:00 | 00:00:00 | |
| 9A1FER-10 | 2026-08-31 12:28:59 | 46.21740 | 15.35245 | 68° | 55km/h | 15615m | 3.9m/s | 0°C | 0% | 0hPa | 0V | 00:00:00 | 00:00:00 | 00:00:00 | |
| 9A1FER-10 | 2026-08-31 12:28:44 | 46.21669 | 15.34960 | 69° | 53km/h | 15549m | 2.9m/s | 0°C | 0% | 0hPa | 0V | 00:00:00 | 00:00:00 | 00:00:00 | |
| 9A1FER-3 | 2026-08-31 12:28:40 | 46.21653 | 15.34890 | 70° | 55km/h | 15531m | 3.7m/s | 0°C | 0% | 0hPa | 0V | 00:00:00 | 00:00:00 | 00:00:00 | |
| 9A1FER-10 | 2026-08-31 12:28:29 | 46.21619 | 15.34677 | 76° | 58km/h | 15480m | 5.9m/s | 0°C | 0% | 0hPa | 0V | 00:00:00 | 00:00:00 | 00:00:00 | |
| 9A1FER-3 | 2026-08-31 12:28:25 | 46.21607 | 15.34598 | 83° | 58km/h | 15462m | 4.0m/s | 0°C | 0% | 0hPa | 0V | 00:00:00 | 00:00:00 | 00:00:00 | |
| 9A1FER-10 | 2026-08-31 12:28:14 | 46.21575 | 15.34369 | 81° | 60km/h | 15413m | 6.1m/s | 0°C | 0% | 0hPa | 0V | 00:00:00 | 00:00:00 | 00:00:00 | |
| 9A1FER-3 | 2026-08-31 12:28:10 | 46.21568 | 15.34282 | 83° | 62km/h | 15393m | 6.2m/s | 0°C | 0% | 0hPa | 0V | 00:00:00 | 00:00:00 | 00:00:00 | |
| 9A1FER-10 | 2026-08-31 12:27:59 | 46.21539 | 15.34039 | 82° | 66km/h | 15345m | 4.1m/s | 0°C | 0% | 0hPa | 0V | 00:00:00 | 00:00:00 | 00:00:00 | |
| 9A1FER-3 | 2026-08-31 12:27:55 | 46.21526 | 15.33955 | 76° | 66km/h | 15327m | 3.6m/s | 0°C | 0% | 0hPa | 0V | 00:00:00 | 00:00:00 | 00:00:00 | |
| 9A1FER-10 | 2026-08-31 12:27:44 | 46.21498 | 15.33690 | 72° | 69km/h | 15278m | 4.6m/s | 0°C | 0% | 0hPa | 0V | 00:00:00 | 00:00:00 | 00:00:00 | |
| 9A1FER-3 | 2026-08-31 12:27:40 | 46.21478 | 15.33597 | 78° | 69km/h | 15259m | 5.9m/s | 0°C | 0% | 0hPa | 0V | 00:00:00 | 00:00:00 | 00:00:00 | |
| 9A1FER-10 | 2026-08-31 12:27:29 | 46.21427 | 15.33328 | 71° | 71km/h | 15209m | 4.3m/s | 0°C | 0% | 0hPa | 0V | 00:00:00 | 00:00:00 | 00:00:00 | |
| 9A1FER-3 | 2026-08-31 12:27:25 | 46.21405 | 15.33232 | 68° | 73km/h | 15191m | 4.1m/s | 0°C | 0% | 0hPa | 0V | 00:00:00 | 00:00:00 | 00:00:00 | |
| 9A1FER-10 | 2026-08-31 12:27:14 | 46.21327 | 15.32965 | 71° | 78km/h | 15141m | 4.6m/s | 0°C | 0% | 0hPa | 0V | 00:00:00 | 00:00:00 | 00:00:00 | |
| 9A1FER-3 | 2026-08-31 12:27:10 | 46.21299 | 15.32859 | 69° | 78km/h | 15124m | 4.4m/s | 0°C | 0% | 0hPa | 0V | 00:00:00 | 00:00:00 | 00:00:00 | |
| 9A1FER-10 | 2026-08-31 12:26:59 | 46.21212 | 15.32572 | 68° | 77km/h | 15077m | 5.3m/s | 0°C | 0% | 0hPa | 0V | 00:00:00 | 00:00:00 | 00:00:00 | |
| 9A1FER-3 | 2026-08-31 12:26:55 | 46.21183 | 15.32471 | 66° | 75km/h | 15056m | 5.9m/s | 0°C | 0% | 0hPa | 0V | 00:00:00 | 00:00:00 | 00:00:00 | |
| 9A1FER-10 | 2026-08-31 12:26:44 | 46.21095 | 15.32197 | 63° | 73km/h | 15004m | 4.5m/s | 0°C | 0% | 0hPa | 0V | 00:00:00 | 00:00:00 | 00:00:00 | |
| 9A1FER-3 | 2026-08-31 12:26:40 | 46.21058 | 15.32103 | 62° | 71km/h | 14985m | 4.4m/s | 0°C | 0% | 0hPa | 0V | 00:00:00 | 00:00:00 | 00:00:00 | |
| 9A1FER-10 | 2026-08-31 12:26:29 | 46.20969 | 15.31847 | 65° | 71km/h | 14934m | 5.7m/s | 0°C | 0% | 0hPa | 0V | 00:00:00 | 00:00:00 | 00:00:00 | |
| 9A1FER-3 | 2026-08-31 12:26:26 | 46.20933 | 15.31761 | 61° | 71km/h | 14917m | 3.7m/s | 0°C | 0% | 0hPa | 0V | 00:00:00 | 00:00:00 | 00:00:00 | |
| 9A1FER-10 | 2026-08-31 12:26:14 | 46.20834 | 15.31517 | 56° | 68km/h | 14867m | 4.3m/s | 0°C | 0% | 0hPa | 0V | 00:00:00 | 00:00:00 | 00:00:00 | |
| 9A1FER-3 | 2026-08-31 12:26:10 | 46.20798 | 15.31431 | 58° | 68km/h | 14849m | 5.1m/s | 0°C | 0% | 0hPa | 0V | 00:00:00 | 00:00:00 | 00:00:00 | |
| 9A1FER-10 | 2026-08-31 12:25:59 | 46.20690 | 15.31212 | 56° | 68km/h | 14799m | 3.5m/s | 0°C | 0% | 0hPa | 0V | 00:00:00 | 00:00:00 | 00:00:00 | |
| PETON7-10 | 2026-08-31 12:25:55 | 46.20643 | 15.31108 | 61° | 75km/h | 14777m | 4.3m/s | 0°C | 0% | 0hPa | 0V | 00:00:00 | 00:00:00 | 00:00:00 | |
| 9A1FER-10 | 2026-08-31 12:25:44 | 46.20544 | 15.30916 | 59° | 66km/h | 14732m | 4.9m/s | 0°C | 0% | 0hPa | 0V | 00:00:00 | 00:00:00 | 00:00:00 | |
| 9A1FER-3 | 2026-08-31 12:25:40 | 46.20502 | 15.30834 | 54° | 64km/h | 14713m | 4.4m/s | 0°C | 0% | 0hPa | 0V | 00:00:00 | 00:00:00 | 00:00:00 | |
| 9A1FER-10 | 2026-08-31 12:25:29 | 46.20397 | 15.30624 | 53° | 64km/h | 14659m | 3.6m/s | 0°C | 0% | 0hPa | 0V | 00:00:00 | 00:00:00 | 00:00:00 | |
| 9A1FER-3 | 2026-08-31 12:25:25 | 46.20363 | 15.30544 | 59° | 64km/h | 14638m | 6.8m/s | 0°C | 0% | 0hPa | 0V | 00:00:00 | 00:00:00 | 00:00:00 | |
| 9A1FER-10 | 2026-08-31 12:25:14 | 46.20269 | 15.30325 | 60° | 60km/h | 14584m | 4.5m/s | 0°C | 0% | 0hPa | 0V | 00:00:00 | 00:00:00 | 00:00:00 | |
| 9A1FER-3 | 2026-08-31 12:25:10 | 46.20240 | 15.30244 | 57° | 60km/h | 14561m | 4.3m/s | 0°C | 0% | 0hPa | 0V | 00:00:00 | 00:00:00 | 00:00:00 | |
| 9A1FER-10 | 2026-08-31 12:24:59 | 46.20167 | 15.30027 | 68° | 58km/h | 14508m | 3.3m/s | 0°C | 0% | 0hPa | 0V | 00:00:00 | 00:00:00 | 00:00:00 | |
| 9A1FER-3 | 2026-08-31 12:24:55 | 46.20142 | 15.29951 | 68° | 58km/h | 14488m | 4.1m/s | 0°C | 0% | 0hPa | 0V | 00:00:00 | 00:00:00 | 00:00:00 | |
| 9A1FER-10 | 2026-08-31 12:24:44 | 46.20085 | 15.29730 | 78° | 60km/h | 14438m | 5.1m/s | 0°C | 0% | 0hPa | 0V | 00:00:00 | 00:00:00 | 00:00:00 | |
| 9A1FER-3 | 2026-08-31 12:24:40 | 46.20072 | 15.29650 | 82° | 64km/h | 14417m | 4.2m/s | 0°C | 0% | 0hPa | 0V | 00:00:00 | 00:00:00 | 00:00:00 | |
| 9A1FER-10 | 2026-08-31 12:24:29 | 46.20049 | 15.29398 | 84° | 71km/h | 14365m | 4.8m/s | 0°C | 0% | 0hPa | 0V | 00:00:00 | 00:00:00 | 00:00:00 | |
| 9A1FER-3 | 2026-08-31 12:24:25 | 46.20043 | 15.29295 | 83° | 73km/h | 14345m | 4.6m/s | 0°C | 0% | 0hPa | 0V | 00:00:00 | 00:00:00 | 00:00:00 | |
| 9A1FER-10 | 2026-08-31 12:24:14 | 46.20038 | 15.29010 | 88° | 75km/h | 14290m | 4.2m/s | 0°C | 0% | 0hPa | 0V | 00:00:00 | 00:00:00 | 00:00:00 | |
| 9A1FER-3 | 2026-08-31 12:24:09 | 46.20034 | 15.28877 | 88° | 80km/h | 14265m | 5.1m/s | 0°C | 0% | 0hPa | 0V | 00:00:00 | 00:00:00 | 00:00:00 | |
| 9A1FER-10 | 2026-08-31 12:23:59 | 46.20023 | 15.28617 | 90° | 84km/h | 14217m | 3.5m/s | 0°C | 0% | 0hPa | 0V | 00:00:00 | 00:00:00 | 00:00:00 | |
| 9A1FER-3 | 2026-08-31 12:23:52 | 46.20009 | 15.28390 | 85° | 86km/h | 14188m | 3.4m/s | 0°C | 0% | 0hPa | 0V | 00:00:00 | 00:00:00 | 00:00:00 | |
| 9A1FER-10 | 2026-08-31 12:23:44 | 46.19997 | 15.28139 | 83° | 91km/h | 14149m | 4.1m/s | 0°C | 0% | 0hPa | 0V | 00:00:00 | 00:00:00 | 00:00:00 | |
| 9A1FER-3 | 2026-08-31 12:23:37 | 46.19982 | 15.27918 | 88° | 99km/h | 14116m | 4.5m/s | 0°C | 0% | 0hPa | 0V | 00:00:00 | 00:00:00 | 00:00:00 | |
| 9A1FER-10 | 2026-08-31 12:23:29 | 46.19967 | 15.27642 | 86° | 99km/h | 14080m | 2.7m/s | 0°C | 0% | 0hPa | 0V | 00:00:00 | 00:00:00 | 00:00:00 | |
| 9A1FER-3 | 2026-08-31 12:23:21 | 46.19955 | 15.27348 | 83° | 95km/h | 14044m | 3.8m/s | 0°C | 0% | 0hPa | 0V | 00:00:00 | 00:00:00 | 00:00:00 | |
| 9A1FER-10 | 2026-08-31 12:23:14 | 46.19935 | 15.27112 | 82° | 99km/h | 14013m | 2.7m/s | 0°C | 0% | 0hPa | 0V | 00:00:00 | 00:00:00 | 00:00:00 | |
| 9A1FER-3 | 2026-08-31 12:23:06 | 46.19905 | 15.26833 | 87° | 100km/h | 13977m | 4.0m/s | 0°C | 0% | 0hPa | 0V | 00:00:00 | 00:00:00 | 00:00:00 | |
| 9A1FER-10 | 2026-08-31 12:22:59 | 46.19887 | 15.26580 | 84° | 104km/h | 13945m | 3.4m/s | 0°C | 0% | 0hPa | 0V | 00:00:00 | 00:00:00 | 00:00:00 | |
| 9A1FER-3 | 2026-08-31 12:22:51 | 46.19871 | 15.26283 | 84° | 106km/h | 13910m | 3.2m/s | 0°C | 0% | 0hPa | 0V | 00:00:00 | 00:00:00 | 00:00:00 | |
| 9A1FER-10 | 2026-08-31 12:22:44 | 46.19856 | 15.26016 | 88° | 108km/h | 13879m | 5.5m/s | 0°C | 0% | 0hPa | 0V | 00:00:00 | 00:00:00 | 00:00:00 | |
| 9A1FER-3 | 2026-08-31 12:22:36 | 46.19834 | 15.25705 | 88° | 108km/h | 13844m | 4.9m/s | 0°C | 0% | 0hPa | 0V | 00:00:00 | 00:00:00 | 00:00:00 | |
| 9A1FER-10 | 2026-08-31 12:22:29 | 46.19819 | 15.25432 | 82° | 110km/h | 13813m | 3.4m/s | 0°C | 0% | 0hPa | 0V | 00:00:00 | 00:00:00 | 00:00:00 | |
| 9A1FER-3 | 2026-08-31 12:22:21 | 46.19795 | 15.25116 | 86° | 108km/h | 13780m | 3.4m/s | 0°C | 0% | 0hPa | 0V | 00:00:00 | 00:00:00 | 00:00:00 | |
| 9A1FER-10 | 2026-08-31 12:22:14 | 46.19766 | 15.24840 | 85° | 108km/h | 13749m | 5.3m/s | 0°C | 0% | 0hPa | 0V | 00:00:00 | 00:00:00 | 00:00:00 | |
| 9A1FER-3 | 2026-08-31 12:22:06 | 46.19741 | 15.24528 | 82° | 110km/h | 13716m | 5.6m/s | 0°C | 0% | 0hPa | 0V | 00:00:00 | 00:00:00 | 00:00:00 | |
| 9A1FER-10 | 2026-08-31 12:21:59 | 46.19725 | 15.24250 | 85° | 110km/h | 13686m | 4.5m/s | 0°C | 0% | 0hPa | 0V | 00:00:00 | 00:00:00 | 00:00:00 | |
| 9A1FER-3 | 2026-08-31 12:21:51 | 46.19690 | 15.23937 | 79° | 108km/h | 13654m | 4.6m/s | 0°C | 0% | 0hPa | 0V | 00:00:00 | 00:00:00 | 00:00:00 | |
| 9A1FER-10 | 2026-08-31 12:21:44 | 46.19658 | 15.23663 | 82° | 106km/h | 13623m | 5.0m/s | 0°C | 0% | 0hPa | 0V | 00:00:00 | 00:00:00 | 00:00:00 | |
| 9A1FER-3 | 2026-08-31 12:21:36 | 46.19625 | 15.23356 | 81° | 104km/h | 13590m | 3.4m/s | 0°C | 0% | 0hPa | 0V | 00:00:00 | 00:00:00 | 00:00:00 | |
| 9A1FER-10 | 2026-08-31 12:21:29 | 46.19599 | 15.23089 | 83° | 102km/h | 13561m | 3.8m/s | 0°C | 0% | 0hPa | 0V | 00:00:00 | 00:00:00 | 00:00:00 | |
| 9A1FER-3 | 2026-08-31 12:21:21 | 46.19569 | 15.22790 | 82° | 104km/h | 13526m | 5.1m/s | 0°C | 0% | 0hPa | 0V | 00:00:00 | 00:00:00 | 00:00:00 | |
| 9A1FER-10 | 2026-08-31 12:21:14 | 46.19541 | 15.22533 | 83° | 106km/h | 13497m | 4.7m/s | 0°C | 0% | 0hPa | 0V | 00:00:00 | 00:00:00 | 00:00:00 | |
| 9A1FER-3 | 2026-08-31 12:21:06 | 46.19517 | 15.22224 | 85° | 106km/h | 13465m | 3.2m/s | 0°C | 0% | 0hPa | 0V | 00:00:00 | 00:00:00 | 00:00:00 | |
| 9A1FER-10 | 2026-08-31 12:20:59 | 46.19495 | 15.21954 | 85° | 106km/h | 13435m | 5.1m/s | 0°C | 0% | 0hPa | 0V | 00:00:00 | 00:00:00 | 00:00:00 | |
| 9A1FER-3 | 2026-08-31 12:20:51 | 46.19475 | 15.21652 | 83° | 110km/h | 13403m | 3.6m/s | 0°C | 0% | 0hPa | 0V | 00:00:00 | 00:00:00 | 00:00:00 | |
| 9A1FER-10 | 2026-08-31 12:20:44 | 46.19453 | 15.21375 | 83° | 108km/h | 13373m | 4.3m/s | 0°C | 0% | 0hPa | 0V | 00:00:00 | 00:00:00 | 00:00:00 | |
| 9A1FER-3 | 2026-08-31 12:20:36 | 46.19423 | 15.21062 | 80° | 108km/h | 13338m | 4.1m/s | 0°C | 0% | 0hPa | 0V | 00:00:00 | 00:00:00 | 00:00:00 | |
| 9A1FER-10 | 2026-08-31 12:20:29 | 46.19400 | 15.20792 | 85° | 110km/h | 13305m | 5.0m/s | 0°C | 0% | 0hPa | 0V | 00:00:00 | 00:00:00 | 00:00:00 | |
| 9A1FER-3 | 2026-08-31 12:20:21 | 46.19369 | 15.20475 | 83° | 110km/h | 13271m | 6.3m/s | 0°C | 0% | 0hPa | 0V | 00:00:00 | 00:00:00 | 00:00:00 | |
| 9A1FER-10 | 2026-08-31 12:20:14 | 46.19345 | 15.20198 | 83° | 110km/h | 13238m | 4.7m/s | 0°C | 0% | 0hPa | 0V | 00:00:00 | 00:00:00 | 00:00:00 | |
| 9A1FER-3 | 2026-08-31 12:20:06 | 46.19319 | 15.19885 | 84° | 111km/h | 13205m | 4.9m/s | 0°C | 0% | 0hPa | 0V | 00:00:00 | 00:00:00 | 00:00:00 | |
| 9A1FER-10 | 2026-08-31 12:19:59 | 46.19300 | 15.19605 | 86° | 115km/h | 13176m | 3.5m/s | 0°C | 0% | 0hPa | 0V | 00:00:00 | 00:00:00 | 00:00:00 | |
| 9A1FER-3 | 2026-08-31 12:19:51 | 46.19276 | 15.19274 | 83° | 117km/h | 13141m | 2.9m/s | 0°C | 0% | 0hPa | 0V | 00:00:00 | 00:00:00 | 00:00:00 | |
| 9A1FER-10 | 2026-08-31 12:19:44 | 46.19256 | 15.18977 | 83° | 119km/h | 13109m | 5.8m/s | 0°C | 0% | 0hPa | 0V | 00:00:00 | 00:00:00 | 00:00:00 | |
| 9A1FER-3 | 2026-08-31 12:19:36 | 46.19222 | 15.18636 | 85° | 120km/h | 13074m | 3.9m/s | 0°C | 0% | 0hPa | 0V | 00:00:00 | 00:00:00 | 00:00:00 | |
| 9A1FER-10 | 2026-08-31 12:19:29 | 46.19197 | 15.18337 | 84° | 119km/h | 13044m | 5.4m/s | 0°C | 0% | 0hPa | 0V | 00:00:00 | 00:00:00 | 00:00:00 | |
| OE3JTB-15 | 2026-08-31 12:19:19 | 46.19152 | 15.17773 | 85° | 131km/h | 12984m | 4.3m/s | 0°C | 0% | 0hPa | 0V | 00:00:00 | 00:00:00 | 00:00:00 | |
| 9A1FER-10 | 2026-08-31 12:19:14 | 46.19145 | 15.17686 | 83° | 122km/h | 12976m | 4.8m/s | 0°C | 0% | 0hPa | 0V | 00:00:00 | 00:00:00 | 00:00:00 | |
| 9A1FER-3 | 2026-08-31 12:19:06 | 46.19122 | 15.17335 | 84° | 124km/h | 12941m | 4.6m/s | 0°C | 0% | 0hPa | 0V | 00:00:00 | 00:00:00 | 00:00:00 | |
| 9A1FER-10 | 2026-08-31 12:18:59 | 46.19101 | 15.17016 | 86° | 122km/h | 12909m | 4.3m/s | 0°C | 0% | 0hPa | 0V | 00:00:00 | 00:00:00 | 00:00:00 | |
| 9A1FER-3 | 2026-08-31 12:18:51 | 46.19070 | 15.16666 | 84° | 122km/h | 12874m | 4.1m/s | 0°C | 0% | 0hPa | 0V | 00:00:00 | 00:00:00 | 00:00:00 | |
| 9A1FER-10 | 2026-08-31 12:18:44 | 46.19045 | 15.16355 | 81° | 124km/h | 12845m | 3.9m/s | 0°C | 0% | 0hPa | 0V | 00:00:00 | 00:00:00 | 00:00:00 | |
| 9A1FER-3 | 2026-08-31 12:18:36 | 46.19015 | 15.16003 | 85° | 126km/h | 12808m | 5.6m/s | 0°C | 0% | 0hPa | 0V | 00:00:00 | 00:00:00 | 00:00:00 | |
| 9A1FER-10 | 2026-08-31 12:18:29 | 46.18985 | 15.15684 | 83° | 128km/h | 12778m | 3.4m/s | 0°C | 0% | 0hPa | 0V | 00:00:00 | 00:00:00 | 00:00:00 | |
| 9A1FER-3 | 2026-08-31 12:18:21 | 46.18953 | 15.15319 | 83° | 130km/h | 12743m | 3.9m/s | 0°C | 0% | 0hPa | 0V | 00:00:00 | 00:00:00 | 00:00:00 | |
| 9A1FER-10 | 2026-08-31 12:18:14 | 46.18929 | 15.14993 | 85° | 131km/h | 12712m | 4.5m/s | 0°C | 0% | 0hPa | 0V | 00:00:00 | 00:00:00 | 00:00:00 | |
| 9A1FER-3 | 2026-08-31 12:18:06 | 46.18899 | 15.14615 | 83° | 131km/h | 12675m | 3.0m/s | 0°C | 0% | 0hPa | 0V | 00:00:00 | 00:00:00 | 00:00:00 | |
| 9A1FER-10 | 2026-08-31 12:17:59 | 46.18873 | 15.14283 | 83° | 131km/h | 12644m | 4.6m/s | 0°C | 0% | 0hPa | 0V | 00:00:00 | 00:00:00 | 00:00:00 | |
| 9A1FER-3 | 2026-08-31 12:17:51 | 46.18841 | 15.13900 | 84° | 131km/h | 12610m | 3.8m/s | 0°C | 0% | 0hPa | 0V | 00:00:00 | 00:00:00 | 00:00:00 | |
| 9A1FER-10 | 2026-08-31 12:17:44 | 46.18811 | 15.13569 | 83° | 131km/h | 12580m | 5.0m/s | 0°C | 0% | 0hPa | 0V | 00:00:00 | 00:00:00 | 00:00:00 | |
| 9A1FER-3 | 2026-08-31 12:17:36 | 46.18776 | 15.13189 | 84° | 135km/h | 12542m | 4.9m/s | 0°C | 0% | 0hPa | 0V | 00:00:00 | 00:00:00 | 00:00:00 | |
| 9A1FER-10 | 2026-08-31 12:17:30 | 46.18740 | 15.12858 | 82° | 135km/h | 12509m | 6.1m/s | 0°C | 0% | 0hPa | 0V | 00:00:00 | 00:00:00 | 00:00:00 | |
| 9A1FER-3 | 2026-08-31 12:17:20 | 46.18697 | 15.12418 | 82° | 133km/h | 12468m | 3.7m/s | 0°C | 0% | 0hPa | 0V | 00:00:00 | 00:00:00 | 00:00:00 | |
| 9A1FER-10 | 2026-08-31 12:17:14 | 46.18670 | 15.12130 | 83° | 137km/h | 12441m | 5.1m/s | 0°C | 0% | 0hPa | 0V | 00:00:00 | 00:00:00 | 00:00:00 | |
| 9A1FER-3 | 2026-08-31 12:17:05 | 46.18626 | 15.11692 | 83° | 139km/h | 12399m | 3.4m/s | 0°C | 0% | 0hPa | 0V | 00:00:00 | 00:00:00 | 00:00:00 | |
| 9A1FER-10 | 2026-08-31 12:16:59 | 46.18599 | 15.11386 | 81° | 137km/h | 12372m | 5.2m/s | 0°C | 0% | 0hPa | 0V | 00:00:00 | 00:00:00 | 00:00:00 | |
| 9A1FER-3 | 2026-08-31 12:16:50 | 46.18558 | 15.10940 | 82° | 137km/h | 12329m | 4.2m/s | 0°C | 0% | 0hPa | 0V | 00:00:00 | 00:00:00 | 00:00:00 | |
| 9A1FER-10 | 2026-08-31 12:16:44 | 46.18527 | 15.10647 | 83° | 137km/h | 12303m | 3.8m/s | 0°C | 0% | 0hPa | 0V | 00:00:00 | 00:00:00 | 00:00:00 | |
| 9A1FER-3 | 2026-08-31 12:16:31 | 46.18464 | 15.10005 | 81° | 139km/h | 12241m | 3.8m/s | 0°C | 0% | 0hPa | 0V | 00:00:00 | 00:00:00 | 00:00:00 | |
| 9A1FER-10 | 2026-08-31 12:16:29 | 46.18453 | 15.09904 | 83° | 139km/h | 12232m | 3.8m/s | 0°C | 0% | 0hPa | 0V | 00:00:00 | 00:00:00 | 00:00:00 | |
| 9A1FER-3 | 2026-08-31 12:16:16 | 46.18383 | 15.09252 | 81° | 141km/h | 12170m | 3.8m/s | 0°C | 0% | 0hPa | 0V | 00:00:00 | 00:00:00 | 00:00:00 | |
| 9A1FER-10 | 2026-08-31 12:16:14 | 46.18372 | 15.09151 | 82° | 141km/h | 12160m | 4.2m/s | 0°C | 0% | 0hPa | 0V | 00:00:00 | 00:00:00 | 00:00:00 | |
| OE3JTB-15 | 2026-08-31 12:16:10 | 46.18323 | 15.08745 | 81° | 144km/h | 12123m | 3.8m/s | 0°C | 0% | 0hPa | 0V | 00:00:00 | 00:00:00 | 00:00:00 | |
| 9A1FER-3 | 2026-08-31 12:16:01 | 46.18292 | 15.08492 | 81° | 144km/h | 12098m | 5.6m/s | 0°C | 0% | 0hPa | 0V | 00:00:00 | 00:00:00 | 00:00:00 | |
| 9A1FER-3 | 2026-08-31 12:15:46 | 46.18192 | 15.07718 | 80° | 142km/h | 12027m | 4.1m/s | 0°C | 0% | 0hPa | 0V | 00:00:00 | 00:00:00 | 00:00:00 | |
| 9A1FER-10 | 2026-08-31 12:15:44 | 46.18177 | 15.07616 | 78° | 142km/h | 12017m | 4.8m/s | 0°C | 0% | 0hPa | 0V | 00:00:00 | 00:00:00 | 00:00:00 | |
| OE3JTB-15 | 2026-08-31 12:15:37 | 46.18116 | 15.07157 | 78° | 141km/h | 11973m | 4.3m/s | 0°C | 0% | 0hPa | 0V | 00:00:00 | 00:00:00 | 00:00:00 | |
| 9A1FER-3 | 2026-08-31 12:15:31 | 46.18087 | 15.06955 | 80° | 139km/h | 11954m | 3.5m/s | 0°C | 0% | 0hPa | 0V | 00:00:00 | 00:00:00 | 00:00:00 | |
| 9A1FER-10 | 2026-08-31 12:15:29 | 46.18073 | 15.06854 | 79° | 139km/h | 11944m | 3.7m/s | 0°C | 0% | 0hPa | 0V | 00:00:00 | 00:00:00 | 00:00:00 | |
| 9A1FER-3 | 2026-08-31 12:15:17 | 46.17997 | 15.06207 | 80° | 144km/h | 11882m | 5.4m/s | 0°C | 0% | 0hPa | 0V | 00:00:00 | 00:00:00 | 00:00:00 | |
| 9A1FER-10 | 2026-08-31 12:15:14 | 46.17984 | 15.06103 | 80° | 144km/h | 11872m | 5.5m/s | 0°C | 0% | 0hPa | 0V | 00:00:00 | 00:00:00 | 00:00:00 | |
| OE3JTB-15 | 2026-08-31 12:15:08 | 46.17933 | 15.05642 | 81° | 144km/h | 11829m | 3.8m/s | 0°C | 0% | 0hPa | 0V | 00:00:00 | 00:00:00 | 00:00:00 | |
| 9A1FER-3 | 2026-08-31 12:15:01 | 46.17905 | 15.05434 | 78° | 144km/h | 11811m | 3.5m/s | 0°C | 0% | 0hPa | 0V | 00:00:00 | 00:00:00 | 00:00:00 | |
| 9A1FER-10 | 2026-08-31 12:14:59 | 46.17890 | 15.05332 | 81° | 144km/h | 11801m | 4.2m/s | 0°C | 0% | 0hPa | 0V | 00:00:00 | 00:00:00 | 00:00:00 | |
| 9A1FER-3 | 2026-08-31 12:14:46 | 46.17804 | 15.04664 | 80° | 144km/h | 11736m | 4.3m/s | 0°C | 0% | 0hPa | 0V | 00:00:00 | 00:00:00 | 00:00:00 | |
| 9A1FER-10 | 2026-08-31 12:14:44 | 46.17791 | 15.04561 | 80° | 144km/h | 11725m | 5.1m/s | 0°C | 0% | 0hPa | 0V | 00:00:00 | 00:00:00 | 00:00:00 | |
| 9A1FER-3 | 2026-08-31 12:14:31 | 46.17704 | 15.03892 | 80° | 142km/h | 11661m | 4.6m/s | 0°C | 0% | 0hPa | 0V | 00:00:00 | 00:00:00 | 00:00:00 | |
| 9A1FER-10 | 2026-08-31 12:14:29 | 46.17690 | 15.03791 | 78° | 142km/h | 11651m | 5.8m/s | 0°C | 0% | 0hPa | 0V | 00:00:00 | 00:00:00 | 00:00:00 | |
| 9A1FER-3 | 2026-08-31 12:14:16 | 46.17598 | 15.03127 | 80° | 142km/h | 11587m | 4.6m/s | 0°C | 0% | 0hPa | 0V | 00:00:00 | 00:00:00 | 00:00:00 | |
| 9A1FER-10 | 2026-08-31 12:14:14 | 46.17585 | 15.03025 | 80° | 142km/h | 11577m | 5.6m/s | 0°C | 0% | 0hPa | 0V | 00:00:00 | 00:00:00 | 00:00:00 | |
| 9A1FER-3 | 2026-08-31 12:14:01 | 46.17503 | 15.02364 | 80° | 141km/h | 11511m | 6.3m/s | 0°C | 0% | 0hPa | 0V | 00:00:00 | 00:00:00 | 00:00:00 | |
| 9A1FER-10 | 2026-08-31 12:13:59 | 46.17489 | 15.02262 | 79° | 142km/h | 11502m | 5.8m/s | 0°C | 0% | 0hPa | 0V | 00:00:00 | 00:00:00 | 00:00:00 | |
| 9A1FER-3 | 2026-08-31 12:13:46 | 46.17401 | 15.01606 | 79° | 142km/h | 11439m | 5.1m/s | 0°C | 0% | 0hPa | 0V | 00:00:00 | 00:00:00 | 00:00:00 | |
| 9A1FER-10 | 2026-08-31 12:13:41 | 46.17365 | 15.01348 | 79° | 141km/h | 11415m | 6.0m/s | 0°C | 0% | 0hPa | 0V | 00:00:00 | 00:00:00 | 00:00:00 | |
| 9A1FER-3 | 2026-08-31 12:13:30 | 46.17292 | 15.00793 | 80° | 141km/h | 11362m | 5.3m/s | 0°C | 0% | 0hPa | 0V | 00:00:00 | 00:00:00 | 00:00:00 | |
| 9A1FER-10 | 2026-08-31 12:13:26 | 46.17266 | 15.00593 | 80° | 139km/h | 11342m | 6.4m/s | 0°C | 0% | 0hPa | 0V | 00:00:00 | 00:00:00 | 00:00:00 | |
| 9A1FER-3 | 2026-08-31 12:13:15 | 46.17194 | 15.00045 | 79° | 139km/h | 11292m | 4.8m/s | 0°C | 0% | 0hPa | 0V | 00:00:00 | 00:00:00 | 00:00:00 | |
| 9A1FER-10 | 2026-08-31 12:13:11 | 46.17170 | 14.99845 | 81° | 139km/h | 11274m | 5.5m/s | 0°C | 0% | 0hPa | 0V | 00:00:00 | 00:00:00 | 00:00:00 | |
| 9A1FER-3 | 2026-08-31 12:13:00 | 46.17092 | 14.99301 | 81° | 139km/h | 11225m | 5.3m/s | 0°C | 0% | 0hPa | 0V | 00:00:00 | 00:00:00 | 00:00:00 | |
| 9A1FER-10 | 2026-08-31 12:12:57 | 46.17067 | 14.99104 | 78° | 139km/h | 11206m | 6.0m/s | 0°C | 0% | 0hPa | 0V | 00:00:00 | 00:00:00 | 00:00:00 | |
| 9A1FER-3 | 2026-08-31 12:12:44 | 46.16979 | 14.98513 | 77° | 137km/h | 11144m | 5.9m/s | 0°C | 0% | 0hPa | 0V | 00:00:00 | 00:00:00 | 00:00:00 | |
| OE3JTB-15 | 2026-08-31 12:12:41 | 46.16944 | 14.98268 | 80° | 135km/h | 11120m | 6.1m/s | 0°C | 0% | 0hPa | 0V | 00:00:00 | 00:00:00 | 00:00:00 | |
| 9A1FER-3 | 2026-08-31 12:12:29 | 46.16869 | 14.97785 | 78° | 137km/h | 11074m | 2.9m/s | 0°C | 0% | 0hPa | 0V | 00:00:00 | 00:00:00 | 00:00:00 | |
| 9A1FER-10 | 2026-08-31 12:12:27 | 46.16847 | 14.97637 | 76° | 135km/h | 11060m | 4.9m/s | 0°C | 0% | 0hPa | 0V | 00:00:00 | 00:00:00 | 00:00:00 | |
| 9A1FER-3 | 2026-08-31 12:12:14 | 46.16754 | 14.97062 | 77° | 133km/h | 11006m | 2.9m/s | 0°C | 0% | 0hPa | 0V | 00:00:00 | 00:00:00 | 00:00:00 | |
| 9A1FER-10 | 2026-08-31 12:12:11 | 46.16733 | 14.96923 | 78° | 137km/h | 10993m | 4.6m/s | 0°C | 0% | 0hPa | 0V | 00:00:00 | 00:00:00 | 00:00:00 | |
| 9A1FER-3 | 2026-08-31 12:11:59 | 46.16640 | 14.96346 | 76° | 135km/h | 10939m | 3.6m/s | 0°C | 0% | 0hPa | 0V | 00:00:00 | 00:00:00 | 00:00:00 | |
| 9A1FER-10 | 2026-08-31 12:11:56 | 46.16616 | 14.96196 | 76° | 133km/h | 10927m | 4.7m/s | 0°C | 0% | 0hPa | 0V | 00:00:00 | 00:00:00 | 00:00:00 | |
| 9A1FER-3 | 2026-08-31 12:11:44 | 46.16519 | 14.95628 | 77° | 133km/h | 10875m | 2.7m/s | 0°C | 0% | 0hPa | 0V | 00:00:00 | 00:00:00 | 00:00:00 | |
| 9A1FER-10 | 2026-08-31 12:11:41 | 46.16495 | 14.95485 | 78° | 135km/h | 10860m | 4.7m/s | 0°C | 0% | 0hPa | 0V | 00:00:00 | 00:00:00 | 00:00:00 | |
| OE3JTB-15 | 2026-08-31 12:11:34 | 46.16437 | 14.95158 | 76° | 135km/h | 10829m | 5.5m/s | 0°C | 0% | 0hPa | 0V | 00:00:00 | 00:00:00 | 00:00:00 | |
| 9A1FER-3 | 2026-08-31 12:11:29 | 46.16396 | 14.94917 | 76° | 135km/h | 10806m | 4.5m/s | 0°C | 0% | 0hPa | 0V | 00:00:00 | 00:00:00 | 00:00:00 | |
| 9A1FER-10 | 2026-08-31 12:11:26 | 46.16369 | 14.94775 | 76° | 135km/h | 10793m | 5.2m/s | 0°C | 0% | 0hPa | 0V | 00:00:00 | 00:00:00 | 00:00:00 | |
| 9A1FER-3 | 2026-08-31 12:11:14 | 46.16270 | 14.94206 | 78° | 135km/h | 10741m | 3.2m/s | 0°C | 0% | 0hPa | 0V | 00:00:00 | 00:00:00 | 00:00:00 | |
| 9A1FER-10 | 2026-08-31 12:11:11 | 46.16245 | 14.94062 | 77° | 135km/h | 10728m | 5.2m/s | 0°C | 0% | 0hPa | 0V | 00:00:00 | 00:00:00 | 00:00:00 | |
| OE3JTB-15 | 2026-08-31 12:11:04 | 46.16185 | 14.93732 | 77° | 133km/h | 10699m | 3.1m/s | 0°C | 0% | 0hPa | 0V | 00:00:00 | 00:00:00 | 00:00:00 | |
| 9A1FER-3 | 2026-08-31 12:10:59 | 46.16147 | 14.93493 | 77° | 131km/h | 10677m | 4.1m/s | 0°C | 0% | 0hPa | 0V | 00:00:00 | 00:00:00 | 00:00:00 | |
| 9A1FER-10 | 2026-08-31 12:10:56 | 46.16121 | 14.93351 | 77° | 131km/h | 10664m | 5.4m/s | 0°C | 0% | 0hPa | 0V | 00:00:00 | 00:00:00 | 00:00:00 | |
| 9A1FER-3 | 2026-08-31 12:10:44 | 46.16030 | 14.92791 | 79° | 135km/h | 10613m | 3.5m/s | 0°C | 0% | 0hPa | 0V | 00:00:00 | 00:00:00 | 00:00:00 | |
| 9A1FER-10 | 2026-08-31 12:10:41 | 46.16005 | 14.92648 | 76° | 133km/h | 10599m | 4.6m/s | 0°C | 0% | 0hPa | 0V | 00:00:00 | 00:00:00 | 00:00:00 | |
| OE3JTB-15 | 2026-08-31 12:10:35 | 46.15958 | 14.92365 | 76° | 133km/h | 10574m | 4.6m/s | 0°C | 0% | 0hPa | 0V | 00:00:00 | 00:00:00 | 00:00:00 | |
| 9A1FER-3 | 2026-08-31 12:10:29 | 46.15908 | 14.92076 | 78° | 133km/h | 10550m | 4.4m/s | 0°C | 0% | 0hPa | 0V | 00:00:00 | 00:00:00 | 00:00:00 | |
| 9A1FER-10 | 2026-08-31 12:10:26 | 46.15887 | 14.91938 | 77° | 131km/h | 10537m | 3.2m/s | 0°C | 0% | 0hPa | 0V | 00:00:00 | 00:00:00 | 00:00:00 | |
| 9A1FER-10 | 2026-08-31 12:10:11 | 46.15771 | 14.91232 | 77° | 131km/h | 10471m | 4.7m/s | 0°C | 0% | 0hPa | 0V | 00:00:00 | 00:00:00 | 00:00:00 | |
| 9A1FER-3 | 2026-08-31 12:09:59 | 46.15678 | 14.90669 | 77° | 131km/h | 10421m | 4.6m/s | 0°C | 0% | 0hPa | 0V | 00:00:00 | 00:00:00 | 00:00:00 | |
| 9A1FER-10 | 2026-08-31 12:09:56 | 46.15656 | 14.90533 | 78° | 131km/h | 10409m | 3.0m/s | 0°C | 0% | 0hPa | 0V | 00:00:00 | 00:00:00 | 00:00:00 | |
| OE3JTB-15 | 2026-08-31 12:09:55 | 46.15648 | 14.90486 | 76° | 131km/h | 10405m | 5.2m/s | 0°C | 0% | 0hPa | 0V | 00:00:00 | 00:00:00 | 00:00:00 | |
| 9A1FER-3 | 2026-08-31 12:09:44 | 46.15566 | 14.89967 | 76° | 131km/h | 10358m | 5.4m/s | 0°C | 0% | 0hPa | 0V | 00:00:00 | 00:00:00 | 00:00:00 | |
| 9A1FER-10 | 2026-08-31 12:09:41 | 46.15544 | 14.89828 | 79° | 131km/h | 10344m | 4.5m/s | 0°C | 0% | 0hPa | 0V | 00:00:00 | 00:00:00 | 00:00:00 | |
| 9A1FER-3 | 2026-08-31 12:09:29 | 46.15458 | 14.89265 | 77° | 133km/h | 10293m | 5.6m/s | 0°C | 0% | 0hPa | 0V | 00:00:00 | 00:00:00 | 00:00:00 | |
| 9A1FER-10 | 2026-08-31 12:09:26 | 46.15435 | 14.89126 | 79° | 135km/h | 10280m | 4.1m/s | 0°C | 0% | 0hPa | 0V | 00:00:00 | 00:00:00 | 00:00:00 | |
| OE3JTB-15 | 2026-08-31 12:09:24 | 46.15422 | 14.89028 | 78° | 133km/h | 10271m | 3.8m/s | 0°C | 0% | 0hPa | 0V | 00:00:00 | 00:00:00 | 00:00:00 | |
| 9A1FER-3 | 2026-08-31 12:09:14 | 46.15345 | 14.88545 | 77° | 133km/h | 10228m | 4.8m/s | 0°C | 0% | 0hPa | 0V | 00:00:00 | 00:00:00 | 00:00:00 | |
| 9A1FER-10 | 2026-08-31 12:09:05 | 46.15268 | 14.88069 | 76° | 130km/h | 10186m | 3.1m/s | 0°C | 0% | 0hPa | 0V | 00:00:00 | 00:00:00 | 00:00:00 | |
| 9A1FER-3 | 2026-08-31 12:08:59 | 46.15226 | 14.87838 | 80° | 130km/h | 10162m | 5.9m/s | 0°C | 0% | 0hPa | 0V | 00:00:00 | 00:00:00 | 00:00:00 | |
| 9A1FER-10 | 2026-08-31 12:08:49 | 46.15148 | 14.87380 | 74° | 130km/h | 10115m | 4.9m/s | 0°C | 0% | 0hPa | 0V | 00:00:00 | 00:00:00 | 00:00:00 | |
| OE3JTB-15 | 2026-08-31 12:08:47 | 46.15130 | 14.87290 | 75° | 106km/h | 10107m | 3.8m/s | 0°C | 0% | 0hPa | 0V | 00:00:00 | 00:00:00 | 00:00:00 | |
| 9A1FER-3 | 2026-08-31 12:08:44 | 46.15103 | 14.87155 | 75° | 130km/h | 10093m | 4.2m/s | 0°C | 0% | 0hPa | 0V | 00:00:00 | 00:00:00 | 00:00:00 | |
| 9A1FER-10 | 2026-08-31 12:08:34 | 46.15014 | 14.86702 | 75° | 131km/h | 10050m | 4.0m/s | 0°C | 0% | 0hPa | 0V | 00:00:00 | 00:00:00 | 00:00:00 | |
| 9A1FER-3 | 2026-08-31 12:08:29 | 46.14972 | 14.86471 | 76° | 131km/h | 10026m | 5.5m/s | 0°C | 0% | 0hPa | 0V | 00:00:00 | 00:00:00 | 00:00:00 | |
| 9A1FER-3 | 2026-08-31 12:08:12 | 46.14814 | 14.85693 | 75° | 131km/h | 9948m | 4.9m/s | 0°C | 0% | 0hPa | 0V | 00:00:00 | 00:00:00 | 00:00:00 | |
| 9A1FER-10 | 2026-08-31 12:08:05 | 46.14747 | 14.85372 | 73° | 130km/h | 9918m | 4.6m/s | 0°C | 0% | 0hPa | 0V | 00:00:00 | 00:00:00 | 00:00:00 | |
| 9A1FER-3 | 2026-08-31 12:07:57 | 46.14677 | 14.85006 | 73° | 131km/h | 9884m | 5.4m/s | 0°C | 0% | 0hPa | 0V | 00:00:00 | 00:00:00 | 00:00:00 | |
| 9A1FER-10 | 2026-08-31 12:07:50 | 46.14615 | 14.84684 | 77° | 130km/h | 9852m | 5.3m/s | 0°C | 0% | 0hPa | 0V | 00:00:00 | 00:00:00 | 00:00:00 | |
| 9A1FER-3 | 2026-08-31 12:07:42 | 46.14542 | 14.84316 | 75° | 131km/h | 9817m | 5.7m/s | 0°C | 0% | 0hPa | 0V | 00:00:00 | 00:00:00 | 00:00:00 | |
| 9A1FER-3 | 2026-08-31 12:07:27 | 46.14407 | 14.83623 | 73° | 133km/h | 9750m | 5.1m/s | 0°C | 0% | 0hPa | 0V | 00:00:00 | 00:00:00 | 00:00:00 | |
| 9A1FER-3 | 2026-08-31 12:07:12 | 46.14268 | 14.82926 | 75° | 128km/h | 9681m | 3.8m/s | 0°C | 0% | 0hPa | 0V | 00:00:00 | 00:00:00 | 00:00:00 | |
| 9A1FER-10 | 2026-08-31 12:07:02 | 46.14177 | 14.82476 | 73° | 124km/h | 9634m | 6.4m/s | 0°C | 0% | 0hPa | 0V | 00:00:00 | 00:00:00 | 00:00:00 | |
| 9A1FER-3 | 2026-08-31 12:06:58 | 46.14132 | 14.82253 | 75° | 122km/h | 9612m | 4.6m/s | 0°C | 0% | 0hPa | 0V | 00:00:00 | 00:00:00 | 00:00:00 | |
| 9A1FER-10 | 2026-08-31 12:06:47 | 46.14042 | 14.81825 | 74° | 120km/h | 9569m | 3.1m/s | 0°C | 0% | 0hPa | 0V | 00:00:00 | 00:00:00 | 00:00:00 | |
| 9A1FER-3 | 2026-08-31 12:06:42 | 46.13999 | 14.81614 | 74° | 120km/h | 9546m | 4.4m/s | 0°C | 0% | 0hPa | 0V | 00:00:00 | 00:00:00 | 00:00:00 | |
| 9A1FER-10 | 2026-08-31 12:06:32 | 46.13910 | 14.81194 | 75° | 119km/h | 9505m | 4.6m/s | 0°C | 0% | 0hPa | 0V | 00:00:00 | 00:00:00 | 00:00:00 | |
| 9A1FER-3 | 2026-08-31 12:06:27 | 46.13864 | 14.80991 | 72° | 119km/h | 9482m | 5.0m/s | 0°C | 0% | 0hPa | 0V | 00:00:00 | 00:00:00 | 00:00:00 | |
| 9A1FER-10 | 2026-08-31 12:06:17 | 46.13772 | 14.80579 | 71° | 117km/h | 9441m | 3.7m/s | 0°C | 0% | 0hPa | 0V | 00:00:00 | 00:00:00 | 00:00:00 | |
| 9A1FER-3 | 2026-08-31 12:06:12 | 46.13726 | 14.80376 | 72° | 119km/h | 9418m | 5.8m/s | 0°C | 0% | 0hPa | 0V | 00:00:00 | 00:00:00 | 00:00:00 | |
| 9A1FER-10 | 2026-08-31 12:06:01 | 46.13624 | 14.79927 | 73° | 117km/h | 9369m | 3.8m/s | 0°C | 0% | 0hPa | 0V | 00:00:00 | 00:00:00 | 00:00:00 | |
| 9A1FER-3 | 2026-08-31 12:05:57 | 46.13588 | 14.79764 | 73° | 119km/h | 9351m | 5.0m/s | 0°C | 0% | 0hPa | 0V | 00:00:00 | 00:00:00 | 00:00:00 | |
| 9A1FER-10 | 2026-08-31 12:05:45 | 46.13481 | 14.79275 | 75° | 117km/h | 9299m | 4.4m/s | 0°C | 0% | 0hPa | 0V | 00:00:00 | 00:00:00 | 00:00:00 | |
| 9A1FER-3 | 2026-08-31 12:05:42 | 46.13456 | 14.79148 | 75° | 115km/h | 9285m | 5.0m/s | 0°C | 0% | 0hPa | 0V | 00:00:00 | 00:00:00 | 00:00:00 | |
| 9A1FER-10 | 2026-08-31 12:05:30 | 46.13359 | 14.78659 | 75° | 113km/h | 9232m | 4.2m/s | 0°C | 0% | 0hPa | 0V | 00:00:00 | 00:00:00 | 00:00:00 | |
| 9A1FER-3 | 2026-08-31 12:05:27 | 46.13336 | 14.78543 | 75° | 115km/h | 9219m | 5.3m/s | 0°C | 0% | 0hPa | 0V | 00:00:00 | 00:00:00 | 00:00:00 | |
| 9A1FER-10 | 2026-08-31 12:05:15 | 46.13233 | 14.78074 | 75° | 100km/h | 9167m | 3.4m/s | 0°C | 0% | 0hPa | 0V | 00:00:00 | 00:00:00 | 00:00:00 | |
| 9A1FER-3 | 2026-08-31 12:05:02 | 46.13138 | 14.77584 | 76° | 102km/h | 9109m | 5.7m/s | 0°C | 0% | 0hPa | 0V | 00:00:00 | 00:00:00 | 00:00:00 | |
| 9A1FER-10 | 2026-08-31 12:04:58 | 46.13110 | 14.77444 | 76° | 104km/h | 9091m | 4.6m/s | 0°C | 0% | 0hPa | 0V | 00:00:00 | 00:00:00 | 00:00:00 | |
| 9A1FER-3 | 2026-08-31 12:04:45 | 46.13025 | 14.76969 | 78° | 102km/h | 9034m | 5.6m/s | 0°C | 0% | 0hPa | 0V | 00:00:00 | 00:00:00 | 00:00:00 | |
| 9A1FER-10 | 2026-08-31 12:04:43 | 46.13011 | 14.76893 | 75° | 100km/h | 9025m | 4.8m/s | 0°C | 0% | 0hPa | 0V | 00:00:00 | 00:00:00 | 00:00:00 | |
| 9A1FER-3 | 2026-08-31 12:04:29 | 46.12918 | 14.76396 | 73° | 99km/h | 8963m | 5.3m/s | 0°C | 0% | 0hPa | 0V | 00:00:00 | 00:00:00 | 00:00:00 | |
| 9A1FER-10 | 2026-08-31 12:04:28 | 46.12910 | 14.76362 | 72° | 99km/h | 8959m | 2.6m/s | 0°C | 0% | 0hPa | 0V | 00:00:00 | 00:00:00 | 00:00:00 | |
| 9A1FER-3 | 2026-08-31 12:04:14 | 46.12814 | 14.75883 | 76° | 99km/h | 8898m | 4.5m/s | 0°C | 0% | 0hPa | 0V | 00:00:00 | 00:00:00 | 00:00:00 | |
| 9A1FER-10 | 2026-08-31 12:04:13 | 46.12808 | 14.75849 | 74° | 99km/h | 8893m | 4.7m/s | 0°C | 0% | 0hPa | 0V | 00:00:00 | 00:00:00 | 00:00:00 | |
| 9A1FER-3 | 2026-08-31 12:03:59 | 46.12708 | 14.75372 | 73° | 97km/h | 8833m | 2.5m/s | 0°C | 0% | 0hPa | 0V | 00:00:00 | 00:00:00 | 00:00:00 | |
| 9A1FER-10 | 2026-08-31 12:03:52 | 46.12651 | 14.75134 | 73° | 97km/h | 8804m | 5.4m/s | 0°C | 0% | 0hPa | 0V | 00:00:00 | 00:00:00 | 00:00:00 | |
| 9A1FER-3 | 2026-08-31 12:03:43 | 46.12581 | 14.74834 | 73° | 97km/h | 8767m | 5.6m/s | 0°C | 0% | 0hPa | 0V | 00:00:00 | 00:00:00 | 00:00:00 | |
| 9A1FER-10 | 2026-08-31 12:03:37 | 46.12535 | 14.74630 | 72° | 97km/h | 8740m | 2.8m/s | 0°C | 0% | 0hPa | 0V | 00:00:00 | 00:00:00 | 00:00:00 | |
| 9A1FER-10 | 2026-08-31 12:03:22 | 46.12411 | 14.74138 | 69° | 93km/h | 8671m | 4.3m/s | 0°C | 0% | 0hPa | 0V | 00:00:00 | 00:00:00 | 00:00:00 | |
| 9A1FER-3 | 2026-08-31 12:03:14 | 46.12349 | 14.73877 | 70° | 89km/h | 8633m | 5.3m/s | 0°C | 0% | 0hPa | 0V | 00:00:00 | 00:00:00 | 00:00:00 | |
| 9A1FER-10 | 2026-08-31 12:02:38 | 46.12091 | 14.72709 | 75° | 77km/h | 8472m | 2.6m/s | 0°C | 0% | 0hPa | 0V | 00:00:00 | 00:00:00 | 00:00:00 | |
| 9A1FER-3 | 2026-08-31 12:00:11 | 46.11182 | 14.68427 | 72° | 73km/h | 7743m | 6.4m/s | 0°C | 0% | 0hPa | 0V | 00:00:00 | 00:00:00 | 00:00:00 | |
| 9A1FER-3 | 2026-08-31 11:55:52 | 46.09600 | 14.62004 | 64° | 62km/h | 6509m | 4.9m/s | 0°C | 0% | 0hPa | 0V | 00:00:00 | 00:00:00 | 00:00:00 |